<?xml version='1.0' encoding='UTF-8'?><gpx version="1.1" creator="JPX - https://github.com/jenetics/jpx" xmlns="http://www.topografix.com/GPX/1/1"><trk><trkseg><trkpt lat="37.85462158321562" lon="-25.78886092629352"><ele>261.0</ele><time>2026-04-29T11:42:16Z</time></trkpt><trkpt lat="37.854654688815785" lon="-25.788779647198616"><ele>261.0</ele><time>2026-04-29T11:42:21Z</time></trkpt><trkpt lat="37.85471311282609" lon="-25.78872512172459"><ele>261.0</ele><time>2026-04-29T11:42:27Z</time></trkpt><trkpt lat="37.85475556103837" lon="-25.78865799710837"><ele>261.0</ele><time>2026-04-29T11:42:34Z</time></trkpt><trkpt lat="37.85482068265712" lon="-25.788610880611532"><ele>261.0</ele><time>2026-04-29T11:42:40Z</time></trkpt><trkpt lat="37.854893504265384" lon="-25.788609925970523"><ele>261.0</ele><time>2026-04-29T11:42:46Z</time></trkpt><trkpt lat="37.85495527515026" lon="-25.788650837750808"><ele>261.0</ele><time>2026-04-29T11:42:51Z</time></trkpt><trkpt lat="37.85501161700369" lon="-25.788688399565494"><ele>261.0</ele><time>2026-04-29T11:42:57Z</time></trkpt><trkpt lat="37.85508117303573" lon="-25.78870747353829"><ele>261.0</ele><time>2026-04-29T11:43:02Z</time></trkpt><trkpt lat="37.85514336437946" lon="-25.78875917201772"><ele>261.0</ele><time>2026-04-29T11:43:08Z</time></trkpt><trkpt lat="37.85519544254676" lon="-25.788815276999774"><ele>261.0</ele><time>2026-04-29T11:43:14Z</time></trkpt><trkpt lat="37.85524758780153" lon="-25.78887055727598"><ele>261.0</ele><time>2026-04-29T11:43:20Z</time></trkpt><trkpt lat="37.855298240527674" lon="-25.78892608161954"><ele>261.0</ele><time>2026-04-29T11:43:27Z</time></trkpt><trkpt lat="37.85535611165468" lon="-25.788968828784178"><ele>261.0</ele><time>2026-04-29T11:43:51Z</time></trkpt><trkpt lat="37.85540587126596" lon="-25.789020790493677"><ele>261.14285714285717</ele><time>2026-04-29T11:43:56Z</time></trkpt><trkpt lat="37.85546468640713" lon="-25.789068423367286"><ele>261.2857142857143</ele><time>2026-04-29T11:44:02Z</time></trkpt><trkpt lat="37.85552318238393" lon="-25.789127829983332"><ele>261.42857142857144</ele><time>2026-04-29T11:44:08Z</time></trkpt><trkpt lat="37.8555822051894" lon="-25.789178168803794"><ele>261.57142857142856</ele><time>2026-04-29T11:44:14Z</time></trkpt><trkpt lat="37.85564333398399" lon="-25.789236050751704"><ele>261.7142857142857</ele><time>2026-04-29T11:44:20Z</time></trkpt><trkpt lat="37.85569845997499" lon="-25.789285188014475"><ele>261.8571428571429</ele><time>2026-04-29T11:44:25Z</time></trkpt><trkpt lat="37.85575370786443" lon="-25.789340662710963"><ele>262.0</ele><time>2026-04-29T11:44:30Z</time></trkpt><trkpt lat="37.855809930452445" lon="-25.789381897566695"><ele>262.14285714285717</ele><time>2026-04-29T11:44:35Z</time></trkpt><trkpt lat="37.855866349578" lon="-25.78943842162864"><ele>262.28571428571433</ele><time>2026-04-29T11:44:41Z</time></trkpt><trkpt lat="37.855918800112676" lon="-25.78948598183635"><ele>262.42857142857144</ele><time>2026-04-29T11:44:46Z</time></trkpt><trkpt lat="37.85597307697783" lon="-25.789544937550072"><ele>262.57142857142856</ele><time>2026-04-29T11:44:52Z</time></trkpt><trkpt lat="37.85603775501053" lon="-25.789587261810244"><ele>262.71428571428567</ele><time>2026-04-29T11:44:58Z</time></trkpt><trkpt lat="37.856082800176395" lon="-25.789654587456955"><ele>262.85714285714283</ele><time>2026-04-29T11:45:04Z</time></trkpt><trkpt lat="37.85613715403386" lon="-25.789716273471747"><ele>263.0</ele><time>2026-04-29T11:45:10Z</time></trkpt><trkpt lat="37.85619356356024" lon="-25.7897684385648"><ele>263.1428571428571</ele><time>2026-04-29T11:45:16Z</time></trkpt><trkpt lat="37.856249914393146" lon="-25.789820762254397"><ele>263.2857142857143</ele><time>2026-04-29T11:45:22Z</time></trkpt><trkpt lat="37.85630690053244" lon="-25.789875981009313"><ele>263.42857142857144</ele><time>2026-04-29T11:45:28Z</time></trkpt><trkpt lat="37.85636388151313" lon="-25.789933431299875"><ele>263.57142857142856</ele><time>2026-04-29T11:45:34Z</time></trkpt><trkpt lat="37.85641990280442" lon="-25.789978731553447"><ele>263.7142857142857</ele><time>2026-04-29T11:45:40Z</time></trkpt><trkpt lat="37.85648020093737" lon="-25.790025124687425"><ele>263.85714285714283</ele><time>2026-04-29T11:45:46Z</time></trkpt><trkpt lat="37.856536654933834" lon="-25.79007548307073"><ele>264.0</ele><time>2026-04-29T11:45:52Z</time></trkpt><trkpt lat="37.85659239367242" lon="-25.790129779354867"><ele>264.0</ele><time>2026-04-29T11:45:58.001Z</time></trkpt><trkpt lat="37.8566516693805" lon="-25.790181958974348"><ele>264.0</ele><time>2026-04-29T11:46:04.001Z</time></trkpt><trkpt lat="37.856708730654425" lon="-25.790234885761326"><ele>264.0</ele><time>2026-04-29T11:46:10.001Z</time></trkpt><trkpt lat="37.85676302139972" lon="-25.790288354500756"><ele>264.0</ele><time>2026-04-29T11:46:16.001Z</time></trkpt><trkpt lat="37.8568077922031" lon="-25.790373860069746"><ele>264.0</ele><time>2026-04-29T11:46:25.001Z</time></trkpt><trkpt lat="37.85686482873306" lon="-25.790415596073334"><ele>264.0</ele><time>2026-04-29T11:46:31.001Z</time></trkpt><trkpt lat="37.856925315205785" lon="-25.790471468499696"><ele>264.0</ele><time>2026-04-29T11:46:39.001Z</time></trkpt><trkpt lat="37.85697554760601" lon="-25.790520716072685"><ele>264.0</ele><time>2026-04-29T11:46:44.001Z</time></trkpt><trkpt lat="37.857031663078736" lon="-25.79055907762383"><ele>264.0</ele><time>2026-04-29T11:46:49.001Z</time></trkpt><trkpt lat="37.85708429306156" lon="-25.790621504742436"><ele>264.0</ele><time>2026-04-29T11:46:55.001Z</time></trkpt><trkpt lat="37.85713364518387" lon="-25.790672724190255"><ele>264.0</ele><time>2026-04-29T11:47:00.001Z</time></trkpt><trkpt lat="37.85719215865009" lon="-25.79072891215791"><ele>264.0</ele><time>2026-04-29T11:47:06.001Z</time></trkpt><trkpt lat="37.857249472298975" lon="-25.79078777371722"><ele>264.0</ele><time>2026-04-29T11:47:12.001Z</time></trkpt><trkpt lat="37.857312153539574" lon="-25.79083443529652"><ele>264.0</ele><time>2026-04-29T11:47:18.001Z</time></trkpt><trkpt lat="37.85737038164581" lon="-25.79089109832996"><ele>264.0</ele><time>2026-04-29T11:47:24.001Z</time></trkpt><trkpt lat="37.85742572361896" lon="-25.790957048070098"><ele>264.0</ele><time>2026-04-29T11:47:30.001Z</time></trkpt><trkpt lat="37.85747872539897" lon="-25.79100300249812"><ele>264.0</ele><time>2026-04-29T11:47:35.001Z</time></trkpt><trkpt lat="37.85752038598371" lon="-25.791069478808296"><ele>264.0</ele><time>2026-04-29T11:47:40.001Z</time></trkpt><trkpt lat="37.85757687325627" lon="-25.791115216165743"><ele>264.0</ele><time>2026-04-29T11:47:45.001Z</time></trkpt><trkpt lat="37.85763762749566" lon="-25.791173727770712"><ele>264.0</ele><time>2026-04-29T11:47:51.001Z</time></trkpt><trkpt lat="37.8576942243376" lon="-25.79121498087177"><ele>264.0</ele><time>2026-04-29T11:47:56.001Z</time></trkpt><trkpt lat="37.85774442388015" lon="-25.791269694199855"><ele>263.57142857142856</ele><time>2026-04-29T11:48:01.001Z</time></trkpt><trkpt lat="37.85779572345006" lon="-25.79133733606694"><ele>263.14285714285717</ele><time>2026-04-29T11:48:07.001Z</time></trkpt><trkpt lat="37.8578565637779" lon="-25.79138684533844"><ele>262.7142857142857</ele><time>2026-04-29T11:48:13.001Z</time></trkpt><trkpt lat="37.85791389221248" lon="-25.791445350569713"><ele>262.2857142857143</ele><time>2026-04-29T11:48:19.001Z</time></trkpt><trkpt lat="37.85796948852504" lon="-25.79151057845607"><ele>261.85714285714283</ele><time>2026-04-29T11:48:25.001Z</time></trkpt><trkpt lat="37.85802532989414" lon="-25.79157513606008"><ele>261.42857142857144</ele><time>2026-04-29T11:48:31.001Z</time></trkpt><trkpt lat="37.85807334044312" lon="-25.79162815885084"><ele>261.0</ele><time>2026-04-29T11:48:36.001Z</time></trkpt><trkpt lat="37.85813137980742" lon="-25.791681852291532"><ele>261.0</ele><time>2026-04-29T11:48:42.001Z</time></trkpt><trkpt lat="37.858194277941095" lon="-25.791722936089982"><ele>261.0</ele><time>2026-04-29T11:48:48Z</time></trkpt><trkpt lat="37.858256742575854" lon="-25.791756819531873"><ele>261.0</ele><time>2026-04-29T11:48:54Z</time></trkpt><trkpt lat="37.858333127643554" lon="-25.791760808079825"><ele>261.0</ele><time>2026-04-29T11:49:00Z</time></trkpt><trkpt lat="37.8583986229802" lon="-25.7917637582759"><ele>261.0</ele><time>2026-04-29T11:49:05Z</time></trkpt><trkpt lat="37.85846413414485" lon="-25.79177451122703"><ele>261.0</ele><time>2026-04-29T11:49:10Z</time></trkpt><trkpt lat="37.85853584312149" lon="-25.79178431357638"><ele>261.0</ele><time>2026-04-29T11:49:16Z</time></trkpt><trkpt lat="37.858599802832195" lon="-25.791808439210005"><ele>261.2857142857143</ele><time>2026-04-29T11:49:21Z</time></trkpt><trkpt lat="37.85866624943732" lon="-25.791815321281845"><ele>261.57142857142856</ele><time>2026-04-29T11:49:26Z</time></trkpt><trkpt lat="37.85873472696343" lon="-25.791831060589338"><ele>261.85714285714283</ele><time>2026-04-29T11:49:31Z</time></trkpt><trkpt lat="37.85879861145874" lon="-25.79184321843617"><ele>262.1428571428571</ele><time>2026-04-29T11:49:36Z</time></trkpt><trkpt lat="37.85887187693183" lon="-25.791862613281857"><ele>262.4285714285714</ele><time>2026-04-29T11:49:42Z</time></trkpt><trkpt lat="37.858937020732185" lon="-25.7918770471493"><ele>262.7142857142857</ele><time>2026-04-29T11:49:47Z</time></trkpt><trkpt lat="37.859003492090494" lon="-25.79188170924171"><ele>263.0</ele><time>2026-04-29T11:49:52Z</time></trkpt><trkpt lat="37.85907065258438" lon="-25.791878350656013"><ele>263.1428571428571</ele><time>2026-04-29T11:49:57Z</time></trkpt><trkpt lat="37.85913753534802" lon="-25.79189699324227"><ele>263.2857142857143</ele><time>2026-04-29T11:50:02Z</time></trkpt><trkpt lat="37.859209348416016" lon="-25.791923863284204"><ele>263.42857142857144</ele><time>2026-04-29T11:50:08.001Z</time></trkpt><trkpt lat="37.85927445672676" lon="-25.79192275928738"><ele>263.57142857142856</ele><time>2026-04-29T11:50:13.001Z</time></trkpt><trkpt lat="37.85933343766705" lon="-25.791965547204924"><ele>263.7142857142857</ele><time>2026-04-29T11:50:19.001Z</time></trkpt><trkpt lat="37.8593902705878" lon="-25.79200337512764"><ele>263.85714285714283</ele><time>2026-04-29T11:50:24.001Z</time></trkpt><trkpt lat="37.85945912390713" lon="-25.79202296377259"><ele>264.0</ele><time>2026-04-29T11:50:31Z</time></trkpt><trkpt lat="37.8595144984292" lon="-25.79207968023722"><ele>264.0</ele><time>2026-04-29T11:50:42Z</time></trkpt><trkpt lat="37.85952478137122" lon="-25.79216148582187"><ele>264.0</ele><time>2026-04-29T11:51:08Z</time></trkpt><trkpt lat="37.859552389418816" lon="-25.792237253896054"><ele>264.0</ele><time>2026-04-29T11:51:44Z</time></trkpt><trkpt lat="37.859598257065805" lon="-25.792294567653663"><ele>264.0</ele><time>2026-04-29T11:51:56Z</time></trkpt><trkpt lat="37.85965051211369" lon="-25.792373028506926"><ele>264.0</ele><time>2026-04-29T11:52:03Z</time></trkpt><trkpt lat="37.859693167989896" lon="-25.792454753838953"><ele>264.0</ele><time>2026-04-29T11:52:10Z</time></trkpt><trkpt lat="37.85972945765774" lon="-25.79252124075154"><ele>264.0</ele><time>2026-04-29T11:52:16Z</time></trkpt><trkpt lat="37.859776328889055" lon="-25.792592090627622"><ele>264.0</ele><time>2026-04-29T11:52:22Z</time></trkpt><trkpt lat="37.859839138718826" lon="-25.792600411003264"><ele>264.0</ele><time>2026-04-29T11:52:28Z</time></trkpt><trkpt lat="37.859792461897506" lon="-25.792656628035516"><ele>264.0</ele><time>2026-04-29T11:52:41Z</time></trkpt><trkpt lat="37.859818318915714" lon="-25.79273029960272"><ele>264.0</ele><time>2026-04-29T11:52:48Z</time></trkpt><trkpt lat="37.859864990519704" lon="-25.79279226641426"><ele>264.0</ele><time>2026-04-29T11:53:01Z</time></trkpt><trkpt lat="37.8599207945548" lon="-25.7928582284712"><ele>264.0</ele><time>2026-04-29T11:53:07Z</time></trkpt><trkpt lat="37.859963640446026" lon="-25.792927623293213"><ele>264.0</ele><time>2026-04-29T11:53:13Z</time></trkpt><trkpt lat="37.85999838668859" lon="-25.793010679333854"><ele>264.0</ele><time>2026-04-29T11:53:18Z</time></trkpt><trkpt lat="37.860038841725114" lon="-25.793088663314897"><ele>264.0</ele><time>2026-04-29T11:53:24Z</time></trkpt><trkpt lat="37.860075653355985" lon="-25.793155317321666"><ele>264.0</ele><time>2026-04-29T11:53:29Z</time></trkpt><trkpt lat="37.86011872552771" lon="-25.793225685474308"><ele>264.0</ele><time>2026-04-29T11:53:35Z</time></trkpt><trkpt lat="37.86016387201889" lon="-25.793298923573783"><ele>264.0</ele><time>2026-04-29T11:53:41Z</time></trkpt><trkpt lat="37.860208717665024" lon="-25.79336650950702"><ele>264.0</ele><time>2026-04-29T11:53:47Z</time></trkpt><trkpt lat="37.86025245996483" lon="-25.793441535057983"><ele>264.0</ele><time>2026-04-29T11:53:53Z</time></trkpt><trkpt lat="37.86028772914491" lon="-25.7935191784751"><ele>264.0</ele><time>2026-04-29T11:53:58Z</time></trkpt><trkpt lat="37.860332583136945" lon="-25.793590652378306"><ele>264.0</ele><time>2026-04-29T11:54:04Z</time></trkpt><trkpt lat="37.860372319163545" lon="-25.793670680520233"><ele>264.0</ele><time>2026-04-29T11:54:10Z</time></trkpt><trkpt lat="37.86041353994047" lon="-25.793749832300016"><ele>264.0</ele><time>2026-04-29T11:54:16Z</time></trkpt><trkpt lat="37.86046501832512" lon="-25.793812716536664"><ele>264.0</ele><time>2026-04-29T11:54:22Z</time></trkpt><trkpt lat="37.86049695876181" lon="-25.79388243844798"><ele>264.0</ele><time>2026-04-29T11:54:27Z</time></trkpt><trkpt lat="37.86053346591014" lon="-25.79396173932158"><ele>264.0</ele><time>2026-04-29T11:54:33Z</time></trkpt><trkpt lat="37.86057663015329" lon="-25.79402699996482"><ele>264.0</ele><time>2026-04-29T11:54:39Z</time></trkpt><trkpt lat="37.860622836849366" lon="-25.794099321142955"><ele>264.0</ele><time>2026-04-29T11:54:45Z</time></trkpt><trkpt lat="37.8606737204454" lon="-25.794168295012465"><ele>264.0</ele><time>2026-04-29T11:54:52Z</time></trkpt><trkpt lat="37.860701652524774" lon="-25.794246460398735"><ele>264.0</ele><time>2026-04-29T11:54:58Z</time></trkpt><trkpt lat="37.860752122555056" lon="-25.794330795419906"><ele>264.0</ele><time>2026-04-29T11:55:04Z</time></trkpt><trkpt lat="37.86078949357058" lon="-25.79440687845128"><ele>264.0</ele><time>2026-04-29T11:55:10Z</time></trkpt><trkpt lat="37.86085041106452" lon="-25.79444997675984"><ele>264.0</ele><time>2026-04-29T11:55:17Z</time></trkpt><trkpt lat="37.86089593549186" lon="-25.79452411300795"><ele>264.0</ele><time>2026-04-29T11:55:23Z</time></trkpt><trkpt lat="37.860924224500785" lon="-25.794609495746123"><ele>264.0</ele><time>2026-04-29T11:55:29Z</time></trkpt><trkpt lat="37.8609721408393" lon="-25.794678284863124"><ele>264.0</ele><time>2026-04-29T11:55:35Z</time></trkpt><trkpt lat="37.86101686266752" lon="-25.794743369108062"><ele>264.0</ele><time>2026-04-29T11:55:41Z</time></trkpt><trkpt lat="37.86106370011871" lon="-25.794819036844615"><ele>264.0</ele><time>2026-04-29T11:55:47Z</time></trkpt><trkpt lat="37.86110689445829" lon="-25.794896290278434"><ele>264.0</ele><time>2026-04-29T11:55:53Z</time></trkpt><trkpt lat="37.86114854521607" lon="-25.794978777792913"><ele>264.0</ele><time>2026-04-29T11:55:59Z</time></trkpt><trkpt lat="37.86118501740696" lon="-25.79505687317241"><ele>264.0</ele><time>2026-04-29T11:56:05Z</time></trkpt><trkpt lat="37.86122972108697" lon="-25.795133323420323"><ele>264.0</ele><time>2026-04-29T11:56:11.999Z</time></trkpt><trkpt lat="37.861271697053176" lon="-25.79520284995738"><ele>264.0</ele><time>2026-04-29T11:56:17.999Z</time></trkpt><trkpt lat="37.86131433094127" lon="-25.79526390981498"><ele>264.0</ele><time>2026-04-29T11:56:23.999Z</time></trkpt><trkpt lat="37.86135442840983" lon="-25.795325822955604"><ele>264.0</ele><time>2026-04-29T11:56:29.999Z</time></trkpt><trkpt lat="37.86140438009604" lon="-25.79539289751682"><ele>264.0</ele><time>2026-04-29T11:56:35.999Z</time></trkpt><trkpt lat="37.861448352845755" lon="-25.795451455969523"><ele>264.0</ele><time>2026-04-29T11:56:40.999Z</time></trkpt><trkpt lat="37.861499919088246" lon="-25.795511709543828"><ele>264.42857142857144</ele><time>2026-04-29T11:56:46.999Z</time></trkpt><trkpt lat="37.86154891527664" lon="-25.795579200016604"><ele>264.8571428571429</ele><time>2026-04-29T11:56:52.999Z</time></trkpt><trkpt lat="37.8615883983643" lon="-25.795647170517288"><ele>265.28571428571433</ele><time>2026-04-29T11:56:59Z</time></trkpt><trkpt lat="37.86162843941249" lon="-25.79571002933922"><ele>265.7142857142857</ele><time>2026-04-29T11:57:04Z</time></trkpt><trkpt lat="37.86167019085236" lon="-25.795786741880526"><ele>266.14285714285717</ele><time>2026-04-29T11:57:10Z</time></trkpt><trkpt lat="37.861707200743325" lon="-25.795866423304542"><ele>266.5714285714286</ele><time>2026-04-29T11:57:15Z</time></trkpt><trkpt lat="37.86176258999288" lon="-25.795918923266147"><ele>267.0</ele><time>2026-04-29T11:57:20Z</time></trkpt><trkpt lat="37.861782638785414" lon="-25.795996480990045"><ele>267.28571428571433</ele><time>2026-04-29T11:57:24Z</time></trkpt><trkpt lat="37.86183346781545" lon="-25.79604952069009"><ele>267.57142857142856</ele><time>2026-04-29T11:57:29Z</time></trkpt><trkpt lat="37.861881729935384" lon="-25.79610728239272"><ele>267.8571428571429</ele><time>2026-04-29T11:57:34Z</time></trkpt><trkpt lat="37.86191797982778" lon="-25.796175479616043"><ele>268.14285714285717</ele><time>2026-04-29T11:57:39Z</time></trkpt><trkpt lat="37.861968249019675" lon="-25.796241667264596"><ele>268.42857142857144</ele><time>2026-04-29T11:57:45Z</time></trkpt><trkpt lat="37.86200962006911" lon="-25.796302621838482"><ele>268.7142857142857</ele><time>2026-04-29T11:57:50Z</time></trkpt><trkpt lat="37.8620462191598" lon="-25.796369796278555"><ele>269.0</ele><time>2026-04-29T11:57:55Z</time></trkpt><trkpt lat="37.862067375608355" lon="-25.79644879792752"><ele>269.0</ele><time>2026-04-29T11:58:00Z</time></trkpt><trkpt lat="37.862102880059645" lon="-25.796517821293442"><ele>269.0</ele><time>2026-04-29T11:58:07Z</time></trkpt><trkpt lat="37.862160919506756" lon="-25.796568911033578"><ele>269.0</ele><time>2026-04-29T11:58:12Z</time></trkpt><trkpt lat="37.86220646537088" lon="-25.796630693763532"><ele>269.0</ele><time>2026-04-29T11:58:17Z</time></trkpt><trkpt lat="37.8622461739484" lon="-25.796699083141835"><ele>269.0</ele><time>2026-04-29T11:58:22Z</time></trkpt><trkpt lat="37.862281298860516" lon="-25.79677546048632"><ele>269.0</ele><time>2026-04-29T11:58:28Z</time></trkpt><trkpt lat="37.86232701138481" lon="-25.796844976729457"><ele>269.0</ele><time>2026-04-29T11:58:34Z</time></trkpt><trkpt lat="37.862365790606944" lon="-25.79692328983796"><ele>269.0</ele><time>2026-04-29T11:58:40Z</time></trkpt><trkpt lat="37.86241422054057" lon="-25.79699053436177"><ele>269.0</ele><time>2026-04-29T11:58:46Z</time></trkpt><trkpt lat="37.86244951932426" lon="-25.797067813189614"><ele>269.0</ele><time>2026-04-29T11:58:52Z</time></trkpt><trkpt lat="37.86252327843767" lon="-25.797061291554122"><ele>269.0</ele><time>2026-04-29T11:59:18Z</time></trkpt><trkpt lat="37.86258152214559" lon="-25.79702682154938"><ele>269.0</ele><time>2026-04-29T11:59:24Z</time></trkpt><trkpt lat="37.862643432551494" lon="-25.79699010605574"><ele>269.0</ele><time>2026-04-29T11:59:30Z</time></trkpt><trkpt lat="37.862721309258426" lon="-25.79695738570512"><ele>269.0</ele><time>2026-04-29T11:59:37Z</time></trkpt><trkpt lat="37.86278646905774" lon="-25.79692229007525"><ele>269.0</ele><time>2026-04-29T11:59:43Z</time></trkpt><trkpt lat="37.86285691593939" lon="-25.796900830422462"><ele>269.0</ele><time>2026-04-29T11:59:48Z</time></trkpt><trkpt lat="37.86292490819587" lon="-25.796863610650025"><ele>269.0</ele><time>2026-04-29T11:59:53Z</time></trkpt><trkpt lat="37.862990485162356" lon="-25.796819790037098"><ele>269.0</ele><time>2026-04-29T11:59:58Z</time></trkpt><trkpt lat="37.86298614848015" lon="-25.796723384764775"><ele>269.0</ele><time>2026-04-29T12:00:18Z</time></trkpt><trkpt lat="37.86301067154135" lon="-25.79664274549861"><ele>269.0</ele><time>2026-04-29T12:00:25Z</time></trkpt><trkpt lat="37.863034161928184" lon="-25.796565074314458"><ele>269.0</ele><time>2026-04-29T12:00:31Z</time></trkpt><trkpt lat="37.86304448199318" lon="-25.796477974977726"><ele>269.0</ele><time>2026-04-29T12:00:38Z</time></trkpt><trkpt lat="37.863056782977594" lon="-25.796388682614786"><ele>269.0</ele><time>2026-04-29T12:00:45Z</time></trkpt><trkpt lat="37.86306351269955" lon="-25.796309362134135"><ele>269.0</ele><time>2026-04-29T12:00:50Z</time></trkpt><trkpt lat="37.863084981967674" lon="-25.79622283982343"><ele>269.0</ele><time>2026-04-29T12:00:56Z</time></trkpt><trkpt lat="37.86312150144504" lon="-25.796145986621717"><ele>269.0</ele><time>2026-04-29T12:01:01Z</time></trkpt><trkpt lat="37.86313917507491" lon="-25.79606563920679"><ele>269.0</ele><time>2026-04-29T12:01:06Z</time></trkpt><trkpt lat="37.863200063771544" lon="-25.796017668905368"><ele>269.0</ele><time>2026-04-29T12:01:12Z</time></trkpt><trkpt lat="37.86322875023514" lon="-25.795942981432983"><ele>269.0</ele><time>2026-04-29T12:01:18Z</time></trkpt><trkpt lat="37.86329770200772" lon="-25.795957278320575"><ele>269.0</ele><time>2026-04-29T12:01:24Z</time></trkpt><trkpt lat="37.86328494017651" lon="-25.796048318481414"><ele>269.0</ele><time>2026-04-29T12:01:29Z</time></trkpt><trkpt lat="37.863351504143" lon="-25.796083753748196"><ele>269.0</ele><time>2026-04-29T12:01:49Z</time></trkpt><trkpt lat="37.86330815272299" lon="-25.79600847834773"><ele>269.0</ele><time>2026-04-29T12:02:11Z</time></trkpt><trkpt lat="37.86325989294598" lon="-25.7958753872903"><ele>269.0</ele><time>2026-04-29T12:02:23Z</time></trkpt><trkpt lat="37.86325195492785" lon="-25.79602401829343"><ele>269.0</ele><time>2026-04-29T12:02:25Z</time></trkpt><trkpt lat="37.863160973588194" lon="-25.796035201907472"><ele>269.0</ele><time>2026-04-29T12:09:50.014Z</time></trkpt><trkpt lat="37.86316216905994" lon="-25.795949643193154"><ele>269.0</ele><time>2026-04-29T12:09:57Z</time></trkpt><trkpt lat="37.863178629074504" lon="-25.795860634484296"><ele>269.0</ele><time>2026-04-29T12:10:04Z</time></trkpt><trkpt lat="37.86321437417448" lon="-25.7957914721363"><ele>269.0</ele><time>2026-04-29T12:10:10Z</time></trkpt><trkpt lat="37.863217978007334" lon="-25.795684954677487"><ele>269.0</ele><time>2026-04-29T12:10:18Z</time></trkpt><trkpt lat="37.8631934397706" lon="-25.79560019347709"><ele>268.5</ele><time>2026-04-29T12:10:25Z</time></trkpt><trkpt lat="37.86320350892904" lon="-25.795516903800465"><ele>268.0</ele><time>2026-04-29T12:10:31Z</time></trkpt><trkpt lat="37.86321484291212" lon="-25.795428202919943"><ele>267.5</ele><time>2026-04-29T12:10:36Z</time></trkpt><trkpt lat="37.86323535420309" lon="-25.79535248211475"><ele>267.0</ele><time>2026-04-29T12:10:42Z</time></trkpt><trkpt lat="37.863440810611735" lon="-25.79435053362101"><ele>266.5714285714286</ele><time>2026-04-29T12:11:46.999Z</time></trkpt><trkpt lat="37.86345367281674" lon="-25.794271578121442"><ele>266.14285714285717</ele><time>2026-04-29T12:11:51.999Z</time></trkpt><trkpt lat="37.863478635731745" lon="-25.794187115995502"><ele>265.7142857142857</ele><time>2026-04-29T12:11:58Z</time></trkpt><trkpt lat="37.86347108101038" lon="-25.79410500632953"><ele>265.28571428571433</ele><time>2026-04-29T12:12:03Z</time></trkpt><trkpt lat="37.86349878788138" lon="-25.79402141924646"><ele>264.8571428571429</ele><time>2026-04-29T12:12:09Z</time></trkpt><trkpt lat="37.8635137184679" lon="-25.79393953713719"><ele>264.42857142857144</ele><time>2026-04-29T12:12:14Z</time></trkpt><trkpt lat="37.86352901800552" lon="-25.79386080497151"><ele>264.0</ele><time>2026-04-29T12:12:19Z</time></trkpt><trkpt lat="37.86354600613583" lon="-25.793781905770576"><ele>264.0</ele><time>2026-04-29T12:12:24Z</time></trkpt><trkpt lat="37.86356585800573" lon="-25.793693909887455"><ele>264.0</ele><time>2026-04-29T12:12:30Z</time></trkpt><trkpt lat="37.863553072749525" lon="-25.79361237610718"><ele>264.0</ele><time>2026-04-29T12:12:35Z</time></trkpt><trkpt lat="37.863571423306276" lon="-25.79352154798846"><ele>264.0</ele><time>2026-04-29T12:12:41Z</time></trkpt><trkpt lat="37.863589941516096" lon="-25.793444676953367"><ele>264.0</ele><time>2026-04-29T12:12:46Z</time></trkpt><trkpt lat="37.86372732091506" lon="-25.792703262426997"><ele>261.0</ele><time>2026-04-29T12:13:36.999Z</time></trkpt><trkpt lat="37.863876913864004" lon="-25.791626962628623"><ele>261.0</ele><time>2026-04-29T12:14:47Z</time></trkpt><trkpt lat="37.863900847836" lon="-25.791541577135963"><ele>261.0</ele><time>2026-04-29T12:14:53Z</time></trkpt><trkpt lat="37.863907279163556" lon="-25.79145944192575"><ele>261.0</ele><time>2026-04-29T12:14:59Z</time></trkpt><trkpt lat="37.86392360137554" lon="-25.79137310019666"><ele>261.0</ele><time>2026-04-29T12:15:05Z</time></trkpt><trkpt lat="37.863926642346954" lon="-25.79128158523606"><ele>261.0</ele><time>2026-04-29T12:15:11Z</time></trkpt><trkpt lat="37.86396455918193" lon="-25.79120043335572"><ele>261.0</ele><time>2026-04-29T12:15:17Z</time></trkpt><trkpt lat="37.863965918634094" lon="-25.791111629229878"><ele>261.0</ele><time>2026-04-29T12:15:22.999Z</time></trkpt><trkpt lat="37.86398723254452" lon="-25.791033445678448"><ele>261.0</ele><time>2026-04-29T12:15:28.999Z</time></trkpt><trkpt lat="37.864006206465426" lon="-25.79094160003404"><ele>261.0</ele><time>2026-04-29T12:15:36.999Z</time></trkpt><trkpt lat="37.86400474071125" lon="-25.79085933805594"><ele>261.0</ele><time>2026-04-29T12:15:43.999Z</time></trkpt><trkpt lat="37.86397941122984" lon="-25.7905917333918"><ele>261.0</ele><time>2026-04-29T12:17:57.999Z</time></trkpt><trkpt lat="37.86417775107502" lon="-25.79124524914716"><ele>261.0</ele><time>2026-04-29T12:20:46.999Z</time></trkpt><trkpt lat="37.864194409268165" lon="-25.791335784976013"><ele>261.0</ele><time>2026-04-29T12:20:53.999Z</time></trkpt><trkpt lat="37.86420613959174" lon="-25.79141690158836"><ele>261.0</ele><time>2026-04-29T12:20:59.999Z</time></trkpt><trkpt lat="37.86422535840104" lon="-25.791497394784603"><ele>261.0</ele><time>2026-04-29T12:21:05.999Z</time></trkpt><trkpt lat="37.864248972922326" lon="-25.791588184978483"><ele>261.0</ele><time>2026-04-29T12:21:17.999Z</time></trkpt><trkpt lat="37.86427282270913" lon="-25.791666622180042"><ele>261.0</ele><time>2026-04-29T12:21:23.999Z</time></trkpt><trkpt lat="37.86429892489526" lon="-25.791751651049896"><ele>261.0</ele><time>2026-04-29T12:21:29.999Z</time></trkpt><trkpt lat="37.86432081738647" lon="-25.791827549924438"><ele>261.3333333333333</ele><time>2026-04-29T12:21:34.999Z</time></trkpt><trkpt lat="37.86434885709967" lon="-25.791898970017836"><ele>261.66666666666663</ele><time>2026-04-29T12:21:39.999Z</time></trkpt><trkpt lat="37.864382218292036" lon="-25.79196766107313"><ele>262.0</ele><time>2026-04-29T12:21:44.999Z</time></trkpt><trkpt lat="37.864700944527485" lon="-25.792502169066022"><ele>263.0</ele><time>2026-04-29T12:22:26.999Z</time></trkpt><trkpt lat="37.865119356332606" lon="-25.793099993433415"><ele>263.0</ele><time>2026-04-29T12:23:47Z</time></trkpt><trkpt lat="37.86516691601749" lon="-25.793161323562963"><ele>263.0</ele><time>2026-04-29T12:23:53Z</time></trkpt><trkpt lat="37.865226485124346" lon="-25.793204872222255"><ele>263.0</ele><time>2026-04-29T12:23:59Z</time></trkpt><trkpt lat="37.86527916124433" lon="-25.793269467249193"><ele>263.0</ele><time>2026-04-29T12:24:05Z</time></trkpt><trkpt lat="37.86533587174163" lon="-25.793321404181523"><ele>263.0</ele><time>2026-04-29T12:24:10Z</time></trkpt><trkpt lat="37.865382211532214" lon="-25.793381005708504"><ele>263.0</ele><time>2026-04-29T12:24:15Z</time></trkpt><trkpt lat="37.865438369108496" lon="-25.793439890190932"><ele>263.0</ele><time>2026-04-29T12:24:20Z</time></trkpt><trkpt lat="37.86548712847326" lon="-25.79349333085583"><ele>263.0</ele><time>2026-04-29T12:24:25Z</time></trkpt><trkpt lat="37.86553102451328" lon="-25.793554833071862"><ele>263.0</ele><time>2026-04-29T12:24:30Z</time></trkpt><trkpt lat="37.86558381699204" lon="-25.793613075118003"><ele>263.0</ele><time>2026-04-29T12:24:35.999Z</time></trkpt><trkpt lat="37.86563319034834" lon="-25.79367450239898"><ele>263.0</ele><time>2026-04-29T12:24:42Z</time></trkpt><trkpt lat="37.866213771731466" lon="-25.794289428770302"><ele>263.0</ele><time>2026-04-29T12:25:44Z</time></trkpt><trkpt lat="37.86615427417477" lon="-25.794323240205486"><ele>263.0</ele><time>2026-04-29T12:25:49Z</time></trkpt><trkpt lat="37.866093431963826" lon="-25.79434531454321"><ele>263.0</ele><time>2026-04-29T12:25:55Z</time></trkpt><trkpt lat="37.8660645601349" lon="-25.794416376812666"><ele>263.0</ele><time>2026-04-29T12:26:00Z</time></trkpt><trkpt lat="37.86610449901408" lon="-25.79448266367895"><ele>263.0</ele><time>2026-04-29T12:26:05Z</time></trkpt><trkpt lat="37.866159175953804" lon="-25.79452722590793"><ele>263.0</ele><time>2026-04-29T12:26:11Z</time></trkpt><trkpt lat="37.8662183175576" lon="-25.79456527366866"><ele>263.0</ele><time>2026-04-29T12:26:16Z</time></trkpt><trkpt lat="37.8662455586668" lon="-25.794652211613933"><ele>264.8</ele><time>2026-04-29T12:26:22Z</time></trkpt><trkpt lat="37.86628872390525" lon="-25.794722005438064"><ele>266.6</ele><time>2026-04-29T12:26:27Z</time></trkpt><trkpt lat="37.86633905925654" lon="-25.794777846633536"><ele>268.4</ele><time>2026-04-29T12:26:33Z</time></trkpt><trkpt lat="37.8663834018649" lon="-25.794842336175993"><ele>270.2</ele><time>2026-04-29T12:26:39Z</time></trkpt><trkpt lat="37.86643426513743" lon="-25.794889447139628"><ele>272.0</ele><time>2026-04-29T12:26:44.001Z</time></trkpt><trkpt lat="37.867010864967625" lon="-25.795303569171264"><ele>275.57142857142856</ele><time>2026-04-29T12:27:47.001Z</time></trkpt><trkpt lat="37.867062068821745" lon="-25.79535544520393"><ele>279.1428571428571</ele><time>2026-04-29T12:27:55.001Z</time></trkpt><trkpt lat="37.8671067644234" lon="-25.795423654252236"><ele>282.7142857142857</ele><time>2026-04-29T12:28:03.001Z</time></trkpt><trkpt lat="37.867161326177836" lon="-25.79547926693475"><ele>286.2857142857143</ele><time>2026-04-29T12:28:11.001Z</time></trkpt><trkpt lat="37.86721289664115" lon="-25.79552929892256"><ele>289.8571428571429</ele><time>2026-04-29T12:28:19.001Z</time></trkpt><trkpt lat="37.86727094983079" lon="-25.79556087203548"><ele>293.42857142857144</ele><time>2026-04-29T12:28:27.001Z</time></trkpt><trkpt lat="37.867336078879354" lon="-25.79554222823434"><ele>297.0</ele><time>2026-04-29T12:28:35.001Z</time></trkpt><trkpt lat="37.86740409615287" lon="-25.795561556082113"><ele>336.0</ele><time>2026-04-29T12:28:44.001Z</time></trkpt><trkpt lat="37.867620534263025" lon="-25.796128671857268"><ele>336.0</ele><time>2026-04-29T12:29:47.001Z</time></trkpt><trkpt lat="37.86764690928758" lon="-25.79621807012698"><ele>336.0</ele><time>2026-04-29T12:29:55.001Z</time></trkpt><trkpt lat="37.867687540977826" lon="-25.796292273647317"><ele>336.0</ele><time>2026-04-29T12:30:04.001Z</time></trkpt><trkpt lat="37.86774582775271" lon="-25.796333437732404"><ele>336.0</ele><time>2026-04-29T12:30:13.001Z</time></trkpt><trkpt lat="37.86781448235492" lon="-25.79637601346129"><ele>336.0</ele><time>2026-04-29T12:30:21.001Z</time></trkpt><trkpt lat="37.86788154481353" lon="-25.79640699975332"><ele>336.0</ele><time>2026-04-29T12:30:31.001Z</time></trkpt><trkpt lat="37.86794812479688" lon="-25.79641634974115"><ele>336.0</ele><time>2026-04-29T12:30:39.001Z</time></trkpt><trkpt lat="37.86852658322785" lon="-25.79652109114691"><ele>336.8</ele><time>2026-04-29T12:31:47Z</time></trkpt><trkpt lat="37.868597962077075" lon="-25.796543528780678"><ele>337.6</ele><time>2026-04-29T12:32:26Z</time></trkpt><trkpt lat="37.86866828564731" lon="-25.796561919440265"><ele>338.4</ele><time>2026-04-29T12:32:34Z</time></trkpt><trkpt lat="37.8687315534995" lon="-25.796605160703095"><ele>339.2</ele><time>2026-04-29T12:32:40Z</time></trkpt><trkpt lat="37.86878436561385" lon="-25.79666705205603"><ele>340.0</ele><time>2026-04-29T12:32:45Z</time></trkpt><trkpt lat="37.86906179786874" lon="-25.79712099312643"><ele>343.5714285714286</ele><time>2026-04-29T12:33:47Z</time></trkpt><trkpt lat="37.86911007806178" lon="-25.797180904159326"><ele>347.1428571428571</ele><time>2026-04-29T12:33:55Z</time></trkpt><trkpt lat="37.86913322569483" lon="-25.797256894411962"><ele>350.7142857142857</ele><time>2026-04-29T12:34:05Z</time></trkpt><trkpt lat="37.86916589499006" lon="-25.7973281296945"><ele>354.28571428571433</ele><time>2026-04-29T12:34:14Z</time></trkpt><trkpt lat="37.86920683396319" lon="-25.797390232148604"><ele>357.8571428571429</ele><time>2026-04-29T12:34:20Z</time></trkpt><trkpt lat="37.86925024333272" lon="-25.797456066517647"><ele>361.42857142857144</ele><time>2026-04-29T12:34:27Z</time></trkpt><trkpt lat="37.86927620775691" lon="-25.797531838832658"><ele>365.0</ele><time>2026-04-29T12:34:34Z</time></trkpt><trkpt lat="37.86929127871031" lon="-25.797629246573784"><ele>386.0</ele><time>2026-04-29T12:34:44Z</time></trkpt><trkpt lat="37.86960258972271" lon="-25.79810896860512"><ele>386.00000000000006</ele><time>2026-04-29T12:35:47Z</time></trkpt><trkpt lat="37.869652942081785" lon="-25.79817002700047"><ele>386.0</ele><time>2026-04-29T12:35:55Z</time></trkpt><trkpt lat="37.869710461607305" lon="-25.79820367110608"><ele>386.0</ele><time>2026-04-29T12:36:01Z</time></trkpt><trkpt lat="37.86976497782796" lon="-25.798243931826434"><ele>386.0</ele><time>2026-04-29T12:36:07Z</time></trkpt><trkpt lat="37.86981538470922" lon="-25.798293727372926"><ele>386.0</ele><time>2026-04-29T12:36:13Z</time></trkpt><trkpt lat="37.86987074911378" lon="-25.79833180033007"><ele>386.00000000000006</ele><time>2026-04-29T12:36:20Z</time></trkpt><trkpt lat="37.86993609934732" lon="-25.798371449665506"><ele>386.0</ele><time>2026-04-29T12:36:27Z</time></trkpt><trkpt lat="37.86999401775399" lon="-25.798402758234133"><ele>386.0</ele><time>2026-04-29T12:36:33Z</time></trkpt><trkpt lat="37.87005550675225" lon="-25.798432891658706"><ele>386.0</ele><time>2026-04-29T12:36:39Z</time></trkpt><trkpt lat="37.870099244230644" lon="-25.798501213453434"><ele>386.0</ele><time>2026-04-29T12:36:45.999Z</time></trkpt><trkpt lat="37.8703846689441" lon="-25.799071886811284"><ele>387.42857142857144</ele><time>2026-04-29T12:37:47Z</time></trkpt><trkpt lat="37.87042951885861" lon="-25.799146779318313"><ele>388.8571428571429</ele><time>2026-04-29T12:37:56Z</time></trkpt><trkpt lat="37.870454540142745" lon="-25.799225965533587"><ele>390.28571428571433</ele><time>2026-04-29T12:38:03Z</time></trkpt><trkpt lat="37.87047585438182" lon="-25.799303784433963"><ele>391.7142857142857</ele><time>2026-04-29T12:38:12Z</time></trkpt><trkpt lat="37.87051658208562" lon="-25.799371518954874"><ele>393.1428571428571</ele><time>2026-04-29T12:38:19Z</time></trkpt><trkpt lat="37.87056699348926" lon="-25.7994377230334"><ele>394.5714285714286</ele><time>2026-04-29T12:38:25.999Z</time></trkpt><trkpt lat="37.8706147796149" lon="-25.799504808403107"><ele>396.0</ele><time>2026-04-29T12:38:32.999Z</time></trkpt><trkpt lat="37.870657019244" lon="-25.799570626582756"><ele>424.0</ele><time>2026-04-29T12:38:39.999Z</time></trkpt><trkpt lat="37.870906515358406" lon="-25.80027883202753"><ele>421.7142857142857</ele><time>2026-04-29T12:39:47Z</time></trkpt><trkpt lat="37.87095890982327" lon="-25.80033316377078"><ele>419.4285714285714</ele><time>2026-04-29T12:39:53Z</time></trkpt><trkpt lat="37.87102445036581" lon="-25.800356688960807"><ele>417.1428571428571</ele><time>2026-04-29T12:39:59Z</time></trkpt><trkpt lat="37.87107724912924" lon="-25.8004053741164"><ele>414.8571428571429</ele><time>2026-04-29T12:40:05Z</time></trkpt><trkpt lat="37.871139540148775" lon="-25.800437657294214"><ele>412.57142857142856</ele><time>2026-04-29T12:40:12Z</time></trkpt><trkpt lat="37.87120950424751" lon="-25.80045942234923"><ele>410.2857142857143</ele><time>2026-04-29T12:40:19.999Z</time></trkpt><trkpt lat="37.8712724438472" lon="-25.80048252666122"><ele>408.0</ele><time>2026-04-29T12:40:24.999Z</time></trkpt><trkpt lat="37.87133783862065" lon="-25.80048605066861"><ele>408.0</ele><time>2026-04-29T12:40:29.999Z</time></trkpt><trkpt lat="37.87139369023505" lon="-25.800522987811345"><ele>408.0</ele><time>2026-04-29T12:40:34.999Z</time></trkpt><trkpt lat="37.87143201503623" lon="-25.800592001895094"><ele>408.0</ele><time>2026-04-29T12:40:42.999Z</time></trkpt><trkpt lat="37.872104451393405" lon="-25.800945864799765"><ele>407.0</ele><time>2026-04-29T12:41:47Z</time></trkpt><trkpt lat="37.872171543285965" lon="-25.800966294391326"><ele>406.0</ele><time>2026-04-29T12:41:54Z</time></trkpt><trkpt lat="37.87223216834556" lon="-25.80099061630403"><ele>405.0</ele><time>2026-04-29T12:42:00Z</time></trkpt><trkpt lat="37.87229584062559" lon="-25.80100490473302"><ele>404.0</ele><time>2026-04-29T12:42:06Z</time></trkpt><trkpt lat="37.872368536113804" lon="-25.801019008086875"><ele>403.0</ele><time>2026-04-29T12:42:12Z</time></trkpt><trkpt lat="37.87243470514673" lon="-25.801060114982267"><ele>402.0</ele><time>2026-04-29T12:42:18Z</time></trkpt><trkpt lat="37.87250165034975" lon="-25.801071804382467"><ele>401.0</ele><time>2026-04-29T12:42:24Z</time></trkpt><trkpt lat="37.87256980633298" lon="-25.801100451571045"><ele>399.5</ele><time>2026-04-29T12:42:30Z</time></trkpt><trkpt lat="37.87263821483678" lon="-25.801123523552945"><ele>398.0</ele><time>2026-04-29T12:42:36Z</time></trkpt><trkpt lat="37.87269642672526" lon="-25.80115791955364"><ele>396.5</ele><time>2026-04-29T12:42:41Z</time></trkpt><trkpt lat="37.87274206026121" lon="-25.801214297885526"><ele>395.0</ele><time>2026-04-29T12:42:45.999Z</time></trkpt><trkpt lat="37.873150237028106" lon="-25.801395229059825"><ele>395.0</ele><time>2026-04-29T12:43:47Z</time></trkpt><trkpt lat="37.873173192215816" lon="-25.801476221408432"><ele>395.0</ele><time>2026-04-29T12:44:28Z</time></trkpt><trkpt lat="37.87322691186032" lon="-25.801519168012042"><ele>395.0</ele><time>2026-04-29T12:44:34Z</time></trkpt><trkpt lat="37.87328969143484" lon="-25.801565294015237"><ele>395.0</ele><time>2026-04-29T12:44:40Z</time></trkpt><trkpt lat="37.87334195720316" lon="-25.80161745012257"><ele>395.0</ele><time>2026-04-29T12:44:46Z</time></trkpt><trkpt lat="37.873661127188235" lon="-25.801873497293652"><ele>395.5</ele><time>2026-04-29T12:45:28.999Z</time></trkpt><trkpt lat="37.873937073794195" lon="-25.80202712827416"><ele>396.0</ele><time>2026-04-29T12:46:48Z</time></trkpt><trkpt lat="37.87398645845643" lon="-25.802077825373576"><ele>396.5</ele><time>2026-04-29T12:46:55.999Z</time></trkpt><trkpt lat="37.8740432942838" lon="-25.802122073573695"><ele>397.0</ele><time>2026-04-29T12:47:05.999Z</time></trkpt><trkpt lat="37.874100991276755" lon="-25.80216443059182"><ele>397.0</ele><time>2026-04-29T12:47:12.999Z</time></trkpt><trkpt lat="37.87415682886313" lon="-25.80221273229276"><ele>397.0</ele><time>2026-04-29T12:47:31.999Z</time></trkpt><trkpt lat="37.87443163612429" lon="-25.802388870101122"><ele>397.0</ele><time>2026-04-29T12:48:34Z</time></trkpt><trkpt lat="37.873986898997956" lon="-25.80303960741311"><ele>397.0</ele><time>2026-04-29T12:49:49Z</time></trkpt><trkpt lat="37.873937770219186" lon="-25.803098871428098"><ele>397.0</ele><time>2026-04-29T12:50:33Z</time></trkpt><trkpt lat="37.87389023460707" lon="-25.803163543926317"><ele>397.0</ele><time>2026-04-29T12:50:40Z</time></trkpt><trkpt lat="37.8738321464147" lon="-25.80323211299692"><ele>397.0</ele><time>2026-04-29T12:50:46Z</time></trkpt><trkpt lat="37.87335749834444" lon="-25.8039668297806"><ele>397.1428571428571</ele><time>2026-04-29T12:51:46.999Z</time></trkpt><trkpt lat="37.87332614555741" lon="-25.804053107237127"><ele>397.2857142857143</ele><time>2026-04-29T12:51:53Z</time></trkpt><trkpt lat="37.87329441099155" lon="-25.804141198913968"><ele>397.42857142857144</ele><time>2026-04-29T12:51:59Z</time></trkpt><trkpt lat="37.8732513736239" lon="-25.80421759248454"><ele>397.57142857142856</ele><time>2026-04-29T12:52:11Z</time></trkpt><trkpt lat="37.87320783737349" lon="-25.80427818538892"><ele>397.7142857142857</ele><time>2026-04-29T12:52:16Z</time></trkpt><trkpt lat="37.8731642113613" lon="-25.80434392877407"><ele>397.85714285714283</ele><time>2026-04-29T12:52:21Z</time></trkpt><trkpt lat="37.87311499102669" lon="-25.804406017153134"><ele>398.0</ele><time>2026-04-29T12:52:26Z</time></trkpt><trkpt lat="37.873072517857366" lon="-25.804475273593212"><ele>400.66666666666663</ele><time>2026-04-29T12:52:32Z</time></trkpt><trkpt lat="37.87302248066001" lon="-25.80454684630683"><ele>403.33333333333337</ele><time>2026-04-29T12:52:38Z</time></trkpt><trkpt lat="37.87297969066545" lon="-25.804621272234325"><ele>406.0</ele><time>2026-04-29T12:52:44Z</time></trkpt><trkpt lat="37.8730601248475" lon="-25.80529359229037"><ele>407.2857142857143</ele><time>2026-04-29T12:53:46.999Z</time></trkpt><trkpt lat="37.873106875656994" lon="-25.80537602096929"><ele>408.57142857142856</ele><time>2026-04-29T12:53:53.999Z</time></trkpt><trkpt lat="37.87315858525377" lon="-25.80543459416441"><ele>409.8571428571429</ele><time>2026-04-29T12:54:00Z</time></trkpt><trkpt lat="37.87318721841991" lon="-25.805515779223224"><ele>411.1428571428571</ele><time>2026-04-29T12:54:06Z</time></trkpt><trkpt lat="37.87322091871258" lon="-25.80559709906527"><ele>412.42857142857144</ele><time>2026-04-29T12:54:13Z</time></trkpt><trkpt lat="37.87324029801131" lon="-25.80568247788427"><ele>413.7142857142857</ele><time>2026-04-29T12:54:19Z</time></trkpt><trkpt lat="37.873254094230546" lon="-25.805774350924672"><ele>415.0</ele><time>2026-04-29T12:54:25Z</time></trkpt><trkpt lat="37.87325141288843" lon="-25.805857607160526"><ele>415.0</ele><time>2026-04-29T12:54:31Z</time></trkpt><trkpt lat="37.873252088108615" lon="-25.805938085073187"><ele>415.0</ele><time>2026-04-29T12:54:36Z</time></trkpt><trkpt lat="37.87326344129658" lon="-25.80602078658555"><ele>415.0</ele><time>2026-04-29T12:54:42Z</time></trkpt><trkpt lat="37.873281438793796" lon="-25.806977375405054"><ele>416.14285714285717</ele><time>2026-04-29T12:55:46.999Z</time></trkpt><trkpt lat="37.87330803548236" lon="-25.807058805014243"><ele>417.28571428571433</ele><time>2026-04-29T12:55:52.999Z</time></trkpt><trkpt lat="37.87333807175899" lon="-25.807135571040217"><ele>418.42857142857144</ele><time>2026-04-29T12:55:57.999Z</time></trkpt><trkpt lat="37.87336963758466" lon="-25.807210895825197"><ele>419.57142857142856</ele><time>2026-04-29T12:56:02.999Z</time></trkpt><trkpt lat="37.873399361836206" lon="-25.807297642299023"><ele>420.7142857142857</ele><time>2026-04-29T12:56:09Z</time></trkpt><trkpt lat="37.87340784644066" lon="-25.807378776081542"><ele>421.85714285714283</ele><time>2026-04-29T12:56:15Z</time></trkpt><trkpt lat="37.87342008948301" lon="-25.807466822548772"><ele>423.0</ele><time>2026-04-29T12:56:21Z</time></trkpt><trkpt lat="37.87343263147382" lon="-25.807546938963075"><ele>423.0</ele><time>2026-04-29T12:56:26Z</time></trkpt><trkpt lat="37.87342531403761" lon="-25.807633394894292"><ele>423.0</ele><time>2026-04-29T12:56:32Z</time></trkpt><trkpt lat="37.873433761307005" lon="-25.80772066621728"><ele>423.0</ele><time>2026-04-29T12:56:38Z</time></trkpt><trkpt lat="37.873417342991" lon="-25.807810102153557"><ele>423.0</ele><time>2026-04-29T12:56:45Z</time></trkpt><trkpt lat="37.87343947346179" lon="-25.808677426176484"><ele>423.4285714285714</ele><time>2026-04-29T12:57:46.999Z</time></trkpt><trkpt lat="37.87344324254079" lon="-25.808764421434812"><ele>423.8571428571429</ele><time>2026-04-29T12:57:52.999Z</time></trkpt><trkpt lat="37.87342161527943" lon="-25.808850879239465"><ele>424.2857142857143</ele><time>2026-04-29T12:57:58.999Z</time></trkpt><trkpt lat="37.873394370434056" lon="-25.808926570739516"><ele>424.71428571428567</ele><time>2026-04-29T12:58:04.999Z</time></trkpt><trkpt lat="37.873394903970514" lon="-25.809010584912063"><ele>425.1428571428571</ele><time>2026-04-29T12:58:11Z</time></trkpt><trkpt lat="37.87339899785295" lon="-25.809096268157884"><ele>425.57142857142856</ele><time>2026-04-29T12:58:17Z</time></trkpt><trkpt lat="37.873329759438136" lon="-25.809126478427594"><ele>426.0</ele><time>2026-04-29T12:58:26Z</time></trkpt><trkpt lat="37.87320705754052" lon="-25.810075839420985"><ele>426.2857142857143</ele><time>2026-04-29T12:59:46.999Z</time></trkpt><trkpt lat="37.87316624154274" lon="-25.810144149538623"><ele>426.57142857142856</ele><time>2026-04-29T12:59:51.999Z</time></trkpt><trkpt lat="37.87313028652963" lon="-25.810213706953554"><ele>426.8571428571429</ele><time>2026-04-29T12:59:57.999Z</time></trkpt><trkpt lat="37.873121491202355" lon="-25.810304034567746"><ele>427.1428571428571</ele><time>2026-04-29T13:00:03.999Z</time></trkpt><trkpt lat="37.87308404469061" lon="-25.81037440467908"><ele>427.42857142857144</ele><time>2026-04-29T13:00:08.999Z</time></trkpt><trkpt lat="37.873069102330895" lon="-25.810465571093907"><ele>427.7142857142857</ele><time>2026-04-29T13:00:14.999Z</time></trkpt><trkpt lat="37.87303629538545" lon="-25.81055759746299"><ele>428.0</ele><time>2026-04-29T13:00:22Z</time></trkpt><trkpt lat="37.87298616072711" lon="-25.810616742705033"><ele>428.66666666666663</ele><time>2026-04-29T13:00:28Z</time></trkpt><trkpt lat="37.872946547115305" lon="-25.810685967611587"><ele>429.33333333333337</ele><time>2026-04-29T13:00:35Z</time></trkpt><trkpt lat="37.872923270886346" lon="-25.81076192740846"><ele>430.0</ele><time>2026-04-29T13:00:41Z</time></trkpt><trkpt lat="37.872596874645616" lon="-25.811543223580784"><ele>428.4285714285714</ele><time>2026-04-29T13:01:46.999Z</time></trkpt><trkpt lat="37.87255926515181" lon="-25.811613041789343"><ele>426.8571428571429</ele><time>2026-04-29T13:01:53.999Z</time></trkpt><trkpt lat="37.87254203883498" lon="-25.811698266850364"><ele>425.2857142857143</ele><time>2026-04-29T13:01:59.999Z</time></trkpt><trkpt lat="37.87252668531792" lon="-25.811784160427646"><ele>423.71428571428567</ele><time>2026-04-29T13:02:05.999Z</time></trkpt><trkpt lat="37.87251110103918" lon="-25.811878333980612"><ele>422.1428571428571</ele><time>2026-04-29T13:02:12.999Z</time></trkpt><trkpt lat="37.8725085578046" lon="-25.811962720007628"><ele>420.57142857142856</ele><time>2026-04-29T13:02:19.999Z</time></trkpt><trkpt lat="37.87255457943109" lon="-25.8120347399236"><ele>419.0</ele><time>2026-04-29T13:02:26Z</time></trkpt><trkpt lat="37.872568058134135" lon="-25.81212792727141"><ele>419.0</ele><time>2026-04-29T13:02:32Z</time></trkpt><trkpt lat="37.87255427522721" lon="-25.812206760409477"><ele>419.0</ele><time>2026-04-29T13:02:38Z</time></trkpt><trkpt lat="37.87246494723017" lon="-25.81268429179111"><ele>415.0</ele><time>2026-04-29T13:03:47.999Z</time></trkpt><trkpt lat="37.87241031178272" lon="-25.811752500375007"><ele>415.0</ele><time>2026-04-29T13:06:47Z</time></trkpt><trkpt lat="37.872357338255824" lon="-25.811708897015446"><ele>415.0</ele><time>2026-04-29T13:06:54Z</time></trkpt><trkpt lat="37.87230503597733" lon="-25.81166024776224"><ele>415.0</ele><time>2026-04-29T13:07:01Z</time></trkpt><trkpt lat="37.87224052829186" lon="-25.811701445833325"><ele>415.0</ele><time>2026-04-29T13:07:11Z</time></trkpt><trkpt lat="37.87219340204058" lon="-25.811755338558047"><ele>415.0</ele><time>2026-04-29T13:07:19Z</time></trkpt><trkpt lat="37.872151270032006" lon="-25.811816595012434"><ele>415.0</ele><time>2026-04-29T13:07:26Z</time></trkpt><trkpt lat="37.87209969449474" lon="-25.81186373399026"><ele>415.0</ele><time>2026-04-29T13:07:33Z</time></trkpt><trkpt lat="37.87206283555313" lon="-25.811932798944056"><ele>423.0</ele><time>2026-04-29T13:07:39Z</time></trkpt><trkpt lat="37.87162253016" lon="-25.81257496016055"><ele>423.0</ele><time>2026-04-29T13:08:47Z</time></trkpt><trkpt lat="37.871576463904965" lon="-25.812640846978734"><ele>423.0</ele><time>2026-04-29T13:08:53Z</time></trkpt><trkpt lat="37.87153331845291" lon="-25.812708593970957"><ele>423.0</ele><time>2026-04-29T13:09:00Z</time></trkpt><trkpt lat="37.871477955103856" lon="-25.81278155304506"><ele>423.0</ele><time>2026-04-29T13:09:07Z</time></trkpt><trkpt lat="37.87142084492233" lon="-25.812838630523324"><ele>423.0</ele><time>2026-04-29T13:09:14Z</time></trkpt><trkpt lat="37.8713609516261" lon="-25.81288463196816"><ele>423.0</ele><time>2026-04-29T13:09:30Z</time></trkpt><trkpt lat="37.87133113177758" lon="-25.81295621732619"><ele>423.0</ele><time>2026-04-29T13:09:38Z</time></trkpt><trkpt lat="37.871003571453905" lon="-25.813397402124377"><ele>422.85714285714283</ele><time>2026-04-29T13:10:47Z</time></trkpt><trkpt lat="37.870946637816886" lon="-25.813452506706746"><ele>422.7142857142857</ele><time>2026-04-29T13:10:54Z</time></trkpt><trkpt lat="37.87089246063878" lon="-25.81349336747647"><ele>422.57142857142856</ele><time>2026-04-29T13:10:59Z</time></trkpt><trkpt lat="37.87082423197706" lon="-25.81352071055777"><ele>422.42857142857144</ele><time>2026-04-29T13:11:05Z</time></trkpt><trkpt lat="37.8707652516599" lon="-25.813577163042005"><ele>422.28571428571433</ele><time>2026-04-29T13:11:13Z</time></trkpt><trkpt lat="37.870718552467736" lon="-25.813632051791842"><ele>422.14285714285717</ele><time>2026-04-29T13:11:24Z</time></trkpt><trkpt lat="37.87068011443517" lon="-25.813696256722448"><ele>422.0</ele><time>2026-04-29T13:11:30Z</time></trkpt><trkpt lat="37.87064508978912" lon="-25.813768649468795"><ele>424.5</ele><time>2026-04-29T13:11:35Z</time></trkpt><trkpt lat="37.870599409029715" lon="-25.813824615880847"><ele>427.0</ele><time>2026-04-29T13:11:41Z</time></trkpt><trkpt lat="37.87025259941036" lon="-25.814289890610322"><ele>427.57142857142856</ele><time>2026-04-29T13:13:47Z</time></trkpt><trkpt lat="37.87020227836295" lon="-25.814355319083415"><ele>428.1428571428571</ele><time>2026-04-29T13:13:53Z</time></trkpt><trkpt lat="37.870147089562" lon="-25.814411137938226"><ele>428.7142857142857</ele><time>2026-04-29T13:13:59Z</time></trkpt><trkpt lat="37.87010018916597" lon="-25.814477138326495"><ele>429.2857142857143</ele><time>2026-04-29T13:14:04.999Z</time></trkpt><trkpt lat="37.87004384370504" lon="-25.814539502125726"><ele>429.85714285714283</ele><time>2026-04-29T13:14:11.999Z</time></trkpt><trkpt lat="37.86998605585287" lon="-25.814588477152302"><ele>430.42857142857144</ele><time>2026-04-29T13:14:18.999Z</time></trkpt><trkpt lat="37.869926808405786" lon="-25.8146288769376"><ele>431.0</ele><time>2026-04-29T13:14:24.999Z</time></trkpt><trkpt lat="37.86986014959887" lon="-25.81465663570369"><ele>431.0</ele><time>2026-04-29T13:14:30.999Z</time></trkpt><trkpt lat="37.86979420306461" lon="-25.814647387539484"><ele>431.0</ele><time>2026-04-29T13:14:37.999Z</time></trkpt><trkpt lat="37.869116130713" lon="-25.814446156094085"><ele>433.57142857142856</ele><time>2026-04-29T13:15:47Z</time></trkpt><trkpt lat="37.869049904753766" lon="-25.814458395910393"><ele>436.1428571428571</ele><time>2026-04-29T13:15:53Z</time></trkpt><trkpt lat="37.86900467824633" lon="-25.81453799952997"><ele>438.71428571428567</ele><time>2026-04-29T13:16:02Z</time></trkpt><trkpt lat="37.86895645888917" lon="-25.81460093940228"><ele>441.2857142857143</ele><time>2026-04-29T13:16:08.999Z</time></trkpt><trkpt lat="37.86892384303721" lon="-25.81467010194363"><ele>443.8571428571428</ele><time>2026-04-29T13:16:15.999Z</time></trkpt><trkpt lat="37.86887301903384" lon="-25.814725805138806"><ele>446.4285714285714</ele><time>2026-04-29T13:16:21.999Z</time></trkpt><trkpt lat="37.86883144866698" lon="-25.814793912488266"><ele>449.0</ele><time>2026-04-29T13:16:27.999Z</time></trkpt><trkpt lat="37.868792676708885" lon="-25.81486742421639"><ele>449.0</ele><time>2026-04-29T13:16:33.999Z</time></trkpt><trkpt lat="37.86875302956117" lon="-25.81494226935857"><ele>449.0</ele><time>2026-04-29T13:16:39.999Z</time></trkpt><trkpt lat="37.86870456553094" lon="-25.81500475761874"><ele>449.0</ele><time>2026-04-29T13:16:45.999Z</time></trkpt><trkpt lat="37.86815064923795" lon="-25.815596067975033"><ele>448.57142857142856</ele><time>2026-04-29T13:17:47Z</time></trkpt><trkpt lat="37.868086540334026" lon="-25.81563763755285"><ele>448.1428571428571</ele><time>2026-04-29T13:17:53Z</time></trkpt><trkpt lat="37.86801841255906" lon="-25.81567176194167"><ele>447.71428571428567</ele><time>2026-04-29T13:17:59Z</time></trkpt><trkpt lat="37.86795519076175" lon="-25.815716693285502"><ele>447.2857142857143</ele><time>2026-04-29T13:18:05Z</time></trkpt><trkpt lat="37.86788905164136" lon="-25.815757547683035"><ele>446.85714285714283</ele><time>2026-04-29T13:18:11Z</time></trkpt><trkpt lat="37.86783378521315" lon="-25.81579654438129"><ele>446.42857142857144</ele><time>2026-04-29T13:18:15.999Z</time></trkpt><trkpt lat="37.86776897381895" lon="-25.81583160789973"><ele>446.0</ele><time>2026-04-29T13:18:21.999Z</time></trkpt><trkpt lat="37.86770514362707" lon="-25.815869269679318"><ele>446.0</ele><time>2026-04-29T13:18:27.999Z</time></trkpt><trkpt lat="37.86764213097801" lon="-25.815898809177703"><ele>446.0</ele><time>2026-04-29T13:18:33.999Z</time></trkpt><trkpt lat="37.867574707216086" lon="-25.815907973966013"><ele>446.0</ele><time>2026-04-29T13:18:39.999Z</time></trkpt><trkpt lat="37.866932494451916" lon="-25.815838467776473"><ele>447.42857142857144</ele><time>2026-04-29T13:19:47Z</time></trkpt><trkpt lat="37.866861035606945" lon="-25.815842328856455"><ele>448.85714285714283</ele><time>2026-04-29T13:19:55Z</time></trkpt><trkpt lat="37.86679184536507" lon="-25.81583865023853"><ele>450.2857142857143</ele><time>2026-04-29T13:20:03Z</time></trkpt><trkpt lat="37.866719493628565" lon="-25.81582999991619"><ele>451.71428571428567</ele><time>2026-04-29T13:20:10Z</time></trkpt><trkpt lat="37.8666458511178" lon="-25.81583945257339"><ele>453.1428571428571</ele><time>2026-04-29T13:20:18Z</time></trkpt><trkpt lat="37.866582179529836" lon="-25.815853973142445"><ele>454.57142857142856</ele><time>2026-04-29T13:20:25.999Z</time></trkpt><trkpt lat="37.86652073670404" lon="-25.815876478998472"><ele>456.0</ele><time>2026-04-29T13:20:31.999Z</time></trkpt><trkpt lat="37.86645190788182" lon="-25.815906311794155"><ele>460.0</ele><time>2026-04-29T13:20:38.999Z</time></trkpt><trkpt lat="37.8663849675321" lon="-25.81592904792688"><ele>464.0</ele><time>2026-04-29T13:20:45.999Z</time></trkpt><trkpt lat="37.86576364390308" lon="-25.81603497332246"><ele>465.00000000000006</ele><time>2026-04-29T13:21:47Z</time></trkpt><trkpt lat="37.865696577855864" lon="-25.816043743228825"><ele>466.0</ele><time>2026-04-29T13:21:53Z</time></trkpt><trkpt lat="37.86563230103841" lon="-25.816050657650127"><ele>467.00000000000006</ele><time>2026-04-29T13:21:59Z</time></trkpt><trkpt lat="37.86556373626475" lon="-25.816056624629717"><ele>468.00000000000006</ele><time>2026-04-29T13:22:05Z</time></trkpt><trkpt lat="37.86549649320989" lon="-25.816069818403847"><ele>469.0</ele><time>2026-04-29T13:22:12Z</time></trkpt><trkpt lat="37.86542700613981" lon="-25.81607356690517"><ele>470.00000000000006</ele><time>2026-04-29T13:22:18Z</time></trkpt><trkpt lat="37.86536013887913" lon="-25.816067307811974"><ele>471.00000000000006</ele><time>2026-04-29T13:22:24Z</time></trkpt><trkpt lat="37.86529076560604" lon="-25.816038441086064"><ele>471.0</ele><time>2026-04-29T13:22:30.999Z</time></trkpt><trkpt lat="37.86522134845762" lon="-25.816017570416815"><ele>471.0</ele><time>2026-04-29T13:22:37.999Z</time></trkpt><trkpt lat="37.86514642396894" lon="-25.816003550043085"><ele>471.0</ele><time>2026-04-29T13:22:44.999Z</time></trkpt><trkpt lat="37.864335053613694" lon="-25.81594738218227"><ele>472.8571428571429</ele><time>2026-04-29T13:24:46.999Z</time></trkpt><trkpt lat="37.864268733543774" lon="-25.81596732158621"><ele>474.7142857142857</ele><time>2026-04-29T13:24:52.999Z</time></trkpt><trkpt lat="37.86420338559254" lon="-25.81597487548384"><ele>476.57142857142856</ele><time>2026-04-29T13:24:57.999Z</time></trkpt><trkpt lat="37.86413847823628" lon="-25.81601115905756"><ele>478.42857142857144</ele><time>2026-04-29T13:25:05.999Z</time></trkpt><trkpt lat="37.86407741628967" lon="-25.81604594695829"><ele>480.2857142857142</ele><time>2026-04-29T13:25:10.999Z</time></trkpt><trkpt lat="37.864014023002404" lon="-25.816053703497513"><ele>482.1428571428571</ele><time>2026-04-29T13:25:16.999Z</time></trkpt><trkpt lat="37.86395265208394" lon="-25.816081755139283"><ele>484.0</ele><time>2026-04-29T13:25:22.999Z</time></trkpt><trkpt lat="37.86389065377619" lon="-25.816116630164327"><ele>484.0</ele><time>2026-04-29T13:25:31Z</time></trkpt><trkpt lat="37.86382532589281" lon="-25.81613255558788"><ele>484.0</ele><time>2026-04-29T13:25:37Z</time></trkpt><trkpt lat="37.86376399545864" lon="-25.816158812268593"><ele>484.0</ele><time>2026-04-29T13:25:43Z</time></trkpt><trkpt lat="37.86306513230206" lon="-25.81619668304206"><ele>485.4285714285714</ele><time>2026-04-29T13:26:46.999Z</time></trkpt><trkpt lat="37.862999998504456" lon="-25.816205673221326"><ele>486.8571428571428</ele><time>2026-04-29T13:26:52.999Z</time></trkpt><trkpt lat="37.862933610588705" lon="-25.816190592886098"><ele>488.2857142857143</ele><time>2026-04-29T13:26:58.999Z</time></trkpt><trkpt lat="37.8628764786804" lon="-25.81613596650099"><ele>489.71428571428567</ele><time>2026-04-29T13:27:04.999Z</time></trkpt><trkpt lat="37.862814891102104" lon="-25.816108258415735"><ele>491.1428571428571</ele><time>2026-04-29T13:27:10.999Z</time></trkpt><trkpt lat="37.862748696053664" lon="-25.816076564667902"><ele>492.57142857142856</ele><time>2026-04-29T13:27:17.999Z</time></trkpt><trkpt lat="37.86268129756915" lon="-25.816059291364382"><ele>494.0</ele><time>2026-04-29T13:27:23.999Z</time></trkpt><trkpt lat="37.862614306502934" lon="-25.81607710164292"><ele>496.0</ele><time>2026-04-29T13:27:29.999Z</time></trkpt><trkpt lat="37.862546292733875" lon="-25.816084013714363"><ele>498.0</ele><time>2026-04-29T13:27:36Z</time></trkpt><trkpt lat="37.862480533639506" lon="-25.816110782025714"><ele>500.0</ele><time>2026-04-29T13:27:42Z</time></trkpt><trkpt lat="37.86174214176778" lon="-25.81647042302269"><ele>500.0</ele><time>2026-04-29T13:28:46.999Z</time></trkpt><trkpt lat="37.86167974431302" lon="-25.8164906702621"><ele>500.0</ele><time>2026-04-29T13:28:51.999Z</time></trkpt><trkpt lat="37.8616150337948" lon="-25.816499911945193"><ele>500.0</ele><time>2026-04-29T13:28:56.999Z</time></trkpt><trkpt lat="37.861544458626966" lon="-25.81650710736986"><ele>500.0</ele><time>2026-04-29T13:29:02.999Z</time></trkpt><trkpt lat="37.861477739419655" lon="-25.816527879932973"><ele>500.0</ele><time>2026-04-29T13:29:08.999Z</time></trkpt><trkpt lat="37.861407758554485" lon="-25.816524042752214"><ele>500.0</ele><time>2026-04-29T13:29:14.999Z</time></trkpt><trkpt lat="37.86134055887684" lon="-25.816513625792293"><ele>500.0</ele><time>2026-04-29T13:29:20.999Z</time></trkpt><trkpt lat="37.86126701406354" lon="-25.816510322380395"><ele>500.0</ele><time>2026-04-29T13:29:26.999Z</time></trkpt><trkpt lat="37.861197267654155" lon="-25.81649623771913"><ele>500.0</ele><time>2026-04-29T13:29:33.999Z</time></trkpt><trkpt lat="37.86112911004392" lon="-25.81647451947438"><ele>500.0</ele><time>2026-04-29T13:29:41Z</time></trkpt><trkpt lat="37.86043136138657" lon="-25.81620964938999"><ele>500.57142857142856</ele><time>2026-04-29T13:30:47Z</time></trkpt><trkpt lat="37.86037833298445" lon="-25.81616245399514"><ele>501.14285714285717</ele><time>2026-04-29T13:30:53Z</time></trkpt><trkpt lat="37.860320169348874" lon="-25.816121039415695"><ele>501.7142857142857</ele><time>2026-04-29T13:30:58.999Z</time></trkpt><trkpt lat="37.860257629630915" lon="-25.816089510472274"><ele>502.2857142857143</ele><time>2026-04-29T13:31:04.999Z</time></trkpt><trkpt lat="37.86019430656478" lon="-25.816059536909396"><ele>502.8571428571429</ele><time>2026-04-29T13:31:09.999Z</time></trkpt><trkpt lat="37.86013413010425" lon="-25.816013856109848"><ele>503.42857142857144</ele><time>2026-04-29T13:31:16.999Z</time></trkpt><trkpt lat="37.8600748247161" lon="-25.81595546822748"><ele>504.0</ele><time>2026-04-29T13:31:23.999Z</time></trkpt><trkpt lat="37.86002849728577" lon="-25.815891456365858"><ele>505.0</ele><time>2026-04-29T13:31:30.999Z</time></trkpt><trkpt lat="37.85998863340936" lon="-25.815825695133338"><ele>506.0</ele><time>2026-04-29T13:31:36.999Z</time></trkpt><trkpt lat="37.85995266111529" lon="-25.815757785179994"><ele>507.0</ele><time>2026-04-29T13:31:42.999Z</time></trkpt><trkpt lat="37.859462627037644" lon="-25.815114584047144"><ele>509.2857142857143</ele><time>2026-04-29T13:32:47Z</time></trkpt><trkpt lat="37.85944544610837" lon="-25.815036492935413"><ele>511.57142857142856</ele><time>2026-04-29T13:32:53Z</time></trkpt><trkpt lat="37.85941622479115" lon="-25.81495793777512"><ele>513.8571428571429</ele><time>2026-04-29T13:32:59Z</time></trkpt><trkpt lat="37.85937709101613" lon="-25.814893837850608"><ele>516.1428571428571</ele><time>2026-04-29T13:33:03.999Z</time></trkpt><trkpt lat="37.85932965761366" lon="-25.81483610173762"><ele>518.4285714285714</ele><time>2026-04-29T13:33:09.999Z</time></trkpt><trkpt lat="37.85926688957396" lon="-25.814798796668306"><ele>520.7142857142857</ele><time>2026-04-29T13:33:15.999Z</time></trkpt><trkpt lat="37.8592055244287" lon="-25.81476207372499"><ele>523.0</ele><time>2026-04-29T13:33:20.999Z</time></trkpt><trkpt lat="37.85914002512729" lon="-25.814723816258248"><ele>523.0</ele><time>2026-04-29T13:33:26.999Z</time></trkpt><trkpt lat="37.85907232937479" lon="-25.814695107742796"><ele>523.0</ele><time>2026-04-29T13:33:33.999Z</time></trkpt><trkpt lat="37.85901379278758" lon="-25.814653321081778"><ele>523.0</ele><time>2026-04-29T13:33:38.999Z</time></trkpt><trkpt lat="37.85897556670189" lon="-25.81458913837007"><ele>523.0</ele><time>2026-04-29T13:33:44.999Z</time></trkpt><trkpt lat="37.85844924160601" lon="-25.814412958597224"><ele>522.7142857142857</ele><time>2026-04-29T13:34:47Z</time></trkpt><trkpt lat="37.858378443957484" lon="-25.814423219812088"><ele>522.4285714285714</ele><time>2026-04-29T13:34:54Z</time></trkpt><trkpt lat="37.85831338043471" lon="-25.814443452598027"><ele>522.1428571428571</ele><time>2026-04-29T13:35:01Z</time></trkpt><trkpt lat="37.85824792506384" lon="-25.81446151121219"><ele>521.8571428571429</ele><time>2026-04-29T13:35:16.999Z</time></trkpt><trkpt lat="37.858177339837454" lon="-25.81447224663526"><ele>521.5714285714286</ele><time>2026-04-29T13:35:33.999Z</time></trkpt><trkpt lat="37.858111136562584" lon="-25.814478226751195"><ele>521.2857142857142</ele><time>2026-04-29T13:35:39.999Z</time></trkpt><trkpt lat="37.858042647209025" lon="-25.814475764875375"><ele>521.0</ele><time>2026-04-29T13:35:45.999Z</time></trkpt><trkpt lat="37.85732270099528" lon="-25.814540358621223"><ele>521.0</ele><time>2026-04-29T13:36:47Z</time></trkpt><trkpt lat="37.857254096975204" lon="-25.8145419531688"><ele>521.0</ele><time>2026-04-29T13:36:53Z</time></trkpt><trkpt lat="37.85719239176918" lon="-25.814581795677217"><ele>521.0</ele><time>2026-04-29T13:36:59Z</time></trkpt><trkpt lat="37.85712922796642" lon="-25.814587992316877"><ele>521.0</ele><time>2026-04-29T13:37:06Z</time></trkpt><trkpt lat="37.85706513740582" lon="-25.814619886149902"><ele>521.0</ele><time>2026-04-29T13:37:10.999Z</time></trkpt><trkpt lat="37.857006875812104" lon="-25.814653413483764"><ele>521.0</ele><time>2026-04-29T13:37:15.999Z</time></trkpt><trkpt lat="37.856937143703924" lon="-25.814664361266498"><ele>521.0</ele><time>2026-04-29T13:37:21.999Z</time></trkpt><trkpt lat="37.85687288129666" lon="-25.814673661316363"><ele>521.0</ele><time>2026-04-29T13:37:26.999Z</time></trkpt><trkpt lat="37.8568081097078" lon="-25.814681091867417"><ele>521.0</ele><time>2026-04-29T13:37:31.999Z</time></trkpt><trkpt lat="37.85673417147156" lon="-25.8146787119409"><ele>521.0</ele><time>2026-04-29T13:37:37.999Z</time></trkpt><trkpt lat="37.85667518158965" lon="-25.814643623642603"><ele>521.0</ele><time>2026-04-29T13:37:43.999Z</time></trkpt><trkpt lat="37.855942229380496" lon="-25.814449267012318"><ele>519.2857142857142</ele><time>2026-04-29T13:38:47Z</time></trkpt><trkpt lat="37.855881087164356" lon="-25.81447196263734"><ele>517.5714285714286</ele><time>2026-04-29T13:38:53Z</time></trkpt><trkpt lat="37.85580940898979" lon="-25.81449691026684"><ele>515.8571428571429</ele><time>2026-04-29T13:38:59Z</time></trkpt><trkpt lat="37.855741478995284" lon="-25.81450878140009"><ele>514.1428571428571</ele><time>2026-04-29T13:39:04Z</time></trkpt><trkpt lat="37.85567818276872" lon="-25.814520295813388"><ele>512.4285714285714</ele><time>2026-04-29T13:39:09Z</time></trkpt><trkpt lat="37.85561863874355" lon="-25.814489610072716"><ele>510.71428571428567</ele><time>2026-04-29T13:39:15.999Z</time></trkpt><trkpt lat="37.855555500465876" lon="-25.814480958597617"><ele>508.99999999999994</ele><time>2026-04-29T13:39:21.999Z</time></trkpt><trkpt lat="37.8554862439609" lon="-25.814488389729863"><ele>509.0</ele><time>2026-04-29T13:39:27.999Z</time></trkpt><trkpt lat="37.85541330253347" lon="-25.814472094404557"><ele>509.0</ele><time>2026-04-29T13:39:33.999Z</time></trkpt><trkpt lat="37.85534880772615" lon="-25.81446976328648"><ele>509.0</ele><time>2026-04-29T13:39:38.999Z</time></trkpt><trkpt lat="37.85527606797567" lon="-25.814466874469964"><ele>509.0</ele><time>2026-04-29T13:39:44.999Z</time></trkpt><trkpt lat="37.85458063680912" lon="-25.81415359109771"><ele>510.5714285714285</ele><time>2026-04-29T13:40:47Z</time></trkpt><trkpt lat="37.85452588068979" lon="-25.814113940744278"><ele>512.1428571428571</ele><time>2026-04-29T13:40:52Z</time></trkpt><trkpt lat="37.85445901836263" lon="-25.81409980534622"><ele>513.7142857142858</ele><time>2026-04-29T13:40:58Z</time></trkpt><trkpt lat="37.85438916600291" lon="-25.81409160880694"><ele>515.2857142857142</ele><time>2026-04-29T13:41:04Z</time></trkpt><trkpt lat="37.85431594384428" lon="-25.814089809666633"><ele>516.8571428571429</ele><time>2026-04-29T13:41:10Z</time></trkpt><trkpt lat="37.85424446365856" lon="-25.814073002409785"><ele>518.4285714285714</ele><time>2026-04-29T13:41:16Z</time></trkpt><trkpt lat="37.854179759293615" lon="-25.81404646335888"><ele>520.0</ele><time>2026-04-29T13:41:20.999Z</time></trkpt><trkpt lat="37.85411059607805" lon="-25.814010109496014"><ele>524.75</ele><time>2026-04-29T13:41:27.999Z</time></trkpt><trkpt lat="37.854051904401146" lon="-25.813973715763915"><ele>529.5</ele><time>2026-04-29T13:41:32.999Z</time></trkpt><trkpt lat="37.853983961742344" lon="-25.813959438720413"><ele>534.25</ele><time>2026-04-29T13:41:37.999Z</time></trkpt><trkpt lat="37.853913601605704" lon="-25.81392932857561"><ele>539.0</ele><time>2026-04-29T13:41:42.999Z</time></trkpt><trkpt lat="37.85320622669401" lon="-25.81364139488245"><ele>541.0</ele><time>2026-04-29T13:42:47Z</time></trkpt><trkpt lat="37.85314272436141" lon="-25.81368675483845"><ele>543.0</ele><time>2026-04-29T13:42:53Z</time></trkpt><trkpt lat="37.85307322199829" lon="-25.813677924859164"><ele>545.0</ele><time>2026-04-29T13:42:59Z</time></trkpt><trkpt lat="37.85300258764293" lon="-25.813666301123526"><ele>547.0</ele><time>2026-04-29T13:43:05Z</time></trkpt><trkpt lat="37.852921403758394" lon="-25.813651702414116"><ele>549.0</ele><time>2026-04-29T13:43:11Z</time></trkpt><trkpt lat="37.852856401682956" lon="-25.813636713154875"><ele>551.0</ele><time>2026-04-29T13:43:17Z</time></trkpt><trkpt lat="37.85278461450813" lon="-25.813606186654443"><ele>553.0</ele><time>2026-04-29T13:43:21.999Z</time></trkpt><trkpt lat="37.85271118321627" lon="-25.813578689819945"><ele>553.0</ele><time>2026-04-29T13:43:26.999Z</time></trkpt><trkpt lat="37.852640593067996" lon="-25.813586305269357"><ele>553.0</ele><time>2026-04-29T13:43:32.999Z</time></trkpt><trkpt lat="37.85256790171915" lon="-25.813587437320255"><ele>553.0</ele><time>2026-04-29T13:43:38.999Z</time></trkpt><trkpt lat="37.85249799584755" lon="-25.813585219780723"><ele>553.0</ele><time>2026-04-29T13:43:44.999Z</time></trkpt><trkpt lat="37.851830928795216" lon="-25.813247950986806"><ele>548.1428571428571</ele><time>2026-04-29T13:44:47Z</time></trkpt><trkpt lat="37.85176449013655" lon="-25.813209430303075"><ele>543.2857142857142</ele><time>2026-04-29T13:44:53Z</time></trkpt><trkpt lat="37.85170324342729" lon="-25.813184603099597"><ele>538.4285714285714</ele><time>2026-04-29T13:44:59Z</time></trkpt><trkpt lat="37.85162752162637" lon="-25.813137827793206"><ele>533.5714285714286</ele><time>2026-04-29T13:45:04Z</time></trkpt><trkpt lat="37.85156514478188" lon="-25.813115530564694"><ele>528.7142857142857</ele><time>2026-04-29T13:45:10Z</time></trkpt><trkpt lat="37.85149716235309" lon="-25.8131015408443"><ele>523.8571428571429</ele><time>2026-04-29T13:45:16Z</time></trkpt><trkpt lat="37.85143343495323" lon="-25.813079257817172"><ele>519.0</ele><time>2026-04-29T13:45:22Z</time></trkpt><trkpt lat="37.85136546834649" lon="-25.813050390295654"><ele>519.0</ele><time>2026-04-29T13:45:27.999Z</time></trkpt><trkpt lat="37.85130493382593" lon="-25.813017036742853"><ele>519.0</ele><time>2026-04-29T13:45:31.999Z</time></trkpt><trkpt lat="37.85125263669033" lon="-25.81295868323504"><ele>519.0</ele><time>2026-04-29T13:45:36.999Z</time></trkpt><trkpt lat="37.8511789918986" lon="-25.812937990950605"><ele>519.0</ele><time>2026-04-29T13:45:41.999Z</time></trkpt><trkpt lat="37.850567451912475" lon="-25.8125507269473"><ele>518.8333333333334</ele><time>2026-04-29T13:46:47Z</time></trkpt><trkpt lat="37.85049597897096" lon="-25.81252126549077"><ele>518.6666666666666</ele><time>2026-04-29T13:46:54Z</time></trkpt><trkpt lat="37.85044219624429" lon="-25.812464854974202"><ele>518.5</ele><time>2026-04-29T13:47:00Z</time></trkpt><trkpt lat="37.85039405944583" lon="-25.812409378512083"><ele>518.3333333333333</ele><time>2026-04-29T13:47:06Z</time></trkpt><trkpt lat="37.85033361548905" lon="-25.812358490649203"><ele>518.1666666666666</ele><time>2026-04-29T13:47:13Z</time></trkpt><trkpt lat="37.85027454929247" lon="-25.812308016986574"><ele>518.0</ele><time>2026-04-29T13:47:19Z</time></trkpt><trkpt lat="37.84999659354955" lon="-25.812305045431227"><ele>518.5714285714286</ele><time>2026-04-29T13:49:46.999Z</time></trkpt><trkpt lat="37.849929849171154" lon="-25.812308918155534"><ele>519.1428571428571</ele><time>2026-04-29T13:49:51.999Z</time></trkpt><trkpt lat="37.84986508624736" lon="-25.812322453453024"><ele>519.7142857142858</ele><time>2026-04-29T13:49:56.999Z</time></trkpt><trkpt lat="37.84979840822606" lon="-25.812338633970544"><ele>520.2857142857142</ele><time>2026-04-29T13:50:02.999Z</time></trkpt><trkpt lat="37.849736788876854" lon="-25.81236148071879"><ele>520.8571428571429</ele><time>2026-04-29T13:50:08.999Z</time></trkpt><trkpt lat="37.849670246062466" lon="-25.81235239643883"><ele>521.4285714285714</ele><time>2026-04-29T13:50:13.999Z</time></trkpt><trkpt lat="37.84959707338372" lon="-25.812347823064066"><ele>522.0</ele><time>2026-04-29T13:50:19.999Z</time></trkpt><trkpt lat="37.84952785874028" lon="-25.812328822183286"><ele>522.0</ele><time>2026-04-29T13:50:25.999Z</time></trkpt><trkpt lat="37.84947101432123" lon="-25.812293047765085"><ele>522.0</ele><time>2026-04-29T13:50:30.999Z</time></trkpt><trkpt lat="37.849404289381546" lon="-25.812269353629983"><ele>522.0</ele><time>2026-04-29T13:50:36.999Z</time></trkpt><trkpt lat="37.849330672310145" lon="-25.812265086645738"><ele>522.0</ele><time>2026-04-29T13:50:43Z</time></trkpt><trkpt lat="37.84868282940307" lon="-25.811797549955514"><ele>519.7142857142858</ele><time>2026-04-29T13:51:46.999Z</time></trkpt><trkpt lat="37.84862708698245" lon="-25.811742666120573"><ele>517.4285714285714</ele><time>2026-04-29T13:51:52.999Z</time></trkpt><trkpt lat="37.8485669773081" lon="-25.811718408011334"><ele>515.1428571428571</ele><time>2026-04-29T13:51:57.999Z</time></trkpt><trkpt lat="37.848520423291106" lon="-25.811664425686313"><ele>512.8571428571429</ele><time>2026-04-29T13:52:02.999Z</time></trkpt><trkpt lat="37.848468031263536" lon="-25.811617805185012"><ele>510.57142857142856</ele><time>2026-04-29T13:52:07.999Z</time></trkpt><trkpt lat="37.84841179676833" lon="-25.811571385238498"><ele>508.28571428571433</ele><time>2026-04-29T13:52:12.999Z</time></trkpt><trkpt lat="37.84835393081321" lon="-25.811519566622845"><ele>506.00000000000006</ele><time>2026-04-29T13:52:18.999Z</time></trkpt><trkpt lat="37.84832078546039" lon="-25.81144860570714"><ele>506.0</ele><time>2026-04-29T13:52:23.999Z</time></trkpt><trkpt lat="37.848262419733416" lon="-25.811405080838824"><ele>506.0</ele><time>2026-04-29T13:52:29.999Z</time></trkpt><trkpt lat="37.84820995998988" lon="-25.811344586458276"><ele>506.0</ele><time>2026-04-29T13:52:35.999Z</time></trkpt><trkpt lat="37.84814517342687" lon="-25.811296350247172"><ele>506.0</ele><time>2026-04-29T13:52:41.999Z</time></trkpt><trkpt lat="37.8478447913744" lon="-25.811071983720232"><ele>503.66666666666663</ele><time>2026-04-29T13:53:48Z</time></trkpt><trkpt lat="37.847825316762616" lon="-25.810984891930218"><ele>501.3333333333333</ele><time>2026-04-29T13:54:03.999Z</time></trkpt><trkpt lat="37.84777218798984" lon="-25.810928258843905"><ele>499.0</ele><time>2026-04-29T13:54:09.999Z</time></trkpt><trkpt lat="37.84773168298225" lon="-25.810865630314204"><ele>496.66666666666663</ele><time>2026-04-29T13:54:24.999Z</time></trkpt><trkpt lat="37.847689111335235" lon="-25.810804761514838"><ele>494.3333333333333</ele><time>2026-04-29T13:54:31.999Z</time></trkpt><trkpt lat="37.847658018017945" lon="-25.810728300585666"><ele>492.0</ele><time>2026-04-29T13:54:38.999Z</time></trkpt><trkpt lat="37.84723803753527" lon="-25.809962328537463"><ele>492.00000000000006</ele><time>2026-04-29T13:55:47Z</time></trkpt><trkpt lat="37.84719487351644" lon="-25.809901049957844"><ele>492.0</ele><time>2026-04-29T13:55:52Z</time></trkpt><trkpt lat="37.84716230313921" lon="-25.809821890932973"><ele>492.00000000000006</ele><time>2026-04-29T13:55:58Z</time></trkpt><trkpt lat="37.847122050220335" lon="-25.80975454383833"><ele>492.00000000000006</ele><time>2026-04-29T13:56:03Z</time></trkpt><trkpt lat="37.84707330668821" lon="-25.80968557115967"><ele>492.0</ele><time>2026-04-29T13:56:08.999Z</time></trkpt><trkpt lat="37.84701692134666" lon="-25.809648659869318"><ele>492.00000000000006</ele><time>2026-04-29T13:56:13.999Z</time></trkpt><trkpt lat="37.84696164601509" lon="-25.80959268585357"><ele>492.00000000000006</ele><time>2026-04-29T13:56:18.999Z</time></trkpt><trkpt lat="37.84691552084133" lon="-25.809531924943187"><ele>492.0</ele><time>2026-04-29T13:56:23.999Z</time></trkpt><trkpt lat="37.846882960231746" lon="-25.80945885852497"><ele>492.00000000000006</ele><time>2026-04-29T13:56:28.999Z</time></trkpt><trkpt lat="37.84683066469533" lon="-25.809389644045893"><ele>492.00000000000006</ele><time>2026-04-29T13:56:34.999Z</time></trkpt><trkpt lat="37.846792349990984" lon="-25.809326098161808"><ele>492.0</ele><time>2026-04-29T13:56:39.999Z</time></trkpt><trkpt lat="37.84675963064171" lon="-25.809249437420384"><ele>492.0</ele><time>2026-04-29T13:56:44.999Z</time></trkpt><trkpt lat="37.84641702200047" lon="-25.808540485222373"><ele>493.4285714285715</ele><time>2026-04-29T13:57:47Z</time></trkpt><trkpt lat="37.84638739366166" lon="-25.808463013944188"><ele>494.8571428571429</ele><time>2026-04-29T13:57:53Z</time></trkpt><trkpt lat="37.84636470420766" lon="-25.808376431660864"><ele>496.2857142857143</ele><time>2026-04-29T13:58:00Z</time></trkpt><trkpt lat="37.84632172305577" lon="-25.80831180875967"><ele>497.7142857142857</ele><time>2026-04-29T13:58:06Z</time></trkpt><trkpt lat="37.84626509090248" lon="-25.80825131806237"><ele>499.1428571428571</ele><time>2026-04-29T13:58:12Z</time></trkpt><trkpt lat="37.84619886270679" lon="-25.808214896150012"><ele>500.5714285714285</ele><time>2026-04-29T13:58:18.999Z</time></trkpt><trkpt lat="37.84613730208971" lon="-25.808185785316205"><ele>501.99999999999994</ele><time>2026-04-29T13:58:23.999Z</time></trkpt><trkpt lat="37.8460781806118" lon="-25.808153267513024"><ele>502.0</ele><time>2026-04-29T13:58:29.999Z</time></trkpt><trkpt lat="37.84603299728191" lon="-25.808095029535735"><ele>502.0</ele><time>2026-04-29T13:58:34.999Z</time></trkpt><trkpt lat="37.845992079359206" lon="-25.808027118499215"><ele>502.0</ele><time>2026-04-29T13:58:40.999Z</time></trkpt><trkpt lat="37.845938416405225" lon="-25.807974939046048"><ele>502.0</ele><time>2026-04-29T13:58:45.999Z</time></trkpt><trkpt lat="37.845473580399144" lon="-25.807268112501255"><ele>500.8571428571428</ele><time>2026-04-29T13:59:47Z</time></trkpt><trkpt lat="37.845438308925836" lon="-25.80719375014046"><ele>499.71428571428567</ele><time>2026-04-29T13:59:53Z</time></trkpt><trkpt lat="37.845400225135286" lon="-25.807129753562222"><ele>498.57142857142856</ele><time>2026-04-29T13:59:59Z</time></trkpt><trkpt lat="37.84535540297068" lon="-25.807055079359284"><ele>497.4285714285714</ele><time>2026-04-29T14:00:05Z</time></trkpt><trkpt lat="37.84531720607539" lon="-25.806988745910388"><ele>496.2857142857142</ele><time>2026-04-29T14:00:10Z</time></trkpt><trkpt lat="37.845278310819616" lon="-25.806916745889286"><ele>495.14285714285717</ele><time>2026-04-29T14:00:16Z</time></trkpt><trkpt lat="37.84523957397398" lon="-25.806837231450846"><ele>494.0</ele><time>2026-04-29T14:00:22Z</time></trkpt><trkpt lat="37.84519983443885" lon="-25.80675929046044"><ele>494.0</ele><time>2026-04-29T14:00:27.999Z</time></trkpt><trkpt lat="37.84517983426367" lon="-25.806682214887395"><ele>494.0</ele><time>2026-04-29T14:00:32.999Z</time></trkpt><trkpt lat="37.84514666812043" lon="-25.80660176459609"><ele>494.0</ele><time>2026-04-29T14:00:38.999Z</time></trkpt><trkpt lat="37.84511002055068" lon="-25.806525122575014"><ele>494.0</ele><time>2026-04-29T14:00:44.999Z</time></trkpt><trkpt lat="37.8446929902267" lon="-25.80580236420424"><ele>498.42857142857144</ele><time>2026-04-29T14:01:47Z</time></trkpt><trkpt lat="37.84466344056122" lon="-25.80572680285536"><ele>502.85714285714283</ele><time>2026-04-29T14:01:53Z</time></trkpt><trkpt lat="37.844628299222535" lon="-25.805649486880693"><ele>507.2857142857143</ele><time>2026-04-29T14:02:00Z</time></trkpt><trkpt lat="37.844595423842904" lon="-25.805570620658155"><ele>511.7142857142857</ele><time>2026-04-29T14:02:07Z</time></trkpt><trkpt lat="37.84456575532262" lon="-25.80549367234802"><ele>516.1428571428571</ele><time>2026-04-29T14:02:13Z</time></trkpt><trkpt lat="37.8445486011681" lon="-25.805404127191508"><ele>520.5714285714286</ele><time>2026-04-29T14:02:27Z</time></trkpt><trkpt lat="37.84451844119538" lon="-25.805320975972915"><ele>525.0</ele><time>2026-04-29T14:02:33.999Z</time></trkpt><trkpt lat="37.8444909163048" lon="-25.80523762857628"><ele>535.0</ele><time>2026-04-29T14:02:45.999Z</time></trkpt><trkpt lat="37.84380780085286" lon="-25.804510031681247"><ele>535.0</ele><time>2026-04-29T14:05:47Z</time></trkpt><trkpt lat="37.84376647597688" lon="-25.804448492355213"><ele>535.0</ele><time>2026-04-29T14:05:52Z</time></trkpt><trkpt lat="37.84372199558009" lon="-25.80437320180971"><ele>535.0</ele><time>2026-04-29T14:05:58Z</time></trkpt><trkpt lat="37.84368466470457" lon="-25.80430276821824"><ele>535.0</ele><time>2026-04-29T14:06:03Z</time></trkpt><trkpt lat="37.84364080261572" lon="-25.80423491654268"><ele>535.0</ele><time>2026-04-29T14:06:15Z</time></trkpt><trkpt lat="37.84360867515238" lon="-25.804156622861093"><ele>535.0</ele><time>2026-04-29T14:06:20.999Z</time></trkpt><trkpt lat="37.84358213743431" lon="-25.80406879424606"><ele>535.0</ele><time>2026-04-29T14:06:27.999Z</time></trkpt><trkpt lat="37.84353519367273" lon="-25.80400809370938"><ele>534.6666666666667</ele><time>2026-04-29T14:06:33.999Z</time></trkpt><trkpt lat="37.84349198165523" lon="-25.80394884402728"><ele>534.3333333333334</ele><time>2026-04-29T14:06:39.999Z</time></trkpt><trkpt lat="37.84343024210172" lon="-25.80389604736366"><ele>534.0</ele><time>2026-04-29T14:06:45.999Z</time></trkpt><trkpt lat="37.84310344275546" lon="-25.803101663555456"><ele>534.4285714285714</ele><time>2026-04-29T14:07:47Z</time></trkpt><trkpt lat="37.84305445204579" lon="-25.803044311602925"><ele>534.8571428571429</ele><time>2026-04-29T14:07:53Z</time></trkpt><trkpt lat="37.84300487242909" lon="-25.802987701559935"><ele>535.2857142857142</ele><time>2026-04-29T14:08:18Z</time></trkpt><trkpt lat="37.8429366185286" lon="-25.802942633529057"><ele>535.7142857142858</ele><time>2026-04-29T14:08:24Z</time></trkpt><trkpt lat="37.84288669849032" lon="-25.80287896526437"><ele>536.1428571428571</ele><time>2026-04-29T14:08:30Z</time></trkpt><trkpt lat="37.842837022008716" lon="-25.802814759696908"><ele>536.5714285714286</ele><time>2026-04-29T14:08:35Z</time></trkpt><trkpt lat="37.84280153019408" lon="-25.80274554533912"><ele>537.0</ele><time>2026-04-29T14:08:39Z</time></trkpt><trkpt lat="37.842757644894654" lon="-25.80268398208173"><ele>545.0</ele><time>2026-04-29T14:08:43.999Z</time></trkpt><trkpt lat="37.84245399532339" lon="-25.801798182240283"><ele>545.0</ele><time>2026-04-29T14:09:47Z</time></trkpt><trkpt lat="37.84240652633649" lon="-25.801733407938123"><ele>545.0</ele><time>2026-04-29T14:09:53Z</time></trkpt><trkpt lat="37.842363516271455" lon="-25.801663266727715"><ele>545.0</ele><time>2026-04-29T14:09:58Z</time></trkpt><trkpt lat="37.842332694351526" lon="-25.80157877927355"><ele>545.0</ele><time>2026-04-29T14:10:04Z</time></trkpt><trkpt lat="37.842279810594725" lon="-25.801529839242924"><ele>545.0</ele><time>2026-04-29T14:10:09Z</time></trkpt><trkpt lat="37.84223824998433" lon="-25.80146092857849"><ele>545.0</ele><time>2026-04-29T14:10:15Z</time></trkpt><trkpt lat="37.84220819894597" lon="-25.801381932181382"><ele>545.0</ele><time>2026-04-29T14:10:20Z</time></trkpt><trkpt lat="37.842160454905056" lon="-25.801306463369215"><ele>545.0</ele><time>2026-04-29T14:10:26Z</time></trkpt><trkpt lat="37.842135182314735" lon="-25.801221471145226"><ele>545.0</ele><time>2026-04-29T14:10:32Z</time></trkpt><trkpt lat="37.84211401083937" lon="-25.80112953296198"><ele>545.0</ele><time>2026-04-29T14:10:38Z</time></trkpt><trkpt lat="37.842072297623766" lon="-25.801055151031417"><ele>545.0</ele><time>2026-04-29T14:10:44Z</time></trkpt><trkpt lat="37.841563487057115" lon="-25.800334476689653"><ele>546.4285714285714</ele><time>2026-04-29T14:11:47Z</time></trkpt><trkpt lat="37.84151708791169" lon="-25.800274264823855"><ele>547.8571428571429</ele><time>2026-04-29T14:11:52Z</time></trkpt><trkpt lat="37.84148375458374" lon="-25.80019353711282"><ele>549.2857142857143</ele><time>2026-04-29T14:11:57Z</time></trkpt><trkpt lat="37.84146107744684" lon="-25.80011781097933"><ele>550.7142857142858</ele><time>2026-04-29T14:12:02Z</time></trkpt><trkpt lat="37.84142561972589" lon="-25.800032710537106"><ele>552.1428571428571</ele><time>2026-04-29T14:12:08Z</time></trkpt><trkpt lat="37.84140664785446" lon="-25.79995281940892"><ele>553.5714285714287</ele><time>2026-04-29T14:12:13Z</time></trkpt><trkpt lat="37.841371379667024" lon="-25.7998754720308"><ele>555.0</ele><time>2026-04-29T14:12:19Z</time></trkpt><trkpt lat="37.841352377319055" lon="-25.799799232999863"><ele>555.8</ele><time>2026-04-29T14:12:24Z</time></trkpt><trkpt lat="37.84131572753332" lon="-25.79973065403672"><ele>556.6</ele><time>2026-04-29T14:12:29Z</time></trkpt><trkpt lat="37.84128018459358" lon="-25.799664376621287"><ele>557.4</ele><time>2026-04-29T14:12:34Z</time></trkpt><trkpt lat="37.84124563102075" lon="-25.799595678440134"><ele>558.2</ele><time>2026-04-29T14:12:39Z</time></trkpt><trkpt lat="37.841205776582385" lon="-25.799531893544682"><ele>559.0</ele><time>2026-04-29T14:12:44Z</time></trkpt><trkpt lat="37.84102170573376" lon="-25.799105537907497"><ele>561.0</ele><time>2026-04-29T14:13:54Z</time></trkpt><trkpt lat="37.841003986191886" lon="-25.799016925209727"><ele>563.0</ele><time>2026-04-29T14:14:43Z</time></trkpt><trkpt lat="37.84066472152417" lon="-25.798155190282554"><ele>563.0</ele><time>2026-04-29T14:15:46.999Z</time></trkpt><trkpt lat="37.840626436417054" lon="-25.798084492823516"><ele>563.0</ele><time>2026-04-29T14:15:53Z</time></trkpt><trkpt lat="37.840612819266816" lon="-25.798001213942406"><ele>563.0</ele><time>2026-04-29T14:15:59Z</time></trkpt><trkpt lat="37.84056386988713" lon="-25.79793485647288"><ele>563.0</ele><time>2026-04-29T14:16:05Z</time></trkpt><trkpt lat="37.84050170118048" lon="-25.79791954590392"><ele>563.0</ele><time>2026-04-29T14:16:10Z</time></trkpt><trkpt lat="37.84045494548285" lon="-25.797850844270016"><ele>563.0</ele><time>2026-04-29T14:16:16Z</time></trkpt><trkpt lat="37.84041407598615" lon="-25.797771571599284"><ele>563.0</ele><time>2026-04-29T14:16:23Z</time></trkpt><trkpt lat="37.840385685315134" lon="-25.79768599341333"><ele>554.3333333333333</ele><time>2026-04-29T14:16:32Z</time></trkpt><trkpt lat="37.84034265149608" lon="-25.79761188393856"><ele>545.6666666666666</ele><time>2026-04-29T14:16:38Z</time></trkpt><trkpt lat="37.840304705890205" lon="-25.79754112570654"><ele>537.0</ele><time>2026-04-29T14:16:43Z</time></trkpt><trkpt lat="37.839962603743295" lon="-25.796668063288987"><ele>536.9999999999999</ele><time>2026-04-29T14:17:46.999Z</time></trkpt><trkpt lat="37.83994022236893" lon="-25.796589359479604"><ele>537.0</ele><time>2026-04-29T14:17:51.999Z</time></trkpt><trkpt lat="37.83991439061922" lon="-25.796505454344313"><ele>537.0</ele><time>2026-04-29T14:17:58Z</time></trkpt><trkpt lat="37.83987486124538" lon="-25.796437490444198"><ele>537.0</ele><time>2026-04-29T14:18:04Z</time></trkpt><trkpt lat="37.839825808397315" lon="-25.796385407413407"><ele>537.0</ele><time>2026-04-29T14:18:09Z</time></trkpt><trkpt lat="37.83978646037952" lon="-25.796313112038888"><ele>536.9999999999999</ele><time>2026-04-29T14:18:15Z</time></trkpt><trkpt lat="37.839722445965215" lon="-25.79627326607861"><ele>537.0</ele><time>2026-04-29T14:18:20Z</time></trkpt><trkpt lat="37.8396749631209" lon="-25.796210467898266"><ele>537.0</ele><time>2026-04-29T14:18:26Z</time></trkpt><trkpt lat="37.839656449298275" lon="-25.796128084997793"><ele>537.0</ele><time>2026-04-29T14:18:34Z</time></trkpt><trkpt lat="37.839595532146376" lon="-25.79600064604101"><ele>537.0</ele><time>2026-04-29T14:19:22.999Z</time></trkpt><trkpt lat="37.839403870164816" lon="-25.795602316815845"><ele>537.4285714285713</ele><time>2026-04-29T14:20:47Z</time></trkpt><trkpt lat="37.83937650596175" lon="-25.79552794820411"><ele>537.8571428571429</ele><time>2026-04-29T14:20:52Z</time></trkpt><trkpt lat="37.83936250941278" lon="-25.7954360976226"><ele>538.2857142857142</ele><time>2026-04-29T14:20:59Z</time></trkpt><trkpt lat="37.83934713658588" lon="-25.795343684716418"><ele>538.7142857142857</ele><time>2026-04-29T14:21:06Z</time></trkpt><trkpt lat="37.83932133948205" lon="-25.795251224470267"><ele>539.1428571428571</ele><time>2026-04-29T14:21:12.999Z</time></trkpt><trkpt lat="37.83927901690876" lon="-25.79518135371855"><ele>539.5714285714286</ele><time>2026-04-29T14:21:19.999Z</time></trkpt><trkpt lat="37.839260883784625" lon="-25.795103753509437"><ele>540.0</ele><time>2026-04-29T14:21:24.999Z</time></trkpt><trkpt lat="37.83924104506874" lon="-25.795026585289904"><ele>545.6666666666666</ele><time>2026-04-29T14:21:30.999Z</time></trkpt><trkpt lat="37.83925179315728" lon="-25.79494626174814"><ele>551.3333333333333</ele><time>2026-04-29T14:21:37.999Z</time></trkpt><trkpt lat="37.83930510348449" lon="-25.79488913071857"><ele>557.0</ele><time>2026-04-29T14:21:43.999Z</time></trkpt><trkpt lat="37.839112839981276" lon="-25.79401353369986"><ele>561.0</ele><time>2026-04-29T14:25:32.999Z</time></trkpt><trkpt lat="37.83912547645012" lon="-25.79393520734132"><ele>565.0</ele><time>2026-04-29T14:25:36.999Z</time></trkpt><trkpt lat="37.839195495122034" lon="-25.793557213539295"><ele>569.0</ele><time>2026-04-29T14:26:48.999Z</time></trkpt><trkpt lat="37.83926376181723" lon="-25.792748227725948"><ele>571.4285714285714</ele><time>2026-04-29T14:31:47Z</time></trkpt><trkpt lat="37.83926011901487" lon="-25.792656260645263"><ele>573.8571428571429</ele><time>2026-04-29T14:31:53Z</time></trkpt><trkpt lat="37.83925787614179" lon="-25.79257269762945"><ele>576.2857142857142</ele><time>2026-04-29T14:31:58Z</time></trkpt><trkpt lat="37.83926111552857" lon="-25.79248990890642"><ele>578.7142857142858</ele><time>2026-04-29T14:32:03Z</time></trkpt><trkpt lat="37.8392501072343" lon="-25.792390964074993"><ele>581.1428571428571</ele><time>2026-04-29T14:32:15Z</time></trkpt><trkpt lat="37.83925816356225" lon="-25.79230844475919"><ele>583.5714285714286</ele><time>2026-04-29T14:32:20Z</time></trkpt><trkpt lat="37.83926652410642" lon="-25.79221734364042"><ele>586.0</ele><time>2026-04-29T14:32:26Z</time></trkpt><trkpt lat="37.83927361280809" lon="-25.792124575630208"><ele>586.0</ele><time>2026-04-29T14:32:32Z</time></trkpt><trkpt lat="37.83928734999388" lon="-25.792046525817376"><ele>586.0</ele><time>2026-04-29T14:32:37Z</time></trkpt><trkpt lat="37.839300731619645" lon="-25.791967625988857"><ele>586.0</ele><time>2026-04-29T14:32:41.999Z</time></trkpt><trkpt lat="37.839124004968376" lon="-25.791031382583103"><ele>586.5714285714286</ele><time>2026-04-29T14:33:47Z</time></trkpt><trkpt lat="37.83910849863821" lon="-25.790953803113723"><ele>587.1428571428571</ele><time>2026-04-29T14:33:52.001Z</time></trkpt><trkpt lat="37.83909467692423" lon="-25.79087570606249"><ele>587.7142857142858</ele><time>2026-04-29T14:33:57.001Z</time></trkpt><trkpt lat="37.83907037143761" lon="-25.790788247222615"><ele>588.2857142857142</ele><time>2026-04-29T14:34:04.001Z</time></trkpt><trkpt lat="37.83904442066789" lon="-25.790704514370855"><ele>588.8571428571429</ele><time>2026-04-29T14:34:10.001Z</time></trkpt><trkpt lat="37.83901699981849" lon="-25.790628419496823"><ele>589.4285714285714</ele><time>2026-04-29T14:34:16.001Z</time></trkpt><trkpt lat="37.83899579843358" lon="-25.79053820366122"><ele>590.0</ele><time>2026-04-29T14:34:22.001Z</time></trkpt><trkpt lat="37.83897664761218" lon="-25.79045793453549"><ele>590.0</ele><time>2026-04-29T14:34:27.001Z</time></trkpt><trkpt lat="37.83896789620831" lon="-25.79037697918531"><ele>590.0</ele><time>2026-04-29T14:34:33.001Z</time></trkpt><trkpt lat="37.8389550926599" lon="-25.790283167620235"><ele>590.0</ele><time>2026-04-29T14:34:40.001Z</time></trkpt></trkseg><trkseg><trkpt lat="37.838946464506755" lon="-25.789837064245518"><ele>578.0</ele><time>2026-04-29T15:02:46.014Z</time></trkpt><trkpt lat="37.83893996374114" lon="-25.789756029801918"><ele>578.0</ele><time>2026-04-29T15:02:53.008Z</time></trkpt><trkpt lat="37.8389133870823" lon="-25.789668369919266"><ele>578.0</ele><time>2026-04-29T15:03:00.005Z</time></trkpt><trkpt lat="37.838881884737276" lon="-25.78959716711275"><ele>578.0</ele><time>2026-04-29T15:03:06.003Z</time></trkpt><trkpt lat="37.83884098205046" lon="-25.789530435031562"><ele>578.0</ele><time>2026-04-29T15:03:14.002Z</time></trkpt><trkpt lat="37.83881311726177" lon="-25.789456625201023"><ele>578.0</ele><time>2026-04-29T15:03:20.001Z</time></trkpt><trkpt lat="37.83877454835164" lon="-25.78937161062504"><ele>578.0</ele><time>2026-04-29T15:03:28Z</time></trkpt><trkpt lat="37.83873792740744" lon="-25.789289442314562"><ele>576.1428571428571</ele><time>2026-04-29T15:03:34Z</time></trkpt><trkpt lat="37.838706565824914" lon="-25.789212679261574"><ele>574.2857142857142</ele><time>2026-04-29T15:03:40Z</time></trkpt><trkpt lat="37.83867560690401" lon="-25.789130584366124"><ele>572.4285714285713</ele><time>2026-04-29T15:03:45.999Z</time></trkpt><trkpt lat="37.838657156921336" lon="-25.789039234826003"><ele>570.5714285714286</ele><time>2026-04-29T15:03:51.999Z</time></trkpt><trkpt lat="37.83863600549732" lon="-25.788944798559502"><ele>568.7142857142857</ele><time>2026-04-29T15:03:57.999Z</time></trkpt><trkpt lat="37.838611416564525" lon="-25.788862985511383"><ele>566.8571428571428</ele><time>2026-04-29T15:04:03.999Z</time></trkpt><trkpt lat="37.838596065648524" lon="-25.788773184272273"><ele>565.0</ele><time>2026-04-29T15:04:09.999Z</time></trkpt><trkpt lat="37.83858350633738" lon="-25.788680919959287"><ele>564.9999999999999</ele><time>2026-04-29T15:04:15.999Z</time></trkpt><trkpt lat="37.83856704236924" lon="-25.7885948423797"><ele>565.0</ele><time>2026-04-29T15:04:21.999Z</time></trkpt><trkpt lat="37.838556596632294" lon="-25.788511092120487"><ele>565.0</ele><time>2026-04-29T15:04:27.999Z</time></trkpt><trkpt lat="37.83852130187569" lon="-25.788422879085207"><ele>565.0</ele><time>2026-04-29T15:04:34.999Z</time></trkpt><trkpt lat="37.83851038938697" lon="-25.78833819548348"><ele>565.0</ele><time>2026-04-29T15:04:40.999Z</time></trkpt><trkpt lat="37.83849655894379" lon="-25.78825278209875"><ele>564.9999999999999</ele><time>2026-04-29T15:04:46.999Z</time></trkpt><trkpt lat="37.838479215625" lon="-25.788171458363102"><ele>565.0</ele><time>2026-04-29T15:04:52.999Z</time></trkpt><trkpt lat="37.838447345735354" lon="-25.788089281342284"><ele>570.7142857142857</ele><time>2026-04-29T15:04:59.999Z</time></trkpt><trkpt lat="37.83840548359382" lon="-25.78801353597271"><ele>576.4285714285714</ele><time>2026-04-29T15:05:07Z</time></trkpt><trkpt lat="37.838381614923605" lon="-25.787938130600647"><ele>582.1428571428571</ele><time>2026-04-29T15:05:13Z</time></trkpt><trkpt lat="37.83834769244837" lon="-25.787868123670776"><ele>587.8571428571429</ele><time>2026-04-29T15:05:19Z</time></trkpt><trkpt lat="37.838320123888984" lon="-25.787775840613513"><ele>593.5714285714286</ele><time>2026-04-29T15:05:28Z</time></trkpt><trkpt lat="37.838265215375664" lon="-25.78773299053236"><ele>599.2857142857142</ele><time>2026-04-29T15:05:33Z</time></trkpt><trkpt lat="37.838227049919695" lon="-25.78766807648675"><ele>605.0</ele><time>2026-04-29T15:05:38Z</time></trkpt><trkpt lat="37.83818870232628" lon="-25.787597835271033"><ele>605.0</ele><time>2026-04-29T15:05:44Z</time></trkpt><trkpt lat="37.83813593792967" lon="-25.787532690074148"><ele>605.0</ele><time>2026-04-29T15:05:50Z</time></trkpt><trkpt lat="37.838093953043405" lon="-25.787461895695632"><ele>605.0</ele><time>2026-04-29T15:05:56Z</time></trkpt><trkpt lat="37.83807302364285" lon="-25.78737059102754"><ele>605.0</ele><time>2026-04-29T15:06:01.999Z</time></trkpt><trkpt lat="37.83806123130442" lon="-25.787272471047586"><ele>605.0</ele><time>2026-04-29T15:06:07.999Z</time></trkpt><trkpt lat="37.838065349048534" lon="-25.787182774792008"><ele>605.0</ele><time>2026-04-29T15:06:12.999Z</time></trkpt><trkpt lat="37.83803083611668" lon="-25.787104018182287"><ele>605.0</ele><time>2026-04-29T15:06:18.999Z</time></trkpt><trkpt lat="37.838018479238634" lon="-25.787022504046014"><ele>605.0</ele><time>2026-04-29T15:06:24.999Z</time></trkpt><trkpt lat="37.837986334633165" lon="-25.786951728028757"><ele>605.0</ele><time>2026-04-29T15:06:29.999Z</time></trkpt><trkpt lat="37.83795554724814" lon="-25.786876250179425"><ele>605.0</ele><time>2026-04-29T15:06:35.999Z</time></trkpt><trkpt lat="37.83792214542471" lon="-25.786803882313226"><ele>605.0</ele><time>2026-04-29T15:06:41.999Z</time></trkpt><trkpt lat="37.837889631131006" lon="-25.78671968554666"><ele>605.0</ele><time>2026-04-29T15:06:47.999Z</time></trkpt><trkpt lat="37.83783846044613" lon="-25.78665760149169"><ele>605.0</ele><time>2026-04-29T15:06:54Z</time></trkpt><trkpt lat="37.837771350724786" lon="-25.786616572005613"><ele>605.0</ele><time>2026-04-29T15:07:01Z</time></trkpt><trkpt lat="37.83770841747559" lon="-25.786585212459666"><ele>603.0</ele><time>2026-04-29T15:07:06Z</time></trkpt><trkpt lat="37.83764033081787" lon="-25.786556007321185"><ele>601.0</ele><time>2026-04-29T15:07:13Z</time></trkpt><trkpt lat="37.837588075802415" lon="-25.78649755171236"><ele>599.0</ele><time>2026-04-29T15:07:19Z</time></trkpt><trkpt lat="37.8375256522623" lon="-25.786454962721926"><ele>597.0</ele><time>2026-04-29T15:07:24Z</time></trkpt><trkpt lat="37.83748315615786" lon="-25.786372959592455"><ele>595.0</ele><time>2026-04-29T15:07:30Z</time></trkpt><trkpt lat="37.83745237980988" lon="-25.78629879302838"><ele>593.0</ele><time>2026-04-29T15:07:35Z</time></trkpt><trkpt lat="37.83740741797158" lon="-25.78623549269026"><ele>591.0</ele><time>2026-04-29T15:07:40Z</time></trkpt><trkpt lat="37.837389862437966" lon="-25.786137923882276"><ele>593.5714285714286</ele><time>2026-04-29T15:07:45Z</time></trkpt><trkpt lat="37.837363297240515" lon="-25.786065169085166"><ele>596.1428571428571</ele><time>2026-04-29T15:07:50Z</time></trkpt><trkpt lat="37.837333505886676" lon="-25.785991147671325"><ele>598.7142857142858</ele><time>2026-04-29T15:07:55Z</time></trkpt><trkpt lat="37.83729259086304" lon="-25.785908000950855"><ele>601.2857142857142</ele><time>2026-04-29T15:08:01Z</time></trkpt><trkpt lat="37.8372590928863" lon="-25.7858331040635"><ele>603.8571428571429</ele><time>2026-04-29T15:08:07Z</time></trkpt><trkpt lat="37.837220043451154" lon="-25.785767178094044"><ele>606.4285714285714</ele><time>2026-04-29T15:08:12Z</time></trkpt><trkpt lat="37.837183841178884" lon="-25.785697888092535"><ele>609.0</ele><time>2026-04-29T15:08:17Z</time></trkpt><trkpt lat="37.83714886986515" lon="-25.78562229016315"><ele>609.0</ele><time>2026-04-29T15:08:22.999Z</time></trkpt><trkpt lat="37.837106476557494" lon="-25.785557196485627"><ele>609.0</ele><time>2026-04-29T15:08:27.999Z</time></trkpt><trkpt lat="37.83708445815139" lon="-25.785469031091633"><ele>609.0</ele><time>2026-04-29T15:08:32.999Z</time></trkpt><trkpt lat="37.837049387986575" lon="-25.785389306806092"><ele>609.0</ele><time>2026-04-29T15:08:38.999Z</time></trkpt><trkpt lat="37.83698439279879" lon="-25.78533029038791"><ele>609.0</ele><time>2026-04-29T15:08:44.999Z</time></trkpt><trkpt lat="37.83694901131502" lon="-25.785257588163617"><ele>609.0</ele><time>2026-04-29T15:08:49.999Z</time></trkpt><trkpt lat="37.83692345973498" lon="-25.785180446314776"><ele>609.0</ele><time>2026-04-29T15:08:54.999Z</time></trkpt><trkpt lat="37.836914714340956" lon="-25.78509554476376"><ele>606.7142857142857</ele><time>2026-04-29T15:09:00Z</time></trkpt><trkpt lat="37.836907780617835" lon="-25.7850042645512"><ele>604.4285714285714</ele><time>2026-04-29T15:09:05Z</time></trkpt><trkpt lat="37.836904370009975" lon="-25.78491528581601"><ele>602.1428571428571</ele><time>2026-04-29T15:09:10Z</time></trkpt><trkpt lat="37.83691465118079" lon="-25.784825029145637"><ele>599.8571428571429</ele><time>2026-04-29T15:09:16Z</time></trkpt><trkpt lat="37.83691512484106" lon="-25.784735198471147"><ele>597.5714285714286</ele><time>2026-04-29T15:09:22Z</time></trkpt><trkpt lat="37.83689498051156" lon="-25.784651870629286"><ele>595.2857142857142</ele><time>2026-04-29T15:09:28Z</time></trkpt><trkpt lat="37.83688225786244" lon="-25.784563045662072"><ele>593.0</ele><time>2026-04-29T15:09:34Z</time></trkpt><trkpt lat="37.836877990129544" lon="-25.784474236553432"><ele>592.9999999999999</ele><time>2026-04-29T15:09:40Z</time></trkpt><trkpt lat="37.836899313746045" lon="-25.784381956711005"><ele>593.0</ele><time>2026-04-29T15:09:46Z</time></trkpt><trkpt lat="37.836919049372376" lon="-25.784296337930048"><ele>593.0</ele><time>2026-04-29T15:09:51Z</time></trkpt><trkpt lat="37.83693488251316" lon="-25.784216175368964"><ele>593.0</ele><time>2026-04-29T15:09:57Z</time></trkpt><trkpt lat="37.836935521616745" lon="-25.78412736319351"><ele>593.0</ele><time>2026-04-29T15:10:03Z</time></trkpt><trkpt lat="37.836917740604775" lon="-25.7840450029714"><ele>592.9999999999999</ele><time>2026-04-29T15:10:08Z</time></trkpt><trkpt lat="37.83692500136891" lon="-25.783952634661798"><ele>593.0</ele><time>2026-04-29T15:10:14Z</time></trkpt><trkpt lat="37.8369178421133" lon="-25.78386007883349"><ele>592.5714285714286</ele><time>2026-04-29T15:10:20Z</time></trkpt><trkpt lat="37.83694330676554" lon="-25.78376968567188"><ele>592.1428571428571</ele><time>2026-04-29T15:10:26Z</time></trkpt><trkpt lat="37.83696900319183" lon="-25.78368778652454"><ele>591.7142857142858</ele><time>2026-04-29T15:10:32Z</time></trkpt><trkpt lat="37.83699241229856" lon="-25.783606550712754"><ele>591.2857142857142</ele><time>2026-04-29T15:10:38Z</time></trkpt><trkpt lat="37.83699006282308" lon="-25.783517894571233"><ele>590.8571428571429</ele><time>2026-04-29T15:10:43.999Z</time></trkpt><trkpt lat="37.83701549003764" lon="-25.783440184825274"><ele>590.4285714285714</ele><time>2026-04-29T15:10:48.999Z</time></trkpt><trkpt lat="37.83703796300597" lon="-25.78335701659952"><ele>590.0</ele><time>2026-04-29T15:10:54.999Z</time></trkpt><trkpt lat="37.83705417792339" lon="-25.783278900171783"><ele>590.0000000000001</ele><time>2026-04-29T15:11:00.999Z</time></trkpt><trkpt lat="37.837060073099885" lon="-25.783196052939218"><ele>590.0</ele><time>2026-04-29T15:11:08Z</time></trkpt><trkpt lat="37.83707502089192" lon="-25.783104122488826"><ele>590.0</ele><time>2026-04-29T15:11:13Z</time></trkpt><trkpt lat="37.837079423829216" lon="-25.78302163109712"><ele>590.0</ele><time>2026-04-29T15:11:18Z</time></trkpt><trkpt lat="37.83708489741158" lon="-25.782936748544973"><ele>590.0</ele><time>2026-04-29T15:11:23Z</time></trkpt><trkpt lat="37.8370995597348" lon="-25.782849525090015"><ele>590.0000000000001</ele><time>2026-04-29T15:11:29Z</time></trkpt><trkpt lat="37.83713678989138" lon="-25.782762297062554"><ele>590.0</ele><time>2026-04-29T15:11:34Z</time></trkpt><trkpt lat="37.83714838642922" lon="-25.782681971664307"><ele>590.1428571428572</ele><time>2026-04-29T15:11:40Z</time></trkpt><trkpt lat="37.83718722453327" lon="-25.782616584098122"><ele>590.2857142857143</ele><time>2026-04-29T15:11:44Z</time></trkpt><trkpt lat="37.83720196057213" lon="-25.782537198425224"><ele>590.4285714285714</ele><time>2026-04-29T15:11:49Z</time></trkpt><trkpt lat="37.83724158382507" lon="-25.782474943955613"><ele>590.5714285714287</ele><time>2026-04-29T15:11:53Z</time></trkpt><trkpt lat="37.837218955037265" lon="-25.7823950720154"><ele>590.7142857142858</ele><time>2026-04-29T15:11:58Z</time></trkpt><trkpt lat="37.837221266817906" lon="-25.782304628542242"><ele>590.8571428571429</ele><time>2026-04-29T15:12:03Z</time></trkpt><trkpt lat="37.837256315122666" lon="-25.78223105501231"><ele>591.0</ele><time>2026-04-29T15:12:09Z</time></trkpt><trkpt lat="37.837343508192646" lon="-25.782207733694236"><ele>591.0</ele><time>2026-04-29T15:12:16Z</time></trkpt><trkpt lat="37.83737310210468" lon="-25.782130042661734"><ele>591.0</ele><time>2026-04-29T15:12:21Z</time></trkpt><trkpt lat="37.83742740073295" lon="-25.782067893923482"><ele>591.0</ele><time>2026-04-29T15:12:26Z</time></trkpt><trkpt lat="37.837470788066796" lon="-25.782003135664656"><ele>591.0</ele><time>2026-04-29T15:12:31Z</time></trkpt><trkpt lat="37.83751079615566" lon="-25.78194005601244"><ele>591.0</ele><time>2026-04-29T15:12:36Z</time></trkpt><trkpt lat="37.837546017122946" lon="-25.781871777887822"><ele>591.0</ele><time>2026-04-29T15:12:41Z</time></trkpt><trkpt lat="37.83757946751621" lon="-25.781790507742105"><ele>591.0</ele><time>2026-04-29T15:12:47Z</time></trkpt><trkpt lat="37.837622796668015" lon="-25.781724594402725"><ele>587.4285714285714</ele><time>2026-04-29T15:12:52Z</time></trkpt><trkpt lat="37.83767370997145" lon="-25.781657512193085"><ele>583.8571428571429</ele><time>2026-04-29T15:12:57.999Z</time></trkpt><trkpt lat="37.837720503940275" lon="-25.7815990559292"><ele>580.2857142857143</ele><time>2026-04-29T15:13:02.999Z</time></trkpt><trkpt lat="37.83777524060849" lon="-25.781542481904673"><ele>576.7142857142858</ele><time>2026-04-29T15:13:07.999Z</time></trkpt><trkpt lat="37.83785315471826" lon="-25.781538183557775"><ele>573.1428571428572</ele><time>2026-04-29T15:13:13Z</time></trkpt><trkpt lat="37.83790767119063" lon="-25.781486761295735"><ele>569.5714285714286</ele><time>2026-04-29T15:13:28Z</time></trkpt><trkpt lat="37.83796507972397" lon="-25.781416823484843"><ele>566.0</ele><time>2026-04-29T15:13:34Z</time></trkpt><trkpt lat="37.838022435478955" lon="-25.781347835519533"><ele>566.0</ele><time>2026-04-29T15:13:39Z</time></trkpt><trkpt lat="37.838093007573534" lon="-25.7813330652085"><ele>566.0</ele><time>2026-04-29T15:13:44Z</time></trkpt><trkpt lat="37.83816513612004" lon="-25.78136668297401"><ele>566.0</ele><time>2026-04-29T15:13:49Z</time></trkpt><trkpt lat="37.838223830047895" lon="-25.78141927658867"><ele>566.0</ele><time>2026-04-29T15:13:54Z</time></trkpt><trkpt lat="37.83828586174327" lon="-25.781463849831344"><ele>566.0</ele><time>2026-04-29T15:13:59Z</time></trkpt><trkpt lat="37.838331667599824" lon="-25.781534823497214"><ele>566.0</ele><time>2026-04-29T15:14:04Z</time></trkpt><trkpt lat="37.83838565849934" lon="-25.781580172809626"><ele>566.0</ele><time>2026-04-29T15:14:09Z</time></trkpt><trkpt lat="37.83845745846391" lon="-25.781596173022674"><ele>567.0</ele><time>2026-04-29T15:14:14Z</time></trkpt><trkpt lat="37.83852949688818" lon="-25.781587907511273"><ele>568.0</ele><time>2026-04-29T15:14:20Z</time></trkpt><trkpt lat="37.83857883924324" lon="-25.78153333942931"><ele>569.0</ele><time>2026-04-29T15:14:25Z</time></trkpt><trkpt lat="37.83863571481254" lon="-25.781490183146875"><ele>570.0</ele><time>2026-04-29T15:14:30Z</time></trkpt><trkpt lat="37.83870585854425" lon="-25.781509970008077"><ele>571.0</ele><time>2026-04-29T15:14:35Z</time></trkpt><trkpt lat="37.838756121156905" lon="-25.781581321204353"><ele>572.0</ele><time>2026-04-29T15:14:40Z</time></trkpt><trkpt lat="37.83882105587009" lon="-25.781616922873624"><ele>573.0</ele><time>2026-04-29T15:14:45Z</time></trkpt><trkpt lat="37.838873795395635" lon="-25.781679674687304"><ele>573.0</ele><time>2026-04-29T15:14:50Z</time></trkpt><trkpt lat="37.83892107581449" lon="-25.781739483285506"><ele>573.0</ele><time>2026-04-29T15:14:55Z</time></trkpt><trkpt lat="37.83896984903227" lon="-25.781793912411427"><ele>573.0</ele><time>2026-04-29T15:15:00Z</time></trkpt><trkpt lat="37.839026288912116" lon="-25.781851438229875"><ele>573.0</ele><time>2026-04-29T15:15:06.999Z</time></trkpt><trkpt lat="37.83906817781127" lon="-25.781920130408782"><ele>573.0</ele><time>2026-04-29T15:15:13.999Z</time></trkpt><trkpt lat="37.839124634729295" lon="-25.781962879902103"><ele>573.0</ele><time>2026-04-29T15:15:19Z</time></trkpt><trkpt lat="37.83918240805869" lon="-25.78203146693701"><ele>573.0</ele><time>2026-04-29T15:15:25Z</time></trkpt><trkpt lat="37.839225741045986" lon="-25.782091872865834"><ele>573.4285714285714</ele><time>2026-04-29T15:15:29Z</time></trkpt><trkpt lat="37.83927044043722" lon="-25.782164191504723"><ele>573.8571428571429</ele><time>2026-04-29T15:15:35Z</time></trkpt><trkpt lat="37.83928848893677" lon="-25.782245573433876"><ele>574.2857142857143</ele><time>2026-04-29T15:15:40Z</time></trkpt><trkpt lat="37.839274568861136" lon="-25.782338151656077"><ele>574.7142857142858</ele><time>2026-04-29T15:15:44Z</time></trkpt><trkpt lat="37.839279158186514" lon="-25.782436534548022"><ele>575.1428571428571</ele><time>2026-04-29T15:15:56Z</time></trkpt><trkpt lat="37.83929611768062" lon="-25.782516532322283"><ele>575.5714285714287</ele><time>2026-04-29T15:16:01Z</time></trkpt><trkpt lat="37.83928534886499" lon="-25.782599980491494"><ele>576.0</ele><time>2026-04-29T15:16:06Z</time></trkpt><trkpt lat="37.839287227191676" lon="-25.782687825184944"><ele>578.2857142857143</ele><time>2026-04-29T15:16:11Z</time></trkpt><trkpt lat="37.83930841632234" lon="-25.782777588226157"><ele>580.5714285714286</ele><time>2026-04-29T15:16:16Z</time></trkpt><trkpt lat="37.839322502509695" lon="-25.782861732763376"><ele>582.8571428571429</ele><time>2026-04-29T15:16:21Z</time></trkpt><trkpt lat="37.83935615764453" lon="-25.782943695022983"><ele>585.1428571428571</ele><time>2026-04-29T15:16:26Z</time></trkpt><trkpt lat="37.83940289053236" lon="-25.783011508247196"><ele>587.4285714285714</ele><time>2026-04-29T15:16:31Z</time></trkpt><trkpt lat="37.839426373504466" lon="-25.7830882674245"><ele>589.7142857142858</ele><time>2026-04-29T15:16:36Z</time></trkpt><trkpt lat="37.839471535357724" lon="-25.783145481755813"><ele>592.0</ele><time>2026-04-29T15:16:40Z</time></trkpt><trkpt lat="37.839512506423794" lon="-25.7832136092062"><ele>592.0</ele><time>2026-04-29T15:16:45Z</time></trkpt><trkpt lat="37.83953725478449" lon="-25.783290631060172"><ele>592.0</ele><time>2026-04-29T15:16:50Z</time></trkpt><trkpt lat="37.839562501584965" lon="-25.783370663785995"><ele>592.0</ele><time>2026-04-29T15:16:56Z</time></trkpt><trkpt lat="37.83959991392759" lon="-25.783436350977336"><ele>592.0</ele><time>2026-04-29T15:17:02.999Z</time></trkpt><trkpt lat="37.83961874119517" lon="-25.783524954107982"><ele>592.0</ele><time>2026-04-29T15:17:08.999Z</time></trkpt><trkpt lat="37.83965503642796" lon="-25.7835961156623"><ele>592.0</ele><time>2026-04-29T15:17:13.999Z</time></trkpt><trkpt lat="37.83971186957133" lon="-25.78364990836286"><ele>592.0</ele><time>2026-04-29T15:17:19.999Z</time></trkpt><trkpt lat="37.839760039131235" lon="-25.78372254258998"><ele>590.1428571428571</ele><time>2026-04-29T15:17:25Z</time></trkpt><trkpt lat="37.83981081205407" lon="-25.783774173617513"><ele>588.2857142857142</ele><time>2026-04-29T15:17:29Z</time></trkpt><trkpt lat="37.839825066542176" lon="-25.783863583003455"><ele>586.4285714285713</ele><time>2026-04-29T15:17:33Z</time></trkpt><trkpt lat="37.83989136168446" lon="-25.783901520578794"><ele>584.5714285714286</ele><time>2026-04-29T15:17:39Z</time></trkpt><trkpt lat="37.83994046947526" lon="-25.78397971142787"><ele>582.7142857142857</ele><time>2026-04-29T15:17:44Z</time></trkpt><trkpt lat="37.839951169353526" lon="-25.784075224153774"><ele>580.8571428571428</ele><time>2026-04-29T15:17:51Z</time></trkpt><trkpt lat="37.83993707701141" lon="-25.784176059745807"><ele>579.0</ele><time>2026-04-29T15:17:57Z</time></trkpt><trkpt lat="37.83990339717571" lon="-25.784264097539022"><ele>574.2857142857142</ele><time>2026-04-29T15:18:02Z</time></trkpt><trkpt lat="37.8398990388233" lon="-25.78435343297045"><ele>569.5714285714286</ele><time>2026-04-29T15:18:08Z</time></trkpt><trkpt lat="37.839851178822066" lon="-25.784412146592846"><ele>564.8571428571429</ele><time>2026-04-29T15:18:12Z</time></trkpt><trkpt lat="37.83983060436816" lon="-25.784487550517532"><ele>560.1428571428571</ele><time>2026-04-29T15:18:17Z</time></trkpt><trkpt lat="37.839846516324826" lon="-25.78456932333124"><ele>555.4285714285714</ele><time>2026-04-29T15:18:22Z</time></trkpt><trkpt lat="37.839899633276275" lon="-25.784617605602396"><ele>550.7142857142857</ele><time>2026-04-29T15:18:27Z</time></trkpt><trkpt lat="37.83988754509431" lon="-25.784701525578257"><ele>546.0</ele><time>2026-04-29T15:18:33Z</time></trkpt><trkpt lat="37.83994321600729" lon="-25.78474576858867"><ele>546.0</ele><time>2026-04-29T15:18:39Z</time></trkpt><trkpt lat="37.840023892637944" lon="-25.784801595659836"><ele>546.0</ele><time>2026-04-29T15:20:30Z</time></trkpt><trkpt lat="37.840083505087236" lon="-25.784837171008764"><ele>546.0</ele><time>2026-04-29T15:20:34Z</time></trkpt><trkpt lat="37.84015740150133" lon="-25.784833173314166"><ele>546.0</ele><time>2026-04-29T15:20:44Z</time></trkpt><trkpt lat="37.84020252438534" lon="-25.784772620627177"><ele>546.0</ele><time>2026-04-29T15:20:51Z</time></trkpt><trkpt lat="37.840257252151325" lon="-25.7847101124615"><ele>546.0</ele><time>2026-04-29T15:20:58Z</time></trkpt><trkpt lat="37.84031148352896" lon="-25.784654566663065"><ele>546.0</ele><time>2026-04-29T15:21:03Z</time></trkpt><trkpt lat="37.84036933710699" lon="-25.784616756969584"><ele>542.0</ele><time>2026-04-29T15:21:07Z</time></trkpt><trkpt lat="37.84043859743207" lon="-25.784633576432363"><ele>538.0</ele><time>2026-04-29T15:21:11Z</time></trkpt><trkpt lat="37.84039236796754" lon="-25.7846987001962"><ele>534.0</ele><time>2026-04-29T15:21:19.999Z</time></trkpt><trkpt lat="37.84043391521922" lon="-25.78458644717201"><ele>530.0</ele><time>2026-04-29T15:22:48Z</time></trkpt><trkpt lat="37.840411970678566" lon="-25.784703807436166"><ele>526.0</ele><time>2026-04-29T15:23:01Z</time></trkpt><trkpt lat="37.840447077192394" lon="-25.78460253893191"><ele>522.0</ele><time>2026-04-29T15:23:06.999Z</time></trkpt><trkpt lat="37.840489858419126" lon="-25.78451786793133"><ele>522.0</ele><time>2026-04-29T15:23:10.999Z</time></trkpt><trkpt lat="37.840565498449315" lon="-25.784473613827334"><ele>522.0</ele><time>2026-04-29T15:23:21.999Z</time></trkpt><trkpt lat="37.84061865940907" lon="-25.78441508216942"><ele>522.0</ele><time>2026-04-29T15:23:28.999Z</time></trkpt><trkpt lat="37.84068198534002" lon="-25.784432531237762"><ele>522.0</ele><time>2026-04-29T15:23:32.999Z</time></trkpt><trkpt lat="37.840739162461475" lon="-25.78439537220727"><ele>522.0</ele><time>2026-04-29T15:23:40.999Z</time></trkpt><trkpt lat="37.840790494944564" lon="-25.78434128974579"><ele>522.0</ele><time>2026-04-29T15:23:49Z</time></trkpt><trkpt lat="37.84084901990424" lon="-25.78429178395917"><ele>522.0</ele><time>2026-04-29T15:24:01Z</time></trkpt><trkpt lat="37.840904806118324" lon="-25.784244563668917"><ele>526.5714285714286</ele><time>2026-04-29T15:24:08Z</time></trkpt><trkpt lat="37.8409761336045" lon="-25.784227192115935"><ele>531.1428571428571</ele><time>2026-04-29T15:24:25Z</time></trkpt><trkpt lat="37.84104668316049" lon="-25.784209489502018"><ele>535.7142857142857</ele><time>2026-04-29T15:24:31Z</time></trkpt><trkpt lat="37.84111652576591" lon="-25.784209530121345"><ele>540.2857142857142</ele><time>2026-04-29T15:24:39Z</time></trkpt><trkpt lat="37.84118482751813" lon="-25.78418468900277"><ele>544.8571428571428</ele><time>2026-04-29T15:24:46Z</time></trkpt><trkpt lat="37.84124830544256" lon="-25.784183535035428"><ele>549.4285714285714</ele><time>2026-04-29T15:24:53Z</time></trkpt><trkpt lat="37.84131166500201" lon="-25.784154132685288"><ele>554.0</ele><time>2026-04-29T15:25:04.999Z</time></trkpt><trkpt lat="37.84137741143347" lon="-25.784133428445465"><ele>554.0</ele><time>2026-04-29T15:25:10.999Z</time></trkpt><trkpt lat="37.84144134740668" lon="-25.784113011844717"><ele>554.0</ele><time>2026-04-29T15:25:17.999Z</time></trkpt><trkpt lat="37.841498592311645" lon="-25.784041532363588"><ele>554.0</ele><time>2026-04-29T15:25:23.999Z</time></trkpt><trkpt lat="37.841561398419415" lon="-25.78400506636127"><ele>554.0</ele><time>2026-04-29T15:25:27.999Z</time></trkpt><trkpt lat="37.84162641898558" lon="-25.783999721209955"><ele>554.0</ele><time>2026-04-29T15:25:31.999Z</time></trkpt><trkpt lat="37.84169108181318" lon="-25.78396230931194"><ele>554.0</ele><time>2026-04-29T15:25:36.999Z</time></trkpt><trkpt lat="37.84174884522141" lon="-25.783919056890284"><ele>554.0</ele><time>2026-04-29T15:25:41.999Z</time></trkpt><trkpt lat="37.84180134773727" lon="-25.783865475498786"><ele>555.5714285714286</ele><time>2026-04-29T15:25:46.999Z</time></trkpt><trkpt lat="37.84187081420497" lon="-25.78381894039544"><ele>557.1428571428571</ele><time>2026-04-29T15:25:53Z</time></trkpt><trkpt lat="37.8419296711488" lon="-25.783772860136537"><ele>558.7142857142857</ele><time>2026-04-29T15:25:59Z</time></trkpt><trkpt lat="37.84197754106244" lon="-25.783716496278508"><ele>560.2857142857142</ele><time>2026-04-29T15:26:04Z</time></trkpt><trkpt lat="37.84197630663278" lon="-25.783620256796407"><ele>561.8571428571429</ele><time>2026-04-29T15:26:10Z</time></trkpt><trkpt lat="37.841927411134115" lon="-25.7835449869134"><ele>563.4285714285713</ele><time>2026-04-29T15:26:14Z</time></trkpt><trkpt lat="37.84190080907235" lon="-25.78347120301061"><ele>565.0</ele><time>2026-04-29T15:26:18Z</time></trkpt><trkpt lat="37.84193193259704" lon="-25.78337904361056"><ele>564.9999999999999</ele><time>2026-04-29T15:26:24Z</time></trkpt><trkpt lat="37.841988525545254" lon="-25.78334016181615"><ele>565.0</ele><time>2026-04-29T15:26:29Z</time></trkpt><trkpt lat="37.84204935592578" lon="-25.783300558750867"><ele>565.0</ele><time>2026-04-29T15:26:34Z</time></trkpt><trkpt lat="37.84211478892679" lon="-25.783315502964687"><ele>565.0</ele><time>2026-04-29T15:26:38Z</time></trkpt><trkpt lat="37.84217778260923" lon="-25.78328499420204"><ele>565.0</ele><time>2026-04-29T15:26:42Z</time></trkpt><trkpt lat="37.84224512041812" lon="-25.783284198574673"><ele>564.9999999999999</ele><time>2026-04-29T15:26:47Z</time></trkpt><trkpt lat="37.842295048373984" lon="-25.783334880837195"><ele>565.0</ele><time>2026-04-29T15:27:22.999Z</time></trkpt><trkpt lat="37.842358371348844" lon="-25.783360975181004"><ele>564.9999999999999</ele><time>2026-04-29T15:27:27.999Z</time></trkpt><trkpt lat="37.84242690780942" lon="-25.783388089260754"><ele>565.0</ele><time>2026-04-29T15:27:33.999Z</time></trkpt><trkpt lat="37.8425018928381" lon="-25.78340522690944"><ele>565.0</ele><time>2026-04-29T15:27:38.999Z</time></trkpt><trkpt lat="37.84256773434627" lon="-25.78338453726604"><ele>565.0</ele><time>2026-04-29T15:27:45.999Z</time></trkpt><trkpt lat="37.8426351522398" lon="-25.783375419388268"><ele>565.0</ele><time>2026-04-29T15:27:50.999Z</time></trkpt><trkpt lat="37.84270519131606" lon="-25.783364218490444"><ele>564.9999999999999</ele><time>2026-04-29T15:27:57Z</time></trkpt><trkpt lat="37.8427656890713" lon="-25.78333347973717"><ele>565.0</ele><time>2026-04-29T15:28:01Z</time></trkpt><trkpt lat="37.84282819380452" lon="-25.783319530245624"><ele>564.9999999999999</ele><time>2026-04-29T15:28:05Z</time></trkpt><trkpt lat="37.84289749801097" lon="-25.78327555055989"><ele>565.0</ele><time>2026-04-29T15:28:10Z</time></trkpt><trkpt lat="37.842952955685796" lon="-25.783233283999024"><ele>565.0</ele><time>2026-04-29T15:28:14Z</time></trkpt><trkpt lat="37.84301959317853" lon="-25.783220328745724"><ele>565.0</ele><time>2026-04-29T15:28:19Z</time></trkpt><trkpt lat="37.843079042682426" lon="-25.78324914751757"><ele>565.0</ele><time>2026-04-29T15:28:24Z</time></trkpt><trkpt lat="37.84313665258501" lon="-25.7831983778562"><ele>564.9999999999999</ele><time>2026-04-29T15:28:30Z</time></trkpt><trkpt lat="37.843203698945125" lon="-25.78315800632572"><ele>565.0</ele><time>2026-04-29T15:28:36Z</time></trkpt><trkpt lat="37.84327423768261" lon="-25.783151709656934"><ele>564.9999999999999</ele><time>2026-04-29T15:28:41Z</time></trkpt><trkpt lat="37.843330222708744" lon="-25.783087677265662"><ele>565.0</ele><time>2026-04-29T15:28:46Z</time></trkpt><trkpt lat="37.84339238785606" lon="-25.78306873897007"><ele>565.0</ele><time>2026-04-29T15:28:51Z</time></trkpt><trkpt lat="37.84345430379827" lon="-25.78305296686791"><ele>565.0</ele><time>2026-04-29T15:28:58Z</time></trkpt><trkpt lat="37.84352165513313" lon="-25.78301083018024"><ele>565.0</ele><time>2026-04-29T15:29:23.999Z</time></trkpt><trkpt lat="37.843593461964595" lon="-25.78297318209704"><ele>564.9999999999999</ele><time>2026-04-29T15:29:28.999Z</time></trkpt><trkpt lat="37.843648920381376" lon="-25.782918024315844"><ele>565.0</ele><time>2026-04-29T15:29:39.999Z</time></trkpt><trkpt lat="37.843707282851504" lon="-25.782878746868587"><ele>566.2857142857142</ele><time>2026-04-29T15:29:44.999Z</time></trkpt><trkpt lat="37.84377061574525" lon="-25.78283898644607"><ele>567.5714285714286</ele><time>2026-04-29T15:29:49.999Z</time></trkpt><trkpt lat="37.8438298357469" lon="-25.782804266339028"><ele>568.8571428571429</ele><time>2026-04-29T15:29:53.999Z</time></trkpt><trkpt lat="37.843900697355544" lon="-25.782769036189645"><ele>570.1428571428571</ele><time>2026-04-29T15:29:58.999Z</time></trkpt><trkpt lat="37.84397401796464" lon="-25.78274510136124"><ele>571.4285714285714</ele><time>2026-04-29T15:30:04Z</time></trkpt><trkpt lat="37.844037819429" lon="-25.78270167065215"><ele>572.7142857142857</ele><time>2026-04-29T15:30:09Z</time></trkpt><trkpt lat="37.84410821345983" lon="-25.78266598147881"><ele>574.0</ele><time>2026-04-29T15:30:14Z</time></trkpt><trkpt lat="37.84416393805255" lon="-25.78261165868097"><ele>574.0</ele><time>2026-04-29T15:30:19Z</time></trkpt><trkpt lat="37.84422715047906" lon="-25.782579380562897"><ele>574.0</ele><time>2026-04-29T15:30:24Z</time></trkpt><trkpt lat="37.844281732765694" lon="-25.782528109062714"><ele>574.0</ele><time>2026-04-29T15:30:29Z</time></trkpt><trkpt lat="37.84432980895208" lon="-25.782467854729845"><ele>574.0</ele><time>2026-04-29T15:30:34Z</time></trkpt><trkpt lat="37.84439290000386" lon="-25.782441577843425"><ele>574.0</ele><time>2026-04-29T15:30:39Z</time></trkpt><trkpt lat="37.84444669096344" lon="-25.782387577338415"><ele>574.0</ele><time>2026-04-29T15:30:44Z</time></trkpt><trkpt lat="37.844511464920735" lon="-25.782351241407774"><ele>574.0</ele><time>2026-04-29T15:30:50Z</time></trkpt><trkpt lat="37.844583283164035" lon="-25.782317927488332"><ele>568.2857142857143</ele><time>2026-04-29T15:30:56Z</time></trkpt><trkpt lat="37.84463618423945" lon="-25.782271544838242"><ele>562.5714285714286</ele><time>2026-04-29T15:31:01Z</time></trkpt><trkpt lat="37.84470096376646" lon="-25.782273139859125"><ele>556.8571428571429</ele><time>2026-04-29T15:31:06Z</time></trkpt><trkpt lat="37.84476258669525" lon="-25.782247163997113"><ele>551.1428571428571</ele><time>2026-04-29T15:31:10.999Z</time></trkpt><trkpt lat="37.844778863043075" lon="-25.782161530791903"><ele>545.4285714285714</ele><time>2026-04-29T15:31:37.999Z</time></trkpt><trkpt lat="37.84483782843979" lon="-25.782110467921395"><ele>539.7142857142858</ele><time>2026-04-29T15:31:43.999Z</time></trkpt><trkpt lat="37.84488900685165" lon="-25.782061895512285"><ele>534.0</ele><time>2026-04-29T15:31:48.999Z</time></trkpt><trkpt lat="37.84494512562368" lon="-25.78202146730842"><ele>534.0000000000001</ele><time>2026-04-29T15:31:53.999Z</time></trkpt><trkpt lat="37.84501149809444" lon="-25.782006486936325"><ele>534.0</ele><time>2026-04-29T15:31:58.999Z</time></trkpt><trkpt lat="37.84507337937411" lon="-25.781975181056175"><ele>534.0</ele><time>2026-04-29T15:32:03.999Z</time></trkpt><trkpt lat="37.845133344494606" lon="-25.78193991688539"><ele>534.0</ele><time>2026-04-29T15:32:09Z</time></trkpt><trkpt lat="37.84518306992113" lon="-25.781876124802036"><ele>534.0</ele><time>2026-04-29T15:32:15Z</time></trkpt><trkpt lat="37.84519461839753" lon="-25.78179696084709"><ele>534.0000000000001</ele><time>2026-04-29T15:32:20Z</time></trkpt><trkpt lat="37.8452049227077" lon="-25.781705955425124"><ele>534.0</ele><time>2026-04-29T15:32:27Z</time></trkpt><trkpt lat="37.84519239288147" lon="-25.78162362957332"><ele>530.2857142857143</ele><time>2026-04-29T15:32:33Z</time></trkpt><trkpt lat="37.845216708060796" lon="-25.781538474515276"><ele>526.5714285714286</ele><time>2026-04-29T15:32:38Z</time></trkpt><trkpt lat="37.84528333224162" lon="-25.781499564183736"><ele>522.8571428571429</ele><time>2026-04-29T15:32:45Z</time></trkpt><trkpt lat="37.8453490737657" lon="-25.781466718447433"><ele>519.1428571428571</ele><time>2026-04-29T15:32:50Z</time></trkpt><trkpt lat="37.84541921995229" lon="-25.78143993444211"><ele>515.4285714285714</ele><time>2026-04-29T15:32:55Z</time></trkpt><trkpt lat="37.84545793224997" lon="-25.781375441671894"><ele>511.7142857142857</ele><time>2026-04-29T15:33:00Z</time></trkpt><trkpt lat="37.84552260055603" lon="-25.781337754666662"><ele>508.0</ele><time>2026-04-29T15:33:05Z</time></trkpt><trkpt lat="37.84558224926248" lon="-25.78128823742556"><ele>508.0</ele><time>2026-04-29T15:33:10.999Z</time></trkpt><trkpt lat="37.84564029612646" lon="-25.781238816669738"><ele>508.0</ele><time>2026-04-29T15:34:12Z</time></trkpt><trkpt lat="37.84567469249592" lon="-25.781171745299194"><ele>508.0</ele><time>2026-04-29T15:34:17Z</time></trkpt><trkpt lat="37.845714251264354" lon="-25.781088133124268"><ele>508.0</ele><time>2026-04-29T15:34:23Z</time></trkpt><trkpt lat="37.84572174483811" lon="-25.781000387597228"><ele>508.0</ele><time>2026-04-29T15:34:29Z</time></trkpt><trkpt lat="37.845733938491556" lon="-25.780899661189622"><ele>508.0</ele><time>2026-04-29T15:34:35Z</time></trkpt><trkpt lat="37.84576324905345" lon="-25.78082283357987"><ele>508.0</ele><time>2026-04-29T15:34:41Z</time></trkpt><trkpt lat="37.845828818189396" lon="-25.780790758744864"><ele>506.42857142857144</ele><time>2026-04-29T15:34:47Z</time></trkpt><trkpt lat="37.845899156439074" lon="-25.78077001273362"><ele>504.85714285714283</ele><time>2026-04-29T15:34:53Z</time></trkpt><trkpt lat="37.845960624520096" lon="-25.78074531271886"><ele>503.2857142857143</ele><time>2026-04-29T15:34:58Z</time></trkpt><trkpt lat="37.8460099583875" lon="-25.780692308135443"><ele>501.7142857142857</ele><time>2026-04-29T15:35:03Z</time></trkpt><trkpt lat="37.84605590513874" lon="-25.780637191640825"><ele>500.1428571428571</ele><time>2026-04-29T15:35:09Z</time></trkpt><trkpt lat="37.84605433041244" lon="-25.78055293688511"><ele>498.57142857142856</ele><time>2026-04-29T15:35:14Z</time></trkpt><trkpt lat="37.84612217665644" lon="-25.78051705037573"><ele>497.0</ele><time>2026-04-29T15:35:21.999Z</time></trkpt><trkpt lat="37.84619049025019" lon="-25.780526707333504"><ele>497.0</ele><time>2026-04-29T15:35:25.999Z</time></trkpt><trkpt lat="37.8462615264631" lon="-25.780538056773707"><ele>497.0</ele><time>2026-04-29T15:35:30.999Z</time></trkpt><trkpt lat="37.8463356042805" lon="-25.780557793987626"><ele>497.0</ele><time>2026-04-29T15:35:36.999Z</time></trkpt><trkpt lat="37.84640299779877" lon="-25.780600399251494"><ele>497.0</ele><time>2026-04-29T15:35:41.999Z</time></trkpt><trkpt lat="37.8464692717566" lon="-25.780613834219576"><ele>497.0</ele><time>2026-04-29T15:35:46.999Z</time></trkpt><trkpt lat="37.8465268926499" lon="-25.780670999780565"><ele>497.0</ele><time>2026-04-29T15:35:52.999Z</time></trkpt><trkpt lat="37.84646170509103" lon="-25.78065349463351"><ele>497.0</ele><time>2026-04-29T15:35:59.999Z</time></trkpt><trkpt lat="37.84649442574371" lon="-25.780580604547538"><ele>497.0</ele><time>2026-04-29T15:36:09.999Z</time></trkpt><trkpt lat="37.846553234588484" lon="-25.780535337325716"><ele>497.0</ele><time>2026-04-29T15:36:14.999Z</time></trkpt><trkpt lat="37.84659078571156" lon="-25.780463082046165"><ele>497.0</ele><time>2026-04-29T15:36:22Z</time></trkpt><trkpt lat="37.846659298928046" lon="-25.780431576615648"><ele>497.0</ele><time>2026-04-29T15:36:29Z</time></trkpt><trkpt lat="37.84672932677737" lon="-25.780425011915504"><ele>497.0</ele><time>2026-04-29T15:36:35Z</time></trkpt><trkpt lat="37.846778963503624" lon="-25.780362224040612"><ele>497.0</ele><time>2026-04-29T15:36:40Z</time></trkpt><trkpt lat="37.84682938249338" lon="-25.780311307985503"><ele>497.0</ele><time>2026-04-29T15:36:45Z</time></trkpt><trkpt lat="37.84689506001435" lon="-25.780291947283906"><ele>496.57142857142856</ele><time>2026-04-29T15:36:50Z</time></trkpt><trkpt lat="37.84694359756684" lon="-25.78023638088352"><ele>496.1428571428571</ele><time>2026-04-29T15:36:55Z</time></trkpt><trkpt lat="37.84700670188223" lon="-25.780217435830146"><ele>495.7142857142857</ele><time>2026-04-29T15:37:00Z</time></trkpt><trkpt lat="37.847067234013444" lon="-25.780185160924628"><ele>495.2857142857143</ele><time>2026-04-29T15:37:06Z</time></trkpt><trkpt lat="37.84713290969948" lon="-25.78017664120926"><ele>494.85714285714283</ele><time>2026-04-29T15:37:12Z</time></trkpt><trkpt lat="37.847177872446956" lon="-25.780117544117115"><ele>494.42857142857144</ele><time>2026-04-29T15:37:17Z</time></trkpt><trkpt lat="37.84718533634113" lon="-25.780025141450977"><ele>494.0</ele><time>2026-04-29T15:37:22Z</time></trkpt><trkpt lat="37.847220275792985" lon="-25.779958669823262"><ele>494.0</ele><time>2026-04-29T15:37:28.999Z</time></trkpt><trkpt lat="37.84726181422839" lon="-25.77987675234574"><ele>494.0</ele><time>2026-04-29T15:37:34.999Z</time></trkpt><trkpt lat="37.847328041280925" lon="-25.779840874033813"><ele>494.0</ele><time>2026-04-29T15:37:41.999Z</time></trkpt><trkpt lat="37.847392974515245" lon="-25.779815663094922"><ele>494.0</ele><time>2026-04-29T15:37:48.999Z</time></trkpt><trkpt lat="37.84730276662493" lon="-25.77983387524763"><ele>494.0</ele><time>2026-04-29T15:38:00.999Z</time></trkpt><trkpt lat="37.84734977796354" lon="-25.779776044734678"><ele>494.0</ele><time>2026-04-29T15:38:06.999Z</time></trkpt><trkpt lat="37.847373321216864" lon="-25.77969724813868"><ele>494.0</ele><time>2026-04-29T15:38:13.999Z</time></trkpt><trkpt lat="37.84740198966936" lon="-25.779618574570517"><ele>494.0</ele><time>2026-04-29T15:38:20.999Z</time></trkpt><trkpt lat="37.847457663255206" lon="-25.779571782679888"><ele>494.0</ele><time>2026-04-29T15:38:27Z</time></trkpt><trkpt lat="37.847533575314344" lon="-25.779527148233086"><ele>494.0</ele><time>2026-04-29T15:38:33Z</time></trkpt><trkpt lat="37.84760309550248" lon="-25.779549429401143"><ele>494.0</ele><time>2026-04-29T15:38:39Z</time></trkpt><trkpt lat="37.84766443450367" lon="-25.77951662640571"><ele>494.0</ele><time>2026-04-29T15:38:47Z</time></trkpt><trkpt lat="37.847726106623206" lon="-25.77947218532368"><ele>494.0</ele><time>2026-04-29T15:38:54Z</time></trkpt><trkpt lat="37.84778812097598" lon="-25.779432634118304"><ele>494.0</ele><time>2026-04-29T15:38:59Z</time></trkpt><trkpt lat="37.8478520475183" lon="-25.7794069172073"><ele>493.0</ele><time>2026-04-29T15:39:04Z</time></trkpt><trkpt lat="37.84790348510649" lon="-25.779358908963847"><ele>492.0</ele><time>2026-04-29T15:39:17Z</time></trkpt><trkpt lat="37.84796872961974" lon="-25.77933382954417"><ele>491.0</ele><time>2026-04-29T15:39:22Z</time></trkpt><trkpt lat="37.848037008771286" lon="-25.779343261120093"><ele>490.0</ele><time>2026-04-29T15:39:27Z</time></trkpt><trkpt lat="37.84809405821545" lon="-25.779292990508985"><ele>489.0</ele><time>2026-04-29T15:39:33Z</time></trkpt><trkpt lat="37.84816417758742" lon="-25.779277774125713"><ele>488.0</ele><time>2026-04-29T15:39:39.999Z</time></trkpt><trkpt lat="37.84822935152183" lon="-25.77924666048914"><ele>487.0</ele><time>2026-04-29T15:39:50.999Z</time></trkpt><trkpt lat="37.848278128345164" lon="-25.779195002323018"><ele>487.0</ele><time>2026-04-29T15:39:59.999Z</time></trkpt><trkpt lat="37.84834460451746" lon="-25.779165454213178"><ele>487.0</ele><time>2026-04-29T15:40:15.999Z</time></trkpt><trkpt lat="37.848402125072084" lon="-25.779118597066674"><ele>487.0</ele><time>2026-04-29T15:40:25.999Z</time></trkpt><trkpt lat="37.84846414811686" lon="-25.779085570164227"><ele>487.0</ele><time>2026-04-29T15:40:32Z</time></trkpt><trkpt lat="37.8485223852098" lon="-25.7790407627396"><ele>487.0</ele><time>2026-04-29T15:40:36Z</time></trkpt><trkpt lat="37.84859348493195" lon="-25.77902800099845"><ele>487.0</ele><time>2026-04-29T15:40:40Z</time></trkpt><trkpt lat="37.848651687087994" lon="-25.77898798645109"><ele>487.0</ele><time>2026-04-29T15:40:46Z</time></trkpt><trkpt lat="37.84871584416265" lon="-25.778941746044953"><ele>483.28571428571433</ele><time>2026-04-29T15:40:51Z</time></trkpt><trkpt lat="37.848778741279624" lon="-25.778927541835277"><ele>479.57142857142856</ele><time>2026-04-29T15:40:56Z</time></trkpt><trkpt lat="37.84883517959077" lon="-25.77888505256205"><ele>475.8571428571429</ele><time>2026-04-29T15:41:01Z</time></trkpt><trkpt lat="37.84889963275064" lon="-25.77884516880005"><ele>472.14285714285717</ele><time>2026-04-29T15:41:06Z</time></trkpt><trkpt lat="37.84896789962411" lon="-25.778830140941714"><ele>468.42857142857144</ele><time>2026-04-29T15:41:12Z</time></trkpt><trkpt lat="37.849018996673905" lon="-25.77877728728052"><ele>464.7142857142857</ele><time>2026-04-29T15:41:19Z</time></trkpt><trkpt lat="37.84908421252302" lon="-25.77873575166594"><ele>461.0</ele><time>2026-04-29T15:41:25Z</time></trkpt><trkpt lat="37.84913135596013" lon="-25.778672234719583"><ele>461.0</ele><time>2026-04-29T15:41:30Z</time></trkpt><trkpt lat="37.849193002372886" lon="-25.778654091221973"><ele>461.00000000000006</ele><time>2026-04-29T15:41:35Z</time></trkpt><trkpt lat="37.84925032742232" lon="-25.778617981683666"><ele>461.0</ele><time>2026-04-29T15:41:40Z</time></trkpt><trkpt lat="37.849312478145315" lon="-25.778573329232014"><ele>461.0</ele><time>2026-04-29T15:41:45.999Z</time></trkpt><trkpt lat="37.849365762927306" lon="-25.778526446652346"><ele>461.00000000000006</ele><time>2026-04-29T15:41:50.999Z</time></trkpt><trkpt lat="37.84943548556581" lon="-25.778511535895614"><ele>461.0</ele><time>2026-04-29T15:41:55.999Z</time></trkpt><trkpt lat="37.84950032083826" lon="-25.778477009852168"><ele>461.0</ele><time>2026-04-29T15:42:01.999Z</time></trkpt><trkpt lat="37.84957110845235" lon="-25.778467310538215"><ele>461.5714285714286</ele><time>2026-04-29T15:42:07.999Z</time></trkpt><trkpt lat="37.84963750614148" lon="-25.778438461432422"><ele>462.1428571428572</ele><time>2026-04-29T15:42:12.999Z</time></trkpt><trkpt lat="37.84970457387261" lon="-25.778430058771225"><ele>462.7142857142857</ele><time>2026-04-29T15:42:18.999Z</time></trkpt><trkpt lat="37.849765100191895" lon="-25.77839028632623"><ele>463.28571428571433</ele><time>2026-04-29T15:42:34.999Z</time></trkpt><trkpt lat="37.849830838047815" lon="-25.778350228018077"><ele>463.8571428571429</ele><time>2026-04-29T15:42:51Z</time></trkpt><trkpt lat="37.84989249891413" lon="-25.778394202388665"><ele>464.42857142857144</ele><time>2026-04-29T15:42:56Z</time></trkpt><trkpt lat="37.849938555738625" lon="-25.778334453057678"><ele>465.0</ele><time>2026-04-29T15:43:08Z</time></trkpt><trkpt lat="37.84990008560062" lon="-25.7784048202122"><ele>465.0</ele><time>2026-04-29T15:43:20Z</time></trkpt><trkpt lat="37.84996827758112" lon="-25.778463788481336"><ele>465.0</ele><time>2026-04-29T15:43:28Z</time></trkpt><trkpt lat="37.85003097995769" lon="-25.778455753260623"><ele>465.0</ele><time>2026-04-29T15:43:33Z</time></trkpt><trkpt lat="37.85009102800373" lon="-25.77843007773344"><ele>465.0</ele><time>2026-04-29T15:43:38Z</time></trkpt><trkpt lat="37.85015111127687" lon="-25.778390055272833"><ele>465.0</ele><time>2026-04-29T15:43:43Z</time></trkpt><trkpt lat="37.85020440395865" lon="-25.77833585505303"><ele>465.0</ele><time>2026-04-29T15:43:47.999Z</time></trkpt><trkpt lat="37.850251096932546" lon="-25.778271430048918"><ele>465.0</ele><time>2026-04-29T15:43:53.999Z</time></trkpt><trkpt lat="37.8503089306566" lon="-25.778237947088833"><ele>463.85714285714283</ele><time>2026-04-29T15:43:59.999Z</time></trkpt><trkpt lat="37.85037074089697" lon="-25.7781858856937"><ele>462.7142857142858</ele><time>2026-04-29T15:44:16.999Z</time></trkpt><trkpt lat="37.8504393415735" lon="-25.77814806182803"><ele>461.5714285714286</ele><time>2026-04-29T15:44:22.999Z</time></trkpt><trkpt lat="37.85050558317805" lon="-25.77811507085261"><ele>460.42857142857144</ele><time>2026-04-29T15:44:29.999Z</time></trkpt><trkpt lat="37.85057279580909" lon="-25.778091797180583"><ele>459.28571428571433</ele><time>2026-04-29T15:44:34.999Z</time></trkpt><trkpt lat="37.850643461343395" lon="-25.778070316354555"><ele>458.1428571428572</ele><time>2026-04-29T15:44:39.999Z</time></trkpt><trkpt lat="37.850719313787984" lon="-25.778064822010524"><ele>457.00000000000006</ele><time>2026-04-29T15:44:44.999Z</time></trkpt><trkpt lat="37.850786488110366" lon="-25.77804877375348"><ele>457.00000000000006</ele><time>2026-04-29T15:44:49.999Z</time></trkpt><trkpt lat="37.85084883459054" lon="-25.778029052528705"><ele>457.0</ele><time>2026-04-29T15:44:54.999Z</time></trkpt><trkpt lat="37.85092269376815" lon="-25.778016957978444"><ele>457.00000000000006</ele><time>2026-04-29T15:45:00Z</time></trkpt><trkpt lat="37.85099255994369" lon="-25.778026438232622"><ele>457.00000000000006</ele><time>2026-04-29T15:45:05Z</time></trkpt><trkpt lat="37.85106023066631" lon="-25.77800450451563"><ele>457.0</ele><time>2026-04-29T15:45:10Z</time></trkpt><trkpt lat="37.85113123975763" lon="-25.778046635585905"><ele>457.00000000000006</ele><time>2026-04-29T15:45:15Z</time></trkpt><trkpt lat="37.851195206575234" lon="-25.778018414829425"><ele>457.00000000000006</ele><time>2026-04-29T15:45:28.999Z</time></trkpt><trkpt lat="37.85125485995429" lon="-25.777980999642796"><ele>455.7142857142858</ele><time>2026-04-29T15:45:36.999Z</time></trkpt><trkpt lat="37.85132700975228" lon="-25.77799338926853"><ele>454.42857142857144</ele><time>2026-04-29T15:45:40.999Z</time></trkpt><trkpt lat="37.851402677176225" lon="-25.777981476940013"><ele>453.14285714285717</ele><time>2026-04-29T15:50:09.999Z</time></trkpt><trkpt lat="37.851466924671776" lon="-25.777969098449358"><ele>451.8571428571429</ele><time>2026-04-29T15:50:20.999Z</time></trkpt><trkpt lat="37.85152972362525" lon="-25.777959772672137"><ele>450.57142857142856</ele><time>2026-04-29T15:50:26.999Z</time></trkpt><trkpt lat="37.851594328348206" lon="-25.7779496767732"><ele>449.2857142857143</ele><time>2026-04-29T15:50:32.999Z</time></trkpt><trkpt lat="37.85166680080779" lon="-25.77794726888387"><ele>448.0</ele><time>2026-04-29T15:50:39.999Z</time></trkpt><trkpt lat="37.851733992742496" lon="-25.777933199231363"><ele>445.85714285714283</ele><time>2026-04-29T15:50:45.999Z</time></trkpt><trkpt lat="37.851797807784735" lon="-25.77793453967938"><ele>443.7142857142857</ele><time>2026-04-29T15:50:51.999Z</time></trkpt><trkpt lat="37.85186117516895" lon="-25.77793449256771"><ele>441.57142857142856</ele><time>2026-04-29T15:50:57.999Z</time></trkpt><trkpt lat="37.85191796408543" lon="-25.777899120266586"><ele>439.42857142857144</ele><time>2026-04-29T15:51:03.996Z</time></trkpt><trkpt lat="37.85198657092765" lon="-25.777891868902646"><ele>437.2857142857143</ele><time>2026-04-29T15:51:09.996Z</time></trkpt><trkpt lat="37.8520534560476" lon="-25.77788519509547"><ele>435.1428571428571</ele><time>2026-04-29T15:51:15.997Z</time></trkpt><trkpt lat="37.852124107022476" lon="-25.777884786159113"><ele>433.0</ele><time>2026-04-29T15:51:20.998Z</time></trkpt><trkpt lat="37.8521956018478" lon="-25.777871076789566"><ele>432.99999999999994</ele><time>2026-04-29T15:51:25.998Z</time></trkpt><trkpt lat="37.85225388146584" lon="-25.777837476838215"><ele>433.0</ele><time>2026-04-29T15:51:30.998Z</time></trkpt><trkpt lat="37.85231538548929" lon="-25.777807648142097"><ele>433.0</ele><time>2026-04-29T15:51:35.998Z</time></trkpt><trkpt lat="37.85238542556042" lon="-25.777807682149486"><ele>433.0</ele><time>2026-04-29T15:51:41.999Z</time></trkpt><trkpt lat="37.85244888243578" lon="-25.777797859815298"><ele>433.0</ele><time>2026-04-29T15:51:49.999Z</time></trkpt><trkpt lat="37.85251324208984" lon="-25.777776441918196"><ele>432.99999999999994</ele><time>2026-04-29T15:51:56.999Z</time></trkpt><trkpt lat="37.852572664866656" lon="-25.777805255181594"><ele>433.0</ele><time>2026-04-29T15:52:00.999Z</time></trkpt><trkpt lat="37.852636708710925" lon="-25.777785594436967"><ele>435.2857142857142</ele><time>2026-04-29T15:52:06.999Z</time></trkpt><trkpt lat="37.85269606853804" lon="-25.77774767704283"><ele>437.57142857142856</ele><time>2026-04-29T15:52:12.999Z</time></trkpt><trkpt lat="37.852755645409104" lon="-25.777717107762587"><ele>439.85714285714283</ele><time>2026-04-29T15:52:17Z</time></trkpt><trkpt lat="37.852823376587985" lon="-25.777685677055477"><ele>442.1428571428571</ele><time>2026-04-29T15:52:22Z</time></trkpt><trkpt lat="37.8528794386439" lon="-25.77764075485183"><ele>444.4285714285714</ele><time>2026-04-29T15:52:26Z</time></trkpt><trkpt lat="37.8529438635989" lon="-25.777674086101996"><ele>446.71428571428567</ele><time>2026-04-29T15:52:31Z</time></trkpt><trkpt lat="37.852959538931124" lon="-25.777582526000884"><ele>449.0</ele><time>2026-04-29T15:52:48Z</time></trkpt><trkpt lat="37.853019679703465" lon="-25.77753816502651"><ele>449.0</ele><time>2026-04-29T15:52:53Z</time></trkpt><trkpt lat="37.853082045345445" lon="-25.777511306753013"><ele>448.99999999999994</ele><time>2026-04-29T15:52:59Z</time></trkpt><trkpt lat="37.853160145848825" lon="-25.77752250897079"><ele>449.0</ele><time>2026-04-29T15:53:04Z</time></trkpt><trkpt lat="37.85321406162454" lon="-25.777564073901686"><ele>449.0</ele><time>2026-04-29T15:53:07.999Z</time></trkpt><trkpt lat="37.85327300303562" lon="-25.777615147411936"><ele>448.99999999999994</ele><time>2026-04-29T15:53:12.999Z</time></trkpt><trkpt lat="37.85328433002411" lon="-25.77770807839293"><ele>449.0</ele><time>2026-04-29T15:53:17.999Z</time></trkpt><trkpt lat="37.85329088912379" lon="-25.777795478599877"><ele>449.0</ele><time>2026-04-29T15:53:22.999Z</time></trkpt><trkpt lat="37.853249411738496" lon="-25.777860421352067"><ele>443.85714285714283</ele><time>2026-04-29T15:53:27Z</time></trkpt><trkpt lat="37.85319638956881" lon="-25.77790979973594"><ele>438.71428571428567</ele><time>2026-04-29T15:53:31Z</time></trkpt><trkpt lat="37.8531347701275" lon="-25.777930459416275"><ele>433.57142857142856</ele><time>2026-04-29T15:53:35Z</time></trkpt><trkpt lat="37.85306896228236" lon="-25.7779588958597"><ele>428.42857142857144</ele><time>2026-04-29T15:53:40Z</time></trkpt><trkpt lat="37.85300918197558" lon="-25.77801464607734"><ele>423.2857142857143</ele><time>2026-04-29T15:53:46Z</time></trkpt><trkpt lat="37.85294293626184" lon="-25.778044408708173"><ele>418.1428571428571</ele><time>2026-04-29T15:53:51Z</time></trkpt><trkpt lat="37.85287953292255" lon="-25.778069974223865"><ele>413.0</ele><time>2026-04-29T15:53:56Z</time></trkpt><trkpt lat="37.85280758199714" lon="-25.778094426080315"><ele>413.0</ele><time>2026-04-29T15:54:01.001Z</time></trkpt><trkpt lat="37.85274694255995" lon="-25.77813159882581"><ele>413.0</ele><time>2026-04-29T15:54:07.001Z</time></trkpt><trkpt lat="37.8526896839109" lon="-25.7781743031017"><ele>413.0</ele><time>2026-04-29T15:54:13.001Z</time></trkpt><trkpt lat="37.85262976459625" lon="-25.778209555826614"><ele>413.0</ele><time>2026-04-29T15:54:17.001Z</time></trkpt><trkpt lat="37.852572679187006" lon="-25.77824490147931"><ele>413.0</ele><time>2026-04-29T15:54:22.001Z</time></trkpt><trkpt lat="37.85250629847683" lon="-25.778292632365122"><ele>413.0</ele><time>2026-04-29T15:54:28.001Z</time></trkpt><trkpt lat="37.8524412441771" lon="-25.778315331870058"><ele>413.0</ele><time>2026-04-29T15:54:33.001Z</time></trkpt><trkpt lat="37.85237753586643" lon="-25.778363498111737"><ele>411.7142857142857</ele><time>2026-04-29T15:54:38.001Z</time></trkpt><trkpt lat="37.8523193544289" lon="-25.778412236747613"><ele>410.42857142857144</ele><time>2026-04-29T15:54:44.001Z</time></trkpt><trkpt lat="37.852256129738635" lon="-25.778432431654295"><ele>409.1428571428571</ele><time>2026-04-29T15:54:49.002Z</time></trkpt><trkpt lat="37.85219742783753" lon="-25.778474823626578"><ele>407.8571428571429</ele><time>2026-04-29T15:54:54.002Z</time></trkpt><trkpt lat="37.85214080674306" lon="-25.778512474532185"><ele>406.57142857142856</ele><time>2026-04-29T15:54:59.002Z</time></trkpt><trkpt lat="37.85208629974269" lon="-25.778557399164054"><ele>405.2857142857143</ele><time>2026-04-29T15:55:04.002Z</time></trkpt><trkpt lat="37.852027594542584" lon="-25.778611495119026"><ele>404.0</ele><time>2026-04-29T15:55:09.002Z</time></trkpt><trkpt lat="37.85196182442616" lon="-25.778663435824882"><ele>404.0</ele><time>2026-04-29T15:55:15.001Z</time></trkpt><trkpt lat="37.85189673887374" lon="-25.77870823372354"><ele>404.0</ele><time>2026-04-29T15:55:21.001Z</time></trkpt><trkpt lat="37.85182935596024" lon="-25.778739688580572"><ele>404.0</ele><time>2026-04-29T15:55:26.001Z</time></trkpt><trkpt lat="37.85176710633709" lon="-25.778781111768037"><ele>404.0</ele><time>2026-04-29T15:55:31.001Z</time></trkpt><trkpt lat="37.851699905056435" lon="-25.77882203575604"><ele>404.0</ele><time>2026-04-29T15:55:37.001Z</time></trkpt><trkpt lat="37.85163750755572" lon="-25.778864963961343"><ele>404.0</ele><time>2026-04-29T15:55:42.001Z</time></trkpt><trkpt lat="37.851570281258255" lon="-25.778919941879042"><ele>404.0</ele><time>2026-04-29T15:55:48.001Z</time></trkpt><trkpt lat="37.85149472091022" lon="-25.778976432218208"><ele>405.2857142857143</ele><time>2026-04-29T15:55:55.001Z</time></trkpt><trkpt lat="37.85143446067858" lon="-25.779026455146006"><ele>406.57142857142856</ele><time>2026-04-29T15:56:01.001Z</time></trkpt><trkpt lat="37.85136569154316" lon="-25.779068081931573"><ele>407.8571428571429</ele><time>2026-04-29T15:56:06.001Z</time></trkpt><trkpt lat="37.851305142432395" lon="-25.7791098067774"><ele>409.1428571428571</ele><time>2026-04-29T15:56:11.001Z</time></trkpt><trkpt lat="37.85125222904585" lon="-25.779159204980246"><ele>410.42857142857144</ele><time>2026-04-29T15:56:16.001Z</time></trkpt><trkpt lat="37.85119862191151" lon="-25.779226611018792"><ele>411.7142857142857</ele><time>2026-04-29T15:56:22.001Z</time></trkpt><trkpt lat="37.851138690768096" lon="-25.77926294487066"><ele>413.0</ele><time>2026-04-29T15:56:27.002Z</time></trkpt><trkpt lat="37.851083639894306" lon="-25.779340665769368"><ele>411.2857142857143</ele><time>2026-04-29T15:56:32.002Z</time></trkpt><trkpt lat="37.85102184393764" lon="-25.779395019666975"><ele>409.57142857142856</ele><time>2026-04-29T15:56:38.002Z</time></trkpt><trkpt lat="37.850967394580216" lon="-25.779438621252428"><ele>407.8571428571429</ele><time>2026-04-29T15:56:43.002Z</time></trkpt><trkpt lat="37.850915042267836" lon="-25.779493576127887"><ele>406.1428571428571</ele><time>2026-04-29T15:56:48.002Z</time></trkpt><trkpt lat="37.85086376614074" lon="-25.779566239053867"><ele>404.42857142857144</ele><time>2026-04-29T15:56:54.002Z</time></trkpt><trkpt lat="37.850806679002964" lon="-25.779630372326565"><ele>402.7142857142857</ele><time>2026-04-29T15:56:59.002Z</time></trkpt><trkpt lat="37.85074302589134" lon="-25.779687189211536"><ele>401.0</ele><time>2026-04-29T15:57:05.002Z</time></trkpt><trkpt lat="37.85069348362916" lon="-25.779745322570903"><ele>401.0</ele><time>2026-04-29T15:57:10.002Z</time></trkpt><trkpt lat="37.85064305118726" lon="-25.7797950259554"><ele>401.0</ele><time>2026-04-29T15:57:15.002Z</time></trkpt><trkpt lat="37.85057370041836" lon="-25.77985441695246"><ele>401.0</ele><time>2026-04-29T15:57:23.002Z</time></trkpt><trkpt lat="37.85050756280198" lon="-25.779899087176563"><ele>401.0</ele><time>2026-04-29T15:57:28.002Z</time></trkpt><trkpt lat="37.850456262625585" lon="-25.7799593060123"><ele>401.0</ele><time>2026-04-29T15:57:34.001Z</time></trkpt><trkpt lat="37.850413477219995" lon="-25.780019875348568"><ele>401.0</ele><time>2026-04-29T15:57:38.001Z</time></trkpt><trkpt lat="37.85036432167861" lon="-25.78007471484702"><ele>401.0</ele><time>2026-04-29T15:57:44.001Z</time></trkpt><trkpt lat="37.85030336063277" lon="-25.780126485632714"><ele>399.14285714285717</ele><time>2026-04-29T15:57:50.001Z</time></trkpt><trkpt lat="37.85025932572409" lon="-25.78019557520882"><ele>397.28571428571433</ele><time>2026-04-29T15:57:55.001Z</time></trkpt><trkpt lat="37.85020852536259" lon="-25.780249615157665"><ele>395.42857142857144</ele><time>2026-04-29T15:58:00.001Z</time></trkpt><trkpt lat="37.850137394072746" lon="-25.780287583476397"><ele>393.57142857142856</ele><time>2026-04-29T15:58:05.001Z</time></trkpt><trkpt lat="37.850075478655185" lon="-25.780338353192757"><ele>391.7142857142857</ele><time>2026-04-29T15:58:11.001Z</time></trkpt><trkpt lat="37.85001223638432" lon="-25.7803783738508"><ele>389.85714285714283</ele><time>2026-04-29T15:58:17.001Z</time></trkpt><trkpt lat="37.84994540963925" lon="-25.78041884622747"><ele>388.0</ele><time>2026-04-29T15:58:23.001Z</time></trkpt><trkpt lat="37.849888420753224" lon="-25.78045502631701"><ele>388.0</ele><time>2026-04-29T15:58:28.001Z</time></trkpt><trkpt lat="37.84983111498303" lon="-25.7804977593634"><ele>388.0</ele><time>2026-04-29T15:58:33.002Z</time></trkpt><trkpt lat="37.849765590580375" lon="-25.78052573470261"><ele>388.0</ele><time>2026-04-29T15:58:38.002Z</time></trkpt><trkpt lat="37.849707536837634" lon="-25.78056311978561"><ele>388.0</ele><time>2026-04-29T15:58:43.002Z</time></trkpt><trkpt lat="37.849651266843935" lon="-25.780614399648513"><ele>388.0</ele><time>2026-04-29T15:58:49.002Z</time></trkpt><trkpt lat="37.84961204551799" lon="-25.78069442481035"><ele>388.0</ele><time>2026-04-29T15:58:55.002Z</time></trkpt><trkpt lat="37.8495976560541" lon="-25.780785676223545"><ele>388.0</ele><time>2026-04-29T15:59:01.002Z</time></trkpt><trkpt lat="37.84961736241948" lon="-25.780875061623593"><ele>388.0</ele><time>2026-04-29T15:59:06.002Z</time></trkpt><trkpt lat="37.849664124414545" lon="-25.78094243436359"><ele>388.0</ele><time>2026-04-29T15:59:11.002Z</time></trkpt><trkpt lat="37.84972621295787" lon="-25.780969402250264"><ele>388.0</ele><time>2026-04-29T15:59:16.002Z</time></trkpt><trkpt lat="37.849797327687504" lon="-25.780970886640464"><ele>388.0</ele><time>2026-04-29T15:59:21.002Z</time></trkpt><trkpt lat="37.849872672415835" lon="-25.780950632583316"><ele>388.0</ele><time>2026-04-29T15:59:26.001Z</time></trkpt><trkpt lat="37.849930373358006" lon="-25.780916171948366"><ele>388.0</ele><time>2026-04-29T15:59:30.001Z</time></trkpt><trkpt lat="37.84998592540073" lon="-25.78087488758543"><ele>388.0</ele><time>2026-04-29T15:59:35.001Z</time></trkpt><trkpt lat="37.85003068214671" lon="-25.780816294385"><ele>388.0</ele><time>2026-04-29T15:59:40.001Z</time></trkpt><trkpt lat="37.85008923770259" lon="-25.780786053344748"><ele>388.0</ele><time>2026-04-29T15:59:45.001Z</time></trkpt><trkpt lat="37.85015282073447" lon="-25.78074560878958"><ele>388.0</ele><time>2026-04-29T15:59:51.001Z</time></trkpt><trkpt lat="37.85021586364612" lon="-25.78073007423357"><ele>388.0</ele><time>2026-04-29T15:59:59.001Z</time></trkpt><trkpt lat="37.850289412861265" lon="-25.78069879369808"><ele>388.0</ele><time>2026-04-29T16:00:04.001Z</time></trkpt><trkpt lat="37.85036016471447" lon="-25.78069236913152"><ele>388.0</ele><time>2026-04-29T16:00:10.001Z</time></trkpt><trkpt lat="37.85044223638154" lon="-25.780693562174353"><ele>388.0</ele><time>2026-04-29T16:00:16.001Z</time></trkpt><trkpt lat="37.85050312066051" lon="-25.780671193261252"><ele>386.57142857142856</ele><time>2026-04-29T16:00:22.001Z</time></trkpt><trkpt lat="37.850583306661996" lon="-25.78066879586815"><ele>385.14285714285717</ele><time>2026-04-29T16:00:28.001Z</time></trkpt><trkpt lat="37.85065442148003" lon="-25.780675790860773"><ele>383.7142857142857</ele><time>2026-04-29T16:00:33.001Z</time></trkpt><trkpt lat="37.85072517873858" lon="-25.780675873185757"><ele>382.2857142857143</ele><time>2026-04-29T16:00:38.001Z</time></trkpt><trkpt lat="37.850786766677096" lon="-25.780720551389543"><ele>380.8571428571429</ele><time>2026-04-29T16:00:43.001Z</time></trkpt><trkpt lat="37.85085617591889" lon="-25.78073464006768"><ele>379.42857142857144</ele><time>2026-04-29T16:00:48.001Z</time></trkpt><trkpt lat="37.850928958011494" lon="-25.780734253958894"><ele>378.0</ele><time>2026-04-29T16:00:55.001Z</time></trkpt><trkpt lat="37.85098674386179" lon="-25.780771987500156"><ele>376.85714285714283</ele><time>2026-04-29T16:01:00.001Z</time></trkpt><trkpt lat="37.85103649853488" lon="-25.78084084267869"><ele>375.7142857142857</ele><time>2026-04-29T16:01:06.001Z</time></trkpt><trkpt lat="37.85109728866924" lon="-25.780890227909705"><ele>374.57142857142856</ele><time>2026-04-29T16:01:10.001Z</time></trkpt><trkpt lat="37.851144290492186" lon="-25.78095185552594"><ele>373.42857142857144</ele><time>2026-04-29T16:01:14.001Z</time></trkpt><trkpt lat="37.85120165044648" lon="-25.78099681476347"><ele>372.2857142857143</ele><time>2026-04-29T16:01:18.001Z</time></trkpt><trkpt lat="37.85125630585516" lon="-25.78105287843792"><ele>371.1428571428571</ele><time>2026-04-29T16:01:24.001Z</time></trkpt><trkpt lat="37.851309435478576" lon="-25.781097531546685"><ele>370.0</ele><time>2026-04-29T16:01:29.001Z</time></trkpt><trkpt lat="37.851355716593616" lon="-25.781164743870423"><ele>367.16666666666663</ele><time>2026-04-29T16:01:34Z</time></trkpt><trkpt lat="37.851351747559676" lon="-25.78127329252437"><ele>364.3333333333333</ele><time>2026-04-29T16:02:12Z</time></trkpt><trkpt lat="37.851372255914804" lon="-25.781192183308516"><ele>361.5</ele><time>2026-04-29T16:02:37.001Z</time></trkpt><trkpt lat="37.8514680645599" lon="-25.781254320242304"><ele>358.6666666666667</ele><time>2026-04-29T16:04:55Z</time></trkpt><trkpt lat="37.85151038678403" lon="-25.781325112412024"><ele>355.83333333333337</ele><time>2026-04-29T16:05:01Z</time></trkpt><trkpt lat="37.85156975680637" lon="-25.781373748488885"><ele>353.0</ele><time>2026-04-29T16:05:06Z</time></trkpt><trkpt lat="37.851626831892105" lon="-25.78144488155159"><ele>353.0</ele><time>2026-04-29T16:05:13Z</time></trkpt><trkpt lat="37.851674437043826" lon="-25.781516373570145"><ele>353.0</ele><time>2026-04-29T16:05:18.001Z</time></trkpt><trkpt lat="37.85168650111931" lon="-25.78160406969693"><ele>353.0</ele><time>2026-04-29T16:05:23.001Z</time></trkpt><trkpt lat="37.85166174142147" lon="-25.78168717850611"><ele>353.0</ele><time>2026-04-29T16:05:28.001Z</time></trkpt><trkpt lat="37.85162395907573" lon="-25.781751214305924"><ele>353.0</ele><time>2026-04-29T16:05:32.001Z</time></trkpt><trkpt lat="37.851565848808896" lon="-25.7817940493474"><ele>353.0</ele><time>2026-04-29T16:05:37.001Z</time></trkpt><trkpt lat="37.851493328044015" lon="-25.781821479537598"><ele>353.0</ele><time>2026-04-29T16:05:41.998Z</time></trkpt><trkpt lat="37.85143169314599" lon="-25.781803888868662"><ele>353.0</ele><time>2026-04-29T16:05:46.998Z</time></trkpt><trkpt lat="37.85136325111263" lon="-25.78176675865694"><ele>353.0</ele><time>2026-04-29T16:05:51.998Z</time></trkpt><trkpt lat="37.851291708606496" lon="-25.781750328357536"><ele>353.0</ele><time>2026-04-29T16:05:56.999Z</time></trkpt><trkpt lat="37.85121455781691" lon="-25.781748524781"><ele>353.0</ele><time>2026-04-29T16:06:01.999Z</time></trkpt><trkpt lat="37.851144788918475" lon="-25.781748528146704"><ele>353.0</ele><time>2026-04-29T16:06:07.999Z</time></trkpt><trkpt lat="37.85107463491848" lon="-25.78177037044525"><ele>353.0</ele><time>2026-04-29T16:06:12.999Z</time></trkpt><trkpt lat="37.85101028263627" lon="-25.78176084946465"><ele>353.0</ele><time>2026-04-29T16:06:18Z</time></trkpt><trkpt lat="37.85094024911699" lon="-25.78178578363937"><ele>352.0</ele><time>2026-04-29T16:06:23Z</time></trkpt><trkpt lat="37.850899178972135" lon="-25.781848066777076"><ele>351.0</ele><time>2026-04-29T16:06:28Z</time></trkpt><trkpt lat="37.85085342994707" lon="-25.781911535055855"><ele>350.0</ele><time>2026-04-29T16:06:33Z</time></trkpt><trkpt lat="37.85082446770294" lon="-25.781989150804893"><ele>349.0</ele><time>2026-04-29T16:06:39Z</time></trkpt><trkpt lat="37.85082207142709" lon="-25.782073899329024"><ele>348.0</ele><time>2026-04-29T16:06:43Z</time></trkpt><trkpt lat="37.85083313512706" lon="-25.7821582904791"><ele>347.0</ele><time>2026-04-29T16:06:49Z</time></trkpt><trkpt lat="37.85084165312139" lon="-25.78225449500798"><ele>346.0</ele><time>2026-04-29T16:06:54Z</time></trkpt><trkpt lat="37.850872474487" lon="-25.78232788507"><ele>346.0</ele><time>2026-04-29T16:06:59Z</time></trkpt><trkpt lat="37.850911870975175" lon="-25.78239680854938"><ele>346.0</ele><time>2026-04-29T16:07:04.001Z</time></trkpt><trkpt lat="37.85096878713309" lon="-25.78244732193036"><ele>346.0</ele><time>2026-04-29T16:07:09.001Z</time></trkpt><trkpt lat="37.8510504785031" lon="-25.782471955741936"><ele>346.0</ele><time>2026-04-29T16:07:15.001Z</time></trkpt><trkpt lat="37.851130304010915" lon="-25.782476440325954"><ele>346.0</ele><time>2026-04-29T16:07:19.001Z</time></trkpt><trkpt lat="37.85118918319604" lon="-25.7825124879806"><ele>346.0</ele><time>2026-04-29T16:07:26.001Z</time></trkpt><trkpt lat="37.85125436975147" lon="-25.782486099504496"><ele>346.0</ele><time>2026-04-29T16:07:34.001Z</time></trkpt><trkpt lat="37.851329053928005" lon="-25.782526227673504"><ele>345.57142857142856</ele><time>2026-04-29T16:07:39.001Z</time></trkpt><trkpt lat="37.85139159467874" lon="-25.782577280328987"><ele>345.14285714285717</ele><time>2026-04-29T16:07:43.001Z</time></trkpt><trkpt lat="37.85143910331753" lon="-25.78263356632443"><ele>344.7142857142857</ele><time>2026-04-29T16:07:47.001Z</time></trkpt><trkpt lat="37.851503089516655" lon="-25.782698906483915"><ele>344.2857142857143</ele><time>2026-04-29T16:07:52.001Z</time></trkpt><trkpt lat="37.85154527652503" lon="-25.782767567853107"><ele>343.8571428571429</ele><time>2026-04-29T16:07:57.001Z</time></trkpt><trkpt lat="37.851598203345944" lon="-25.782830553009635"><ele>343.42857142857144</ele><time>2026-04-29T16:08:01.001Z</time></trkpt><trkpt lat="37.85165722822731" lon="-25.782868640973806"><ele>343.0</ele><time>2026-04-29T16:08:05.001Z</time></trkpt><trkpt lat="37.85171771727841" lon="-25.782929062877983"><ele>341.7142857142857</ele><time>2026-04-29T16:08:10.001Z</time></trkpt><trkpt lat="37.851751337626126" lon="-25.783003173965408"><ele>340.42857142857144</ele><time>2026-04-29T16:08:16.001Z</time></trkpt><trkpt lat="37.851803172372655" lon="-25.78306535154062"><ele>339.1428571428571</ele><time>2026-04-29T16:08:21.001Z</time></trkpt><trkpt lat="37.85185290028683" lon="-25.783115923849035"><ele>337.8571428571429</ele><time>2026-04-29T16:08:26.001Z</time></trkpt><trkpt lat="37.85191864988512" lon="-25.78315654564035"><ele>336.57142857142856</ele><time>2026-04-29T16:08:32.001Z</time></trkpt><trkpt lat="37.85197678527557" lon="-25.78321658693974"><ele>335.2857142857143</ele><time>2026-04-29T16:08:38.001Z</time></trkpt><trkpt lat="37.85203841493695" lon="-25.783250726031614"><ele>334.0</ele><time>2026-04-29T16:08:43.001Z</time></trkpt><trkpt lat="37.85211061706194" lon="-25.78328228503299"><ele>332.7142857142857</ele><time>2026-04-29T16:08:48.001Z</time></trkpt><trkpt lat="37.852168778361296" lon="-25.78333552783063"><ele>331.42857142857144</ele><time>2026-04-29T16:08:53.001Z</time></trkpt><trkpt lat="37.85223065265062" lon="-25.78335784543767"><ele>330.1428571428571</ele><time>2026-04-29T16:08:58.001Z</time></trkpt><trkpt lat="37.85228506302882" lon="-25.78339848175275"><ele>328.8571428571429</ele><time>2026-04-29T16:09:03.001Z</time></trkpt><trkpt lat="37.85235071391518" lon="-25.783438482151844"><ele>327.5714285714286</ele><time>2026-04-29T16:09:08.001Z</time></trkpt><trkpt lat="37.85242332700798" lon="-25.783454494220074"><ele>326.2857142857143</ele><time>2026-04-29T16:09:15.001Z</time></trkpt><trkpt lat="37.8524892874304" lon="-25.783453885693547"><ele>325.0</ele><time>2026-04-29T16:09:20.002Z</time></trkpt><trkpt lat="37.852556684101884" lon="-25.78343438953916"><ele>325.0</ele><time>2026-04-29T16:09:25.002Z</time></trkpt><trkpt lat="37.852622716527364" lon="-25.78340585636214"><ele>325.0</ele><time>2026-04-29T16:09:30.002Z</time></trkpt><trkpt lat="37.85268974965272" lon="-25.783371741301412"><ele>325.0</ele><time>2026-04-29T16:09:35.002Z</time></trkpt><trkpt lat="37.85275346577066" lon="-25.783350738611734"><ele>325.0</ele><time>2026-04-29T16:09:40.002Z</time></trkpt><trkpt lat="37.85281429178481" lon="-25.78332936171682"><ele>325.0</ele><time>2026-04-29T16:09:45.002Z</time></trkpt><trkpt lat="37.852878006391094" lon="-25.783305361276387"><ele>325.0</ele><time>2026-04-29T16:09:50.002Z</time></trkpt><trkpt lat="37.85294339318098" lon="-25.783319811948267"><ele>325.0</ele><time>2026-04-29T16:09:55.002Z</time></trkpt><trkpt lat="37.85300641099241" lon="-25.78331571172833"><ele>323.0</ele><time>2026-04-29T16:09:59.002Z</time></trkpt><trkpt lat="37.85307149360142" lon="-25.783328998896767"><ele>321.0</ele><time>2026-04-29T16:10:04.002Z</time></trkpt><trkpt lat="37.85312747441569" lon="-25.783369528428302"><ele>319.0</ele><time>2026-04-29T16:10:08.001Z</time></trkpt><trkpt lat="37.853182721509704" lon="-25.783415173448994"><ele>317.0</ele><time>2026-04-29T16:10:13.001Z</time></trkpt><trkpt lat="37.85323976602757" lon="-25.78346950539234"><ele>315.0</ele><time>2026-04-29T16:10:18.001Z</time></trkpt><trkpt lat="37.853287735983535" lon="-25.783532340208264"><ele>313.0</ele><time>2026-04-29T16:10:23.001Z</time></trkpt><trkpt lat="37.85332626419368" lon="-25.78359724555144"><ele>311.0</ele><time>2026-04-29T16:10:28.001Z</time></trkpt><trkpt lat="37.85336100781333" lon="-25.783673074585064"><ele>309.1428571428571</ele><time>2026-04-29T16:10:33.001Z</time></trkpt><trkpt lat="37.85339326933386" lon="-25.783745460285008"><ele>307.28571428571433</ele><time>2026-04-29T16:10:38.001Z</time></trkpt><trkpt lat="37.85342644622381" lon="-25.783819598285298"><ele>305.42857142857144</ele><time>2026-04-29T16:10:43.001Z</time></trkpt><trkpt lat="37.8534672899416" lon="-25.783890113646034"><ele>303.57142857142856</ele><time>2026-04-29T16:10:48.001Z</time></trkpt><trkpt lat="37.85350086102392" lon="-25.78396585772551"><ele>301.71428571428567</ele><time>2026-04-29T16:10:53.001Z</time></trkpt><trkpt lat="37.853544206705365" lon="-25.784042056639095"><ele>299.85714285714283</ele><time>2026-04-29T16:10:59.001Z</time></trkpt><trkpt lat="37.85359250135319" lon="-25.784101737410005"><ele>298.0</ele><time>2026-04-29T16:11:04.001Z</time></trkpt><trkpt lat="37.85364008185189" lon="-25.784161190153263"><ele>298.0</ele><time>2026-04-29T16:11:09.001Z</time></trkpt><trkpt lat="37.85368707350831" lon="-25.78421714169026"><ele>298.0</ele><time>2026-04-29T16:11:14.001Z</time></trkpt><trkpt lat="37.85374852227159" lon="-25.784253655359183"><ele>298.0</ele><time>2026-04-29T16:11:19.002Z</time></trkpt><trkpt lat="37.853812564299425" lon="-25.784280082740718"><ele>298.0</ele><time>2026-04-29T16:11:24.002Z</time></trkpt><trkpt lat="37.85387762532201" lon="-25.784306698910484"><ele>298.0</ele><time>2026-04-29T16:11:29.002Z</time></trkpt><trkpt lat="37.85394209044811" lon="-25.784312778823423"><ele>298.0</ele><time>2026-04-29T16:11:34.002Z</time></trkpt><trkpt lat="37.85401545218721" lon="-25.784310929147708"><ele>298.0</ele><time>2026-04-29T16:11:42.002Z</time></trkpt><trkpt lat="37.854082070586195" lon="-25.784307220612966"><ele>298.0</ele><time>2026-04-29T16:11:47.002Z</time></trkpt><trkpt lat="37.85414948844989" lon="-25.78430512402699"><ele>298.0</ele><time>2026-04-29T16:11:52.002Z</time></trkpt><trkpt lat="37.85422740361876" lon="-25.784296738320844"><ele>298.0</ele><time>2026-04-29T16:11:58.002Z</time></trkpt><trkpt lat="37.854299284861966" lon="-25.78429474407771"><ele>298.0</ele><time>2026-04-29T16:12:03Z</time></trkpt><trkpt lat="37.85437044761329" lon="-25.784287381103177"><ele>298.0</ele><time>2026-04-29T16:12:08Z</time></trkpt><trkpt lat="37.854444101523804" lon="-25.784306045961692"><ele>298.0</ele><time>2026-04-29T16:12:15Z</time></trkpt><trkpt lat="37.85449597254188" lon="-25.784352150495714"><ele>298.0</ele><time>2026-04-29T16:12:20Z</time></trkpt><trkpt lat="37.854525571438884" lon="-25.784431032340805"><ele>294.0</ele><time>2026-04-29T16:12:31Z</time></trkpt><trkpt lat="37.85458545830546" lon="-25.784471023892657"><ele>290.0</ele><time>2026-04-29T16:12:37Z</time></trkpt><trkpt lat="37.85461149887382" lon="-25.78454472223494"><ele>286.0</ele><time>2026-04-29T16:12:43Z</time></trkpt><trkpt lat="37.854618117496685" lon="-25.78463261998056"><ele>282.0</ele><time>2026-04-29T16:12:47Z</time></trkpt><trkpt lat="37.85465343126968" lon="-25.784703937502922"><ele>278.0</ele><time>2026-04-29T16:12:54Z</time></trkpt><trkpt lat="37.854669495837975" lon="-25.784793586915594"><ele>274.0</ele><time>2026-04-29T16:12:59.001Z</time></trkpt><trkpt lat="37.854707421854066" lon="-25.784870372048804"><ele>270.0</ele><time>2026-04-29T16:13:07.001Z</time></trkpt><trkpt lat="37.85473041308862" lon="-25.78495349785631"><ele>270.0</ele><time>2026-04-29T16:13:12.001Z</time></trkpt><trkpt lat="37.854766390303475" lon="-25.785020148200207"><ele>270.0</ele><time>2026-04-29T16:13:17.001Z</time></trkpt><trkpt lat="37.85479245236506" lon="-25.785104367059585"><ele>270.0</ele><time>2026-04-29T16:13:23.001Z</time></trkpt><trkpt lat="37.85482200114457" lon="-25.785190284743507"><ele>270.0</ele><time>2026-04-29T16:13:28.001Z</time></trkpt><trkpt lat="37.85485694082362" lon="-25.785266430226667"><ele>270.0</ele><time>2026-04-29T16:13:33.001Z</time></trkpt><trkpt lat="37.8548952944679" lon="-25.78533657858044"><ele>270.0</ele><time>2026-04-29T16:13:39.001Z</time></trkpt><trkpt lat="37.854888863064794" lon="-25.78542389214379"><ele>270.0</ele><time>2026-04-29T16:13:44.001Z</time></trkpt><trkpt lat="37.854835584097" lon="-25.78549135135604"><ele>268.7142857142857</ele><time>2026-04-29T16:13:49.001Z</time></trkpt><trkpt lat="37.85477539605799" lon="-25.78552624226282"><ele>267.4285714285714</ele><time>2026-04-29T16:13:53.001Z</time></trkpt><trkpt lat="37.8547239224686" lon="-25.785593061441734"><ele>266.1428571428571</ele><time>2026-04-29T16:13:59.001Z</time></trkpt><trkpt lat="37.854754602243574" lon="-25.78566975954038"><ele>264.85714285714283</ele><time>2026-04-29T16:14:05.001Z</time></trkpt><trkpt lat="37.8548059149257" lon="-25.78572823902447"><ele>263.57142857142856</ele><time>2026-04-29T16:14:14.001Z</time></trkpt><trkpt lat="37.85485778719743" lon="-25.785791970752985"><ele>262.2857142857143</ele><time>2026-04-29T16:14:20.001Z</time></trkpt><trkpt lat="37.85492376438898" lon="-25.785836554338754"><ele>261.0</ele><time>2026-04-29T16:14:26.001Z</time></trkpt><trkpt lat="37.85499869342913" lon="-25.785834192995136"><ele>261.0</ele><time>2026-04-29T16:14:33.001Z</time></trkpt><trkpt lat="37.855064423416984" lon="-25.78585410101579"><ele>261.0</ele><time>2026-04-29T16:14:38.001Z</time></trkpt><trkpt lat="37.85510152259073" lon="-25.785930035317772"><ele>261.0</ele><time>2026-04-29T16:15:24.001Z</time></trkpt><trkpt lat="37.855131029998134" lon="-25.786003062650828"><ele>261.0</ele><time>2026-04-29T16:15:32.001Z</time></trkpt><trkpt lat="37.855162808843744" lon="-25.78608137411429"><ele>261.0</ele><time>2026-04-29T16:15:39.001Z</time></trkpt><trkpt lat="37.85518719995808" lon="-25.786166221305447"><ele>261.0</ele><time>2026-04-29T16:15:45.001Z</time></trkpt><trkpt lat="37.855205198902325" lon="-25.786263386030868"><ele>261.0</ele><time>2026-04-29T16:15:53.001Z</time></trkpt><trkpt lat="37.85523708865002" lon="-25.786340456543066"><ele>261.0</ele><time>2026-04-29T16:15:59.001Z</time></trkpt><trkpt lat="37.8552566083526" lon="-25.786416919153382"><ele>261.0</ele><time>2026-04-29T16:16:05.001Z</time></trkpt><trkpt lat="37.855282965225314" lon="-25.78650256953045"><ele>261.0</ele><time>2026-04-29T16:16:11.001Z</time></trkpt><trkpt lat="37.855314862179696" lon="-25.786586961687412"><ele>261.0</ele><time>2026-04-29T16:16:17.001Z</time></trkpt><trkpt lat="37.85534302458058" lon="-25.78666278965266"><ele>261.0</ele><time>2026-04-29T16:16:23.001Z</time></trkpt><trkpt lat="37.855360908620945" lon="-25.78674468688791"><ele>261.0</ele><time>2026-04-29T16:16:29.001Z</time></trkpt><trkpt lat="37.8553694828146" lon="-25.786824762024434"><ele>261.0</ele><time>2026-04-29T16:16:34.001Z</time></trkpt><trkpt lat="37.8553641033631" lon="-25.786911846000127"><ele>262.0</ele><time>2026-04-29T16:16:41.001Z</time></trkpt><trkpt lat="37.85537267144765" lon="-25.786998989716423"><ele>263.0</ele><time>2026-04-29T16:16:47.001Z</time></trkpt><trkpt lat="37.85537265524011" lon="-25.7870928755479"><ele>264.0</ele><time>2026-04-29T16:16:53.001Z</time></trkpt><trkpt lat="37.85537789268954" lon="-25.78718192594227"><ele>265.0</ele><time>2026-04-29T16:16:59.001Z</time></trkpt><trkpt lat="37.85537014769012" lon="-25.787275849932026"><ele>266.0</ele><time>2026-04-29T16:17:04.001Z</time></trkpt><trkpt lat="37.855357767059296" lon="-25.78736106660528"><ele>267.0</ele><time>2026-04-29T16:17:09.001Z</time></trkpt><trkpt lat="37.85534123129584" lon="-25.787450947981014"><ele>268.0</ele><time>2026-04-29T16:17:14.001Z</time></trkpt><trkpt lat="37.85531636456529" lon="-25.787528168701012"><ele>268.0</ele><time>2026-04-29T16:17:19.001Z</time></trkpt><trkpt lat="37.855295127532045" lon="-25.787614539574513"><ele>268.0</ele><time>2026-04-29T16:17:24.001Z</time></trkpt><trkpt lat="37.85524169131114" lon="-25.787660724939155"><ele>268.0</ele><time>2026-04-29T16:17:29.001Z</time></trkpt><trkpt lat="37.85521544811823" lon="-25.78773699971952"><ele>268.0</ele><time>2026-04-29T16:17:34.001Z</time></trkpt><trkpt lat="37.85519210989595" lon="-25.787823259160245"><ele>268.0</ele><time>2026-04-29T16:17:40.001Z</time></trkpt><trkpt lat="37.85516035814332" lon="-25.78790742267796"><ele>268.0</ele><time>2026-04-29T16:17:46.001Z</time></trkpt><trkpt lat="37.8551199257249" lon="-25.787986900427004"><ele>268.0</ele><time>2026-04-29T16:17:52.001Z</time></trkpt><trkpt lat="37.855073707593874" lon="-25.788047599276933"><ele>265.0</ele><time>2026-04-29T16:17:57.001Z</time></trkpt><trkpt lat="37.85503424040879" lon="-25.788126120680833"><ele>265.0</ele><time>2026-04-29T16:18:03.001Z</time></trkpt><trkpt lat="37.85499207007884" lon="-25.788193522332097"><ele>265.0</ele><time>2026-04-29T16:18:08.001Z</time></trkpt><trkpt lat="37.85495730823327" lon="-25.7882635045148"><ele>265.0</ele><time>2026-04-29T16:18:16.001Z</time></trkpt><trkpt lat="37.85491775134795" lon="-25.788332459584137"><ele>265.0</ele><time>2026-04-29T16:18:22.001Z</time></trkpt></trkseg></trk></gpx>